<?xml version="1.0" encoding="UTF-8" standalone="no" ?>
<gpx xmlns="http://www.topografix.com/GPX/1/1" xmlns:xsi="http://www.w3.org/2001/XMLSchema-instance" xsi:schemaLocation="http://www.topografix.com/GPX/1/1 http://www.topografix.com/GPX/1/1/gpx.xsd" version="1.1" creator="VisuGPX - https://www.visugpx.com">
  <metadata>
    <name>Col du Parquetout La salette (Sanctuaire) 2020-06-20 16:25:42</name>
    <desc><![CDATA[Col du Parquetout La salette (Sanctuaire) 2020-06-20 16:25:42]]></desc>
  </metadata>
  <trk>
    <name><![CDATA[2020-06-20 16:25:42]]></name>
    <trkseg>
      <trkpt lat="44.87619" lon="5.92794">
        <ele>1430.58</ele>
        <time>2020-06-20T07:52:57Z</time>
      </trkpt>
      <trkpt lat="44.8762" lon="5.92794">
        <ele>1430.58</ele>
        <time>2020-06-20T07:52:58Z</time>
      </trkpt>
      <trkpt lat="44.87622" lon="5.92792">
        <ele>1432.5</ele>
        <time>2020-06-20T07:53:02Z</time>
      </trkpt>
      <trkpt lat="44.87629" lon="5.9279">
        <ele>1432.5</ele>
        <time>2020-06-20T07:53:23Z</time>
      </trkpt>
      <trkpt lat="44.87639" lon="5.92787">
        <ele>1432.98</ele>
        <time>2020-06-20T07:53:41Z</time>
      </trkpt>
      <trkpt lat="44.87645" lon="5.92784">
        <ele>1434.42</ele>
        <time>2020-06-20T07:53:50Z</time>
      </trkpt>
      <trkpt lat="44.87649" lon="5.92782">
        <ele>1434.91</ele>
        <time>2020-06-20T07:53:55Z</time>
      </trkpt>
      <trkpt lat="44.8766" lon="5.92779">
        <ele>1436.35</ele>
        <time>2020-06-20T07:54:11Z</time>
      </trkpt>
      <trkpt lat="44.87668" lon="5.92777">
        <ele>1437.79</ele>
        <time>2020-06-20T07:54:27Z</time>
      </trkpt>
      <trkpt lat="44.87677" lon="5.92771">
        <ele>1438.75</ele>
        <time>2020-06-20T07:54:41Z</time>
      </trkpt>
      <trkpt lat="44.87687" lon="5.92766">
        <ele>1440.19</ele>
        <time>2020-06-20T07:54:59Z</time>
      </trkpt>
      <trkpt lat="44.87698" lon="5.92761">
        <ele>1442.11</ele>
        <time>2020-06-20T07:55:16Z</time>
      </trkpt>
      <trkpt lat="44.87708" lon="5.92758">
        <ele>1443.08</ele>
        <time>2020-06-20T07:55:31Z</time>
      </trkpt>
      <trkpt lat="44.8771" lon="5.92759">
        <ele>1443.56</ele>
        <time>2020-06-20T07:55:35Z</time>
      </trkpt>
      <trkpt lat="44.87715" lon="5.92766">
        <ele>1444.52</ele>
        <time>2020-06-20T07:55:45Z</time>
      </trkpt>
      <trkpt lat="44.87718" lon="5.92783">
        <ele>1445.96</ele>
        <time>2020-06-20T07:55:59Z</time>
      </trkpt>
      <trkpt lat="44.87718" lon="5.9279">
        <ele>1446.44</ele>
        <time>2020-06-20T07:56:04Z</time>
      </trkpt>
      <trkpt lat="44.87715" lon="5.9281">
        <ele>1447.4</ele>
        <time>2020-06-20T07:56:19Z</time>
      </trkpt>
      <trkpt lat="44.87718" lon="5.92829">
        <ele>1449.81</ele>
        <time>2020-06-20T07:56:36Z</time>
      </trkpt>
      <trkpt lat="44.8772" lon="5.92846">
        <ele>1452.21</ele>
        <time>2020-06-20T07:56:55Z</time>
      </trkpt>
      <trkpt lat="44.87721" lon="5.92867">
        <ele>1454.13</ele>
        <time>2020-06-20T07:57:13Z</time>
      </trkpt>
      <trkpt lat="44.87723" lon="5.92888">
        <ele>1456.53</ele>
        <time>2020-06-20T07:57:32Z</time>
      </trkpt>
      <trkpt lat="44.87722" lon="5.9291">
        <ele>1459.42</ele>
        <time>2020-06-20T07:57:52Z</time>
      </trkpt>
      <trkpt lat="44.87713" lon="5.92935">
        <ele>1460.86</ele>
        <time>2020-06-20T07:58:11Z</time>
      </trkpt>
      <trkpt lat="44.87708" lon="5.92956">
        <ele>1463.26</ele>
        <time>2020-06-20T07:58:28Z</time>
      </trkpt>
      <trkpt lat="44.87703" lon="5.92973">
        <ele>1464.23</ele>
        <time>2020-06-20T07:58:49Z</time>
      </trkpt>
      <trkpt lat="44.87702" lon="5.9299">
        <ele>1466.63</ele>
        <time>2020-06-20T07:59:06Z</time>
      </trkpt>
      <trkpt lat="44.87701" lon="5.92997">
        <ele>1467.11</ele>
        <time>2020-06-20T07:59:13Z</time>
      </trkpt>
      <trkpt lat="44.87697" lon="5.93016">
        <ele>1469.03</ele>
        <time>2020-06-20T07:59:30Z</time>
      </trkpt>
      <trkpt lat="44.87699" lon="5.93034">
        <ele>1470.47</ele>
        <time>2020-06-20T07:59:45Z</time>
      </trkpt>
      <trkpt lat="44.87697" lon="5.9305">
        <ele>1472.4</ele>
        <time>2020-06-20T08:00:00Z</time>
      </trkpt>
      <trkpt lat="44.87696" lon="5.93066">
        <ele>1473.84</ele>
        <time>2020-06-20T08:00:15Z</time>
      </trkpt>
      <trkpt lat="44.87698" lon="5.93083">
        <ele>1476.24</ele>
        <time>2020-06-20T08:00:31Z</time>
      </trkpt>
      <trkpt lat="44.87699" lon="5.93099">
        <ele>1477.68</ele>
        <time>2020-06-20T08:00:46Z</time>
      </trkpt>
      <trkpt lat="44.87695" lon="5.9312">
        <ele>1479.13</ele>
        <time>2020-06-20T08:01:03Z</time>
      </trkpt>
      <trkpt lat="44.8769" lon="5.93141">
        <ele>1481.53</ele>
        <time>2020-06-20T08:01:22Z</time>
      </trkpt>
      <trkpt lat="44.87683" lon="5.93157">
        <ele>1482.01</ele>
        <time>2020-06-20T08:01:37Z</time>
      </trkpt>
      <trkpt lat="44.87684" lon="5.93176">
        <ele>1483.45</ele>
        <time>2020-06-20T08:01:52Z</time>
      </trkpt>
      <trkpt lat="44.87686" lon="5.93195">
        <ele>1485.37</ele>
        <time>2020-06-20T08:02:08Z</time>
      </trkpt>
      <trkpt lat="44.87684" lon="5.93216">
        <ele>1486.82</ele>
        <time>2020-06-20T08:02:24Z</time>
      </trkpt>
      <trkpt lat="44.87692" lon="5.93238">
        <ele>1488.26</ele>
        <time>2020-06-20T08:02:41Z</time>
      </trkpt>
      <trkpt lat="44.87697" lon="5.93253">
        <ele>1489.22</ele>
        <time>2020-06-20T08:02:54Z</time>
      </trkpt>
      <trkpt lat="44.877" lon="5.9327">
        <ele>1491.14</ele>
        <time>2020-06-20T08:03:09Z</time>
      </trkpt>
      <trkpt lat="44.87704" lon="5.93289">
        <ele>1492.58</ele>
        <time>2020-06-20T08:03:27Z</time>
      </trkpt>
      <trkpt lat="44.87709" lon="5.93304">
        <ele>1494.51</ele>
        <time>2020-06-20T08:03:42Z</time>
      </trkpt>
      <trkpt lat="44.87713" lon="5.93326">
        <ele>1496.43</ele>
        <time>2020-06-20T08:04:00Z</time>
      </trkpt>
      <trkpt lat="44.87715" lon="5.93348">
        <ele>1498.35</ele>
        <time>2020-06-20T08:04:17Z</time>
      </trkpt>
      <trkpt lat="44.87715" lon="5.93358">
        <ele>1499.31</ele>
        <time>2020-06-20T08:04:31Z</time>
      </trkpt>
      <trkpt lat="44.8772" lon="5.93367">
        <ele>1499.31</ele>
        <time>2020-06-20T08:04:43Z</time>
      </trkpt>
      <trkpt lat="44.87728" lon="5.93382">
        <ele>1501.24</ele>
        <time>2020-06-20T08:04:59Z</time>
      </trkpt>
      <trkpt lat="44.87738" lon="5.93395">
        <ele>1501.72</ele>
        <time>2020-06-20T08:05:17Z</time>
      </trkpt>
      <trkpt lat="44.8775" lon="5.93407">
        <ele>1503.16</ele>
        <time>2020-06-20T08:05:36Z</time>
      </trkpt>
      <trkpt lat="44.87759" lon="5.93414">
        <ele>1504.6</ele>
        <time>2020-06-20T08:05:50Z</time>
      </trkpt>
      <trkpt lat="44.87772" lon="5.93435">
        <ele>1506.52</ele>
        <time>2020-06-20T08:06:08Z</time>
      </trkpt>
      <trkpt lat="44.87776" lon="5.93461">
        <ele>1508.45</ele>
        <time>2020-06-20T08:06:28Z</time>
      </trkpt>
      <trkpt lat="44.87779" lon="5.93481">
        <ele>1509.89</ele>
        <time>2020-06-20T08:06:47Z</time>
      </trkpt>
      <trkpt lat="44.87782" lon="5.935">
        <ele>1510.85</ele>
        <time>2020-06-20T08:07:05Z</time>
      </trkpt>
      <trkpt lat="44.87786" lon="5.93515">
        <ele>1513.25</ele>
        <time>2020-06-20T08:07:21Z</time>
      </trkpt>
      <trkpt lat="44.87789" lon="5.93522">
        <ele>1515.66</ele>
        <time>2020-06-20T08:07:39Z</time>
      </trkpt>
      <trkpt lat="44.87783" lon="5.93528">
        <ele>1519.02</ele>
        <time>2020-06-20T08:07:58Z</time>
      </trkpt>
      <trkpt lat="44.87777" lon="5.93532">
        <ele>1522.39</ele>
        <time>2020-06-20T08:08:14Z</time>
      </trkpt>
      <trkpt lat="44.8778" lon="5.93537">
        <ele>1523.83</ele>
        <time>2020-06-20T08:08:28Z</time>
      </trkpt>
      <trkpt lat="44.87775" lon="5.93533">
        <ele>1523.83</ele>
        <time>2020-06-20T08:08:56Z</time>
      </trkpt>
      <trkpt lat="44.8778" lon="5.93544">
        <ele>1523.83</ele>
        <time>2020-06-20T08:09:21Z</time>
      </trkpt>
      <trkpt lat="44.87784" lon="5.93544">
        <ele>1524.31</ele>
        <time>2020-06-20T08:09:35Z</time>
      </trkpt>
      <trkpt lat="44.87786" lon="5.93548">
        <ele>1526.71</ele>
        <time>2020-06-20T08:09:51Z</time>
      </trkpt>
      <trkpt lat="44.87782" lon="5.93551">
        <ele>1530.08</ele>
        <time>2020-06-20T08:10:07Z</time>
      </trkpt>
      <trkpt lat="44.87778" lon="5.93552">
        <ele>1532</ele>
        <time>2020-06-20T08:10:26Z</time>
      </trkpt>
      <trkpt lat="44.87784" lon="5.93557">
        <ele>1534.4</ele>
        <time>2020-06-20T08:10:43Z</time>
      </trkpt>
      <trkpt lat="44.87788" lon="5.9356">
        <ele>1535.84</ele>
        <time>2020-06-20T08:11:02Z</time>
      </trkpt>
      <trkpt lat="44.87792" lon="5.93568">
        <ele>1539.21</ele>
        <time>2020-06-20T08:11:21Z</time>
      </trkpt>
      <trkpt lat="44.87801" lon="5.93577">
        <ele>1541.61</ele>
        <time>2020-06-20T08:11:37Z</time>
      </trkpt>
      <trkpt lat="44.87808" lon="5.93588">
        <ele>1544.5</ele>
        <time>2020-06-20T08:11:54Z</time>
      </trkpt>
      <trkpt lat="44.87814" lon="5.93599">
        <ele>1546.9</ele>
        <time>2020-06-20T08:12:11Z</time>
      </trkpt>
      <trkpt lat="44.87821" lon="5.93611">
        <ele>1549.3</ele>
        <time>2020-06-20T08:12:28Z</time>
      </trkpt>
      <trkpt lat="44.87825" lon="5.93622">
        <ele>1551.22</ele>
        <time>2020-06-20T08:12:47Z</time>
      </trkpt>
      <trkpt lat="44.87828" lon="5.93635">
        <ele>1552.19</ele>
        <time>2020-06-20T08:13:06Z</time>
      </trkpt>
      <trkpt lat="44.87834" lon="5.93652">
        <ele>1552.67</ele>
        <time>2020-06-20T08:13:27Z</time>
      </trkpt>
      <trkpt lat="44.87839" lon="5.93666">
        <ele>1555.07</ele>
        <time>2020-06-20T08:13:45Z</time>
      </trkpt>
      <trkpt lat="44.87843" lon="5.93679">
        <ele>1557.47</ele>
        <time>2020-06-20T08:14:04Z</time>
      </trkpt>
      <trkpt lat="44.87846" lon="5.93694">
        <ele>1557.95</ele>
        <time>2020-06-20T08:14:22Z</time>
      </trkpt>
      <trkpt lat="44.87848" lon="5.93716">
        <ele>1559.4</ele>
        <time>2020-06-20T08:14:39Z</time>
      </trkpt>
      <trkpt lat="44.8785" lon="5.93719">
        <ele>1562.28</ele>
        <time>2020-06-20T08:14:58Z</time>
      </trkpt>
      <trkpt lat="44.87857" lon="5.93725">
        <ele>1564.68</ele>
        <time>2020-06-20T08:15:18Z</time>
      </trkpt>
      <trkpt lat="44.87861" lon="5.93733">
        <ele>1567.09</ele>
        <time>2020-06-20T08:15:34Z</time>
      </trkpt>
      <trkpt lat="44.87865" lon="5.9374">
        <ele>1569.97</ele>
        <time>2020-06-20T08:15:50Z</time>
      </trkpt>
      <trkpt lat="44.87872" lon="5.93749">
        <ele>1572.85</ele>
        <time>2020-06-20T08:16:06Z</time>
      </trkpt>
      <trkpt lat="44.87879" lon="5.93758">
        <ele>1575.74</ele>
        <time>2020-06-20T08:16:22Z</time>
      </trkpt>
      <trkpt lat="44.87887" lon="5.93772">
        <ele>1578.14</ele>
        <time>2020-06-20T08:16:42Z</time>
      </trkpt>
      <trkpt lat="44.87896" lon="5.93786">
        <ele>1580.06</ele>
        <time>2020-06-20T08:17:02Z</time>
      </trkpt>
      <trkpt lat="44.879" lon="5.93794">
        <ele>1581.51</ele>
        <time>2020-06-20T08:17:16Z</time>
      </trkpt>
      <trkpt lat="44.87909" lon="5.93805">
        <ele>1583.91</ele>
        <time>2020-06-20T08:17:33Z</time>
      </trkpt>
      <trkpt lat="44.87916" lon="5.93806">
        <ele>1585.83</ele>
        <time>2020-06-20T08:17:51Z</time>
      </trkpt>
      <trkpt lat="44.87923" lon="5.93813">
        <ele>1587.27</ele>
        <time>2020-06-20T08:18:10Z</time>
      </trkpt>
      <trkpt lat="44.87931" lon="5.93819">
        <ele>1589.68</ele>
        <time>2020-06-20T08:18:29Z</time>
      </trkpt>
      <trkpt lat="44.87939" lon="5.93828">
        <ele>1592.56</ele>
        <time>2020-06-20T08:18:47Z</time>
      </trkpt>
      <trkpt lat="44.87951" lon="5.93836">
        <ele>1594.96</ele>
        <time>2020-06-20T08:19:06Z</time>
      </trkpt>
      <trkpt lat="44.87962" lon="5.93849">
        <ele>1597.37</ele>
        <time>2020-06-20T08:19:22Z</time>
      </trkpt>
      <trkpt lat="44.87974" lon="5.93867">
        <ele>1597.85</ele>
        <time>2020-06-20T08:19:43Z</time>
      </trkpt>
      <trkpt lat="44.87982" lon="5.93891">
        <ele>1598.81</ele>
        <time>2020-06-20T08:20:00Z</time>
      </trkpt>
      <trkpt lat="44.87987" lon="5.93903">
        <ele>1599.77</ele>
        <time>2020-06-20T08:20:17Z</time>
      </trkpt>
      <trkpt lat="44.87997" lon="5.93918">
        <ele>1602.66</ele>
        <time>2020-06-20T08:20:37Z</time>
      </trkpt>
      <trkpt lat="44.88005" lon="5.93935">
        <ele>1604.1</ele>
        <time>2020-06-20T08:20:57Z</time>
      </trkpt>
      <trkpt lat="44.88013" lon="5.93953">
        <ele>1604.58</ele>
        <time>2020-06-20T08:21:16Z</time>
      </trkpt>
      <trkpt lat="44.88016" lon="5.93963">
        <ele>1603.62</ele>
        <time>2020-06-20T08:21:29Z</time>
      </trkpt>
      <trkpt lat="44.88029" lon="5.9397">
        <ele>1603.14</ele>
        <time>2020-06-20T08:21:49Z</time>
      </trkpt>
      <trkpt lat="44.8803" lon="5.93984">
        <ele>1603.14</ele>
        <time>2020-06-20T08:22:14Z</time>
      </trkpt>
      <trkpt lat="44.88033" lon="5.93987">
        <ele>1603.62</ele>
        <time>2020-06-20T08:22:51Z</time>
      </trkpt>
      <trkpt lat="44.88034" lon="5.93991">
        <ele>1604.1</ele>
        <time>2020-06-20T08:23:27Z</time>
      </trkpt>
      <trkpt lat="44.88041" lon="5.93993">
        <ele>1604.1</ele>
        <time>2020-06-20T08:23:42Z</time>
      </trkpt>
      <trkpt lat="44.8805" lon="5.93998">
        <ele>1603.14</ele>
        <time>2020-06-20T08:24:01Z</time>
      </trkpt>
      <trkpt lat="44.88061" lon="5.94004">
        <ele>1602.66</ele>
        <time>2020-06-20T08:24:18Z</time>
      </trkpt>
      <trkpt lat="44.88077" lon="5.94014">
        <ele>1602.17</ele>
        <time>2020-06-20T08:24:35Z</time>
      </trkpt>
      <trkpt lat="44.88092" lon="5.94027">
        <ele>1600.25</ele>
        <time>2020-06-20T08:24:55Z</time>
      </trkpt>
      <trkpt lat="44.88099" lon="5.94041">
        <ele>1597.37</ele>
        <time>2020-06-20T08:25:12Z</time>
      </trkpt>
      <trkpt lat="44.88106" lon="5.94055">
        <ele>1595.45</ele>
        <time>2020-06-20T08:25:26Z</time>
      </trkpt>
      <trkpt lat="44.88113" lon="5.94067">
        <ele>1594</ele>
        <time>2020-06-20T08:25:39Z</time>
      </trkpt>
      <trkpt lat="44.88122" lon="5.94082">
        <ele>1592.08</ele>
        <time>2020-06-20T08:25:56Z</time>
      </trkpt>
      <trkpt lat="44.88127" lon="5.94096">
        <ele>1592.08</ele>
        <time>2020-06-20T08:26:10Z</time>
      </trkpt>
      <trkpt lat="44.88136" lon="5.94104">
        <ele>1592.08</ele>
        <time>2020-06-20T08:26:24Z</time>
      </trkpt>
      <trkpt lat="44.88145" lon="5.94116">
        <ele>1591.6</ele>
        <time>2020-06-20T08:26:40Z</time>
      </trkpt>
      <trkpt lat="44.88155" lon="5.94138">
        <ele>1592.08</ele>
        <time>2020-06-20T08:26:59Z</time>
      </trkpt>
      <trkpt lat="44.88165" lon="5.94161">
        <ele>1593.04</ele>
        <time>2020-06-20T08:27:16Z</time>
      </trkpt>
      <trkpt lat="44.88175" lon="5.94181">
        <ele>1593.04</ele>
        <time>2020-06-20T08:27:32Z</time>
      </trkpt>
      <trkpt lat="44.88183" lon="5.94195">
        <ele>1592.08</ele>
        <time>2020-06-20T08:27:43Z</time>
      </trkpt>
      <trkpt lat="44.88192" lon="5.94218">
        <ele>1591.6</ele>
        <time>2020-06-20T08:27:59Z</time>
      </trkpt>
      <trkpt lat="44.88199" lon="5.94235">
        <ele>1590.64</ele>
        <time>2020-06-20T08:28:15Z</time>
      </trkpt>
      <trkpt lat="44.88209" lon="5.94252">
        <ele>1590.16</ele>
        <time>2020-06-20T08:28:32Z</time>
      </trkpt>
      <trkpt lat="44.88217" lon="5.94267">
        <ele>1589.2</ele>
        <time>2020-06-20T08:28:47Z</time>
      </trkpt>
      <trkpt lat="44.88225" lon="5.94282">
        <ele>1589.2</ele>
        <time>2020-06-20T08:29:02Z</time>
      </trkpt>
      <trkpt lat="44.88235" lon="5.94298">
        <ele>1590.64</ele>
        <time>2020-06-20T08:29:15Z</time>
      </trkpt>
      <trkpt lat="44.88245" lon="5.94319">
        <ele>1591.6</ele>
        <time>2020-06-20T08:29:34Z</time>
      </trkpt>
      <trkpt lat="44.88254" lon="5.94341">
        <ele>1592.56</ele>
        <time>2020-06-20T08:29:49Z</time>
      </trkpt>
      <trkpt lat="44.88262" lon="5.94357">
        <ele>1594.48</ele>
        <time>2020-06-20T08:30:06Z</time>
      </trkpt>
      <trkpt lat="44.88273" lon="5.94377">
        <ele>1594.96</ele>
        <time>2020-06-20T08:30:24Z</time>
      </trkpt>
      <trkpt lat="44.88285" lon="5.94398">
        <ele>1594.96</ele>
        <time>2020-06-20T08:30:44Z</time>
      </trkpt>
      <trkpt lat="44.88292" lon="5.94436">
        <ele>1593.04</ele>
        <time>2020-06-20T08:31:03Z</time>
      </trkpt>
      <trkpt lat="44.8829" lon="5.94456">
        <ele>1590.64</ele>
        <time>2020-06-20T08:31:18Z</time>
      </trkpt>
      <trkpt lat="44.88279" lon="5.94477">
        <ele>1589.2</ele>
        <time>2020-06-20T08:31:35Z</time>
      </trkpt>
      <trkpt lat="44.88261" lon="5.94506">
        <ele>1587.27</ele>
        <time>2020-06-20T08:31:57Z</time>
      </trkpt>
      <trkpt lat="44.88244" lon="5.9452">
        <ele>1586.31</ele>
        <time>2020-06-20T08:32:14Z</time>
      </trkpt>
      <trkpt lat="44.88229" lon="5.94525">
        <ele>1588.72</ele>
        <time>2020-06-20T08:32:34Z</time>
      </trkpt>
      <trkpt lat="44.8821" lon="5.94529">
        <ele>1590.16</ele>
        <time>2020-06-20T08:32:54Z</time>
      </trkpt>
      <trkpt lat="44.88196" lon="5.94529">
        <ele>1592.08</ele>
        <time>2020-06-20T08:33:13Z</time>
      </trkpt>
      <trkpt lat="44.88181" lon="5.94536">
        <ele>1594</ele>
        <time>2020-06-20T08:33:31Z</time>
      </trkpt>
      <trkpt lat="44.88169" lon="5.94539">
        <ele>1595.93</ele>
        <time>2020-06-20T08:33:47Z</time>
      </trkpt>
      <trkpt lat="44.88157" lon="5.94545">
        <ele>1597.37</ele>
        <time>2020-06-20T08:34:01Z</time>
      </trkpt>
      <trkpt lat="44.88156" lon="5.94545">
        <ele>1597.37</ele>
        <time>2020-06-20T08:34:02Z</time>
      </trkpt>
      <trkpt lat="44.8814" lon="5.94553">
        <ele>1598.81</ele>
        <time>2020-06-20T08:34:18Z</time>
      </trkpt>
      <trkpt lat="44.88124" lon="5.94556">
        <ele>1599.77</ele>
        <time>2020-06-20T08:34:35Z</time>
      </trkpt>
      <trkpt lat="44.88106" lon="5.94561">
        <ele>1602.17</ele>
        <time>2020-06-20T08:34:52Z</time>
      </trkpt>
      <trkpt lat="44.88102" lon="5.94567">
        <ele>1602.17</ele>
        <time>2020-06-20T08:35:20Z</time>
      </trkpt>
      <trkpt lat="44.88091" lon="5.94567">
        <ele>1603.14</ele>
        <time>2020-06-20T08:35:38Z</time>
      </trkpt>
      <trkpt lat="44.88084" lon="5.94569">
        <ele>1604.1</ele>
        <time>2020-06-20T08:35:46Z</time>
      </trkpt>
      <trkpt lat="44.8807" lon="5.94567">
        <ele>1605.54</ele>
        <time>2020-06-20T08:36:02Z</time>
      </trkpt>
      <trkpt lat="44.88066" lon="5.94568">
        <ele>1606.5</ele>
        <time>2020-06-20T08:36:08Z</time>
      </trkpt>
      <trkpt lat="44.88056" lon="5.94572">
        <ele>1607.94</ele>
        <time>2020-06-20T08:36:24Z</time>
      </trkpt>
      <trkpt lat="44.8804" lon="5.94581">
        <ele>1608.9</ele>
        <time>2020-06-20T08:36:41Z</time>
      </trkpt>
      <trkpt lat="44.8802" lon="5.9459">
        <ele>1610.83</ele>
        <time>2020-06-20T08:36:59Z</time>
      </trkpt>
      <trkpt lat="44.88006" lon="5.94604">
        <ele>1612.75</ele>
        <time>2020-06-20T08:37:17Z</time>
      </trkpt>
      <trkpt lat="44.87994" lon="5.94616">
        <ele>1614.67</ele>
        <time>2020-06-20T08:37:36Z</time>
      </trkpt>
      <trkpt lat="44.87979" lon="5.94628">
        <ele>1616.59</ele>
        <time>2020-06-20T08:37:54Z</time>
      </trkpt>
      <trkpt lat="44.87969" lon="5.94639">
        <ele>1617.07</ele>
        <time>2020-06-20T08:38:09Z</time>
      </trkpt>
      <trkpt lat="44.87962" lon="5.94656">
        <ele>1619</ele>
        <time>2020-06-20T08:38:29Z</time>
      </trkpt>
      <trkpt lat="44.87949" lon="5.94669">
        <ele>1620.92</ele>
        <time>2020-06-20T08:38:46Z</time>
      </trkpt>
      <trkpt lat="44.87932" lon="5.9468">
        <ele>1622.36</ele>
        <time>2020-06-20T08:39:04Z</time>
      </trkpt>
      <trkpt lat="44.87914" lon="5.94692">
        <ele>1623.8</ele>
        <time>2020-06-20T08:39:22Z</time>
      </trkpt>
      <trkpt lat="44.87903" lon="5.94699">
        <ele>1625.25</ele>
        <time>2020-06-20T08:39:39Z</time>
      </trkpt>
      <trkpt lat="44.87886" lon="5.94704">
        <ele>1626.69</ele>
        <time>2020-06-20T08:39:55Z</time>
      </trkpt>
      <trkpt lat="44.87869" lon="5.94704">
        <ele>1628.13</ele>
        <time>2020-06-20T08:40:10Z</time>
      </trkpt>
      <trkpt lat="44.87857" lon="5.94698">
        <ele>1629.57</ele>
        <time>2020-06-20T08:40:25Z</time>
      </trkpt>
      <trkpt lat="44.87844" lon="5.94698">
        <ele>1630.53</ele>
        <time>2020-06-20T08:40:41Z</time>
      </trkpt>
      <trkpt lat="44.87831" lon="5.94693">
        <ele>1632.46</ele>
        <time>2020-06-20T08:40:58Z</time>
      </trkpt>
      <trkpt lat="44.87818" lon="5.94691">
        <ele>1633.9</ele>
        <time>2020-06-20T08:41:12Z</time>
      </trkpt>
      <trkpt lat="44.87809" lon="5.94685">
        <ele>1634.86</ele>
        <time>2020-06-20T08:41:25Z</time>
      </trkpt>
      <trkpt lat="44.87795" lon="5.94682">
        <ele>1635.82</ele>
        <time>2020-06-20T08:41:41Z</time>
      </trkpt>
      <trkpt lat="44.87783" lon="5.94674">
        <ele>1637.74</ele>
        <time>2020-06-20T08:41:54Z</time>
      </trkpt>
      <trkpt lat="44.87769" lon="5.94666">
        <ele>1639.19</ele>
        <time>2020-06-20T08:42:11Z</time>
      </trkpt>
      <trkpt lat="44.87752" lon="5.94651">
        <ele>1640.15</ele>
        <time>2020-06-20T08:42:28Z</time>
      </trkpt>
      <trkpt lat="44.87741" lon="5.94649">
        <ele>1641.59</ele>
        <time>2020-06-20T08:42:41Z</time>
      </trkpt>
      <trkpt lat="44.87726" lon="5.94641">
        <ele>1642.55</ele>
        <time>2020-06-20T08:42:55Z</time>
      </trkpt>
      <trkpt lat="44.87716" lon="5.94636">
        <ele>1643.99</ele>
        <time>2020-06-20T08:43:08Z</time>
      </trkpt>
      <trkpt lat="44.87705" lon="5.94635">
        <ele>1644.95</ele>
        <time>2020-06-20T08:43:24Z</time>
      </trkpt>
      <trkpt lat="44.87692" lon="5.9463">
        <ele>1646.4</ele>
        <time>2020-06-20T08:43:41Z</time>
      </trkpt>
      <trkpt lat="44.87681" lon="5.94626">
        <ele>1648.32</ele>
        <time>2020-06-20T08:44:00Z</time>
      </trkpt>
      <trkpt lat="44.87684" lon="5.94631">
        <ele>1648.8</ele>
        <time>2020-06-20T08:44:30Z</time>
      </trkpt>
      <trkpt lat="44.87678" lon="5.94626">
        <ele>1648.8</ele>
        <time>2020-06-20T08:44:46Z</time>
      </trkpt>
      <trkpt lat="44.87676" lon="5.94618">
        <ele>1648.8</ele>
        <time>2020-06-20T08:45:27Z</time>
      </trkpt>
      <trkpt lat="44.87675" lon="5.94619">
        <ele>1648.8</ele>
        <time>2020-06-20T08:45:59Z</time>
      </trkpt>
      <trkpt lat="44.87673" lon="5.94619">
        <ele>1648.8</ele>
        <time>2020-06-20T08:46:24Z</time>
      </trkpt>
      <trkpt lat="44.8767" lon="5.94621">
        <ele>1648.8</ele>
        <time>2020-06-20T08:46:51Z</time>
      </trkpt>
      <trkpt lat="44.87659" lon="5.94631">
        <ele>1649.76</ele>
        <time>2020-06-20T08:47:09Z</time>
      </trkpt>
      <trkpt lat="44.87653" lon="5.94639">
        <ele>1650.72</ele>
        <time>2020-06-20T08:47:18Z</time>
      </trkpt>
      <trkpt lat="44.8764" lon="5.94649">
        <ele>1652.16</ele>
        <time>2020-06-20T08:47:35Z</time>
      </trkpt>
      <trkpt lat="44.87629" lon="5.94658">
        <ele>1652.64</ele>
        <time>2020-06-20T08:47:52Z</time>
      </trkpt>
      <trkpt lat="44.8762" lon="5.94666">
        <ele>1654.09</ele>
        <time>2020-06-20T08:48:06Z</time>
      </trkpt>
      <trkpt lat="44.87614" lon="5.94677">
        <ele>1655.05</ele>
        <time>2020-06-20T08:48:20Z</time>
      </trkpt>
      <trkpt lat="44.87608" lon="5.94692">
        <ele>1656.01</ele>
        <time>2020-06-20T08:48:36Z</time>
      </trkpt>
      <trkpt lat="44.87602" lon="5.94708">
        <ele>1656.97</ele>
        <time>2020-06-20T08:48:54Z</time>
      </trkpt>
      <trkpt lat="44.87592" lon="5.94718">
        <ele>1659.37</ele>
        <time>2020-06-20T08:49:09Z</time>
      </trkpt>
      <trkpt lat="44.87585" lon="5.94727">
        <ele>1660.33</ele>
        <time>2020-06-20T08:49:25Z</time>
      </trkpt>
      <trkpt lat="44.87568" lon="5.94737">
        <ele>1662.26</ele>
        <time>2020-06-20T08:49:44Z</time>
      </trkpt>
      <trkpt lat="44.87555" lon="5.94742">
        <ele>1663.7</ele>
        <time>2020-06-20T08:50:03Z</time>
      </trkpt>
      <trkpt lat="44.87539" lon="5.94748">
        <ele>1665.14</ele>
        <time>2020-06-20T08:50:22Z</time>
      </trkpt>
      <trkpt lat="44.87523" lon="5.94754">
        <ele>1667.06</ele>
        <time>2020-06-20T08:50:36Z</time>
      </trkpt>
      <trkpt lat="44.87512" lon="5.94749">
        <ele>1668.51</ele>
        <time>2020-06-20T08:50:52Z</time>
      </trkpt>
      <trkpt lat="44.87501" lon="5.94747">
        <ele>1669.95</ele>
        <time>2020-06-20T08:51:07Z</time>
      </trkpt>
      <trkpt lat="44.8749" lon="5.9474">
        <ele>1671.39</ele>
        <time>2020-06-20T08:51:20Z</time>
      </trkpt>
      <trkpt lat="44.87478" lon="5.94737">
        <ele>1672.35</ele>
        <time>2020-06-20T08:51:34Z</time>
      </trkpt>
      <trkpt lat="44.87466" lon="5.94728">
        <ele>1673.79</ele>
        <time>2020-06-20T08:51:49Z</time>
      </trkpt>
      <trkpt lat="44.87458" lon="5.94722">
        <ele>1674.75</ele>
        <time>2020-06-20T08:51:56Z</time>
      </trkpt>
      <trkpt lat="44.87448" lon="5.94715">
        <ele>1675.23</ele>
        <time>2020-06-20T08:52:11Z</time>
      </trkpt>
      <trkpt lat="44.8744" lon="5.94712">
        <ele>1676.2</ele>
        <time>2020-06-20T08:52:25Z</time>
      </trkpt>
      <trkpt lat="44.87433" lon="5.94706">
        <ele>1676.68</ele>
        <time>2020-06-20T08:52:38Z</time>
      </trkpt>
      <trkpt lat="44.87434" lon="5.947">
        <ele>1676.68</ele>
        <time>2020-06-20T08:53:06Z</time>
      </trkpt>
      <trkpt lat="44.87434" lon="5.94697">
        <ele>1677.16</ele>
        <time>2020-06-20T08:53:34Z</time>
      </trkpt>
      <trkpt lat="44.8743" lon="5.94695">
        <ele>1677.16</ele>
        <time>2020-06-20T08:53:58Z</time>
      </trkpt>
      <trkpt lat="44.87425" lon="5.94691">
        <ele>1677.16</ele>
        <time>2020-06-20T08:54:16Z</time>
      </trkpt>
      <trkpt lat="44.87425" lon="5.94689">
        <ele>1677.16</ele>
        <time>2020-06-20T08:54:43Z</time>
      </trkpt>
      <trkpt lat="44.87424" lon="5.94691">
        <ele>1677.64</ele>
        <time>2020-06-20T08:55:05Z</time>
      </trkpt>
      <trkpt lat="44.87422" lon="5.94689">
        <ele>1678.12</ele>
        <time>2020-06-20T08:55:22Z</time>
      </trkpt>
      <trkpt lat="44.87426" lon="5.94683">
        <ele>1678.12</ele>
        <time>2020-06-20T08:55:50Z</time>
      </trkpt>
      <trkpt lat="44.87424" lon="5.94681">
        <ele>1678.12</ele>
        <time>2020-06-20T08:56:16Z</time>
      </trkpt>
      <trkpt lat="44.87422" lon="5.94684">
        <ele>1678.12</ele>
        <time>2020-06-20T08:56:46Z</time>
      </trkpt>
      <trkpt lat="44.87419" lon="5.94682">
        <ele>1679.08</ele>
        <time>2020-06-20T08:56:52Z</time>
      </trkpt>
      <trkpt lat="44.87408" lon="5.94676">
        <ele>1681</ele>
        <time>2020-06-20T08:57:06Z</time>
      </trkpt>
      <trkpt lat="44.87399" lon="5.94672">
        <ele>1681.48</ele>
        <time>2020-06-20T08:57:19Z</time>
      </trkpt>
      <trkpt lat="44.87391" lon="5.94669">
        <ele>1682.44</ele>
        <time>2020-06-20T08:57:34Z</time>
      </trkpt>
      <trkpt lat="44.87381" lon="5.94667">
        <ele>1683.41</ele>
        <time>2020-06-20T08:57:51Z</time>
      </trkpt>
      <trkpt lat="44.87371" lon="5.94676">
        <ele>1685.33</ele>
        <time>2020-06-20T08:58:13Z</time>
      </trkpt>
      <trkpt lat="44.87363" lon="5.94681">
        <ele>1685.81</ele>
        <time>2020-06-20T08:58:23Z</time>
      </trkpt>
      <trkpt lat="44.8735" lon="5.94685">
        <ele>1687.25</ele>
        <time>2020-06-20T08:58:40Z</time>
      </trkpt>
      <trkpt lat="44.8734" lon="5.94693">
        <ele>1688.21</ele>
        <time>2020-06-20T08:58:54Z</time>
      </trkpt>
      <trkpt lat="44.87328" lon="5.94701">
        <ele>1690.14</ele>
        <time>2020-06-20T08:59:10Z</time>
      </trkpt>
      <trkpt lat="44.87318" lon="5.9471">
        <ele>1691.58</ele>
        <time>2020-06-20T08:59:25Z</time>
      </trkpt>
      <trkpt lat="44.87313" lon="5.94714">
        <ele>1692.54</ele>
        <time>2020-06-20T08:59:32Z</time>
      </trkpt>
      <trkpt lat="44.873" lon="5.94725">
        <ele>1693.5</ele>
        <time>2020-06-20T08:59:49Z</time>
      </trkpt>
      <trkpt lat="44.87285" lon="5.94734">
        <ele>1694.94</ele>
        <time>2020-06-20T09:00:05Z</time>
      </trkpt>
      <trkpt lat="44.87274" lon="5.94736">
        <ele>1696.86</ele>
        <time>2020-06-20T09:00:20Z</time>
      </trkpt>
      <trkpt lat="44.87262" lon="5.94737">
        <ele>1697.83</ele>
        <time>2020-06-20T09:00:33Z</time>
      </trkpt>
      <trkpt lat="44.87246" lon="5.94741">
        <ele>1699.27</ele>
        <time>2020-06-20T09:00:49Z</time>
      </trkpt>
      <trkpt lat="44.87232" lon="5.94739">
        <ele>1700.71</ele>
        <time>2020-06-20T09:01:04Z</time>
      </trkpt>
      <trkpt lat="44.87219" lon="5.94742">
        <ele>1701.67</ele>
        <time>2020-06-20T09:01:19Z</time>
      </trkpt>
      <trkpt lat="44.87206" lon="5.94742">
        <ele>1703.59</ele>
        <time>2020-06-20T09:01:36Z</time>
      </trkpt>
      <trkpt lat="44.87188" lon="5.9474">
        <ele>1705.52</ele>
        <time>2020-06-20T09:01:53Z</time>
      </trkpt>
      <trkpt lat="44.87172" lon="5.94741">
        <ele>1706.48</ele>
        <time>2020-06-20T09:02:09Z</time>
      </trkpt>
      <trkpt lat="44.87162" lon="5.94743">
        <ele>1706.96</ele>
        <time>2020-06-20T09:02:23Z</time>
      </trkpt>
      <trkpt lat="44.87154" lon="5.9474">
        <ele>1708.4</ele>
        <time>2020-06-20T09:02:37Z</time>
      </trkpt>
      <trkpt lat="44.87143" lon="5.94738">
        <ele>1709.84</ele>
        <time>2020-06-20T09:02:53Z</time>
      </trkpt>
      <trkpt lat="44.87142" lon="5.94738">
        <ele>1709.84</ele>
        <time>2020-06-20T09:02:54Z</time>
      </trkpt>
      <trkpt lat="44.8714" lon="5.94739">
        <ele>1709.84</ele>
        <time>2020-06-20T09:02:57Z</time>
      </trkpt>
      <trkpt lat="44.87124" lon="5.9474">
        <ele>1711.76</ele>
        <time>2020-06-20T09:03:14Z</time>
      </trkpt>
      <trkpt lat="44.87111" lon="5.94743">
        <ele>1712.73</ele>
        <time>2020-06-20T09:03:30Z</time>
      </trkpt>
      <trkpt lat="44.87098" lon="5.94746">
        <ele>1713.69</ele>
        <time>2020-06-20T09:03:47Z</time>
      </trkpt>
      <trkpt lat="44.8709" lon="5.94749">
        <ele>1716.57</ele>
        <time>2020-06-20T09:04:03Z</time>
      </trkpt>
      <trkpt lat="44.8708" lon="5.94758">
        <ele>1716.57</ele>
        <time>2020-06-20T09:04:18Z</time>
      </trkpt>
      <trkpt lat="44.87068" lon="5.94768">
        <ele>1717.53</ele>
        <time>2020-06-20T09:04:33Z</time>
      </trkpt>
      <trkpt lat="44.87055" lon="5.94776">
        <ele>1718.97</ele>
        <time>2020-06-20T09:04:50Z</time>
      </trkpt>
      <trkpt lat="44.87046" lon="5.94787">
        <ele>1720.42</ele>
        <time>2020-06-20T09:05:06Z</time>
      </trkpt>
      <trkpt lat="44.87042" lon="5.94796">
        <ele>1720.9</ele>
        <time>2020-06-20T09:05:23Z</time>
      </trkpt>
      <trkpt lat="44.87043" lon="5.94805">
        <ele>1721.38</ele>
        <time>2020-06-20T09:05:39Z</time>
      </trkpt>
      <trkpt lat="44.87042" lon="5.94813">
        <ele>1722.34</ele>
        <time>2020-06-20T09:05:55Z</time>
      </trkpt>
      <trkpt lat="44.87039" lon="5.94823">
        <ele>1723.78</ele>
        <time>2020-06-20T09:06:10Z</time>
      </trkpt>
      <trkpt lat="44.87039" lon="5.94824">
        <ele>1723.78</ele>
        <time>2020-06-20T09:06:12Z</time>
      </trkpt>
      <trkpt lat="44.87039" lon="5.94838">
        <ele>1724.26</ele>
        <time>2020-06-20T09:06:28Z</time>
      </trkpt>
      <trkpt lat="44.87034" lon="5.94855">
        <ele>1725.7</ele>
        <time>2020-06-20T09:06:46Z</time>
      </trkpt>
      <trkpt lat="44.87031" lon="5.94872">
        <ele>1726.18</ele>
        <time>2020-06-20T09:07:01Z</time>
      </trkpt>
      <trkpt lat="44.87027" lon="5.94887">
        <ele>1728.59</ele>
        <time>2020-06-20T09:07:16Z</time>
      </trkpt>
      <trkpt lat="44.8702" lon="5.949">
        <ele>1729.55</ele>
        <time>2020-06-20T09:07:32Z</time>
      </trkpt>
      <trkpt lat="44.87018" lon="5.94906">
        <ele>1729.55</ele>
        <time>2020-06-20T09:07:37Z</time>
      </trkpt>
      <trkpt lat="44.87014" lon="5.94918">
        <ele>1729.55</ele>
        <time>2020-06-20T09:07:53Z</time>
      </trkpt>
      <trkpt lat="44.87008" lon="5.9493">
        <ele>1730.03</ele>
        <time>2020-06-20T09:08:17Z</time>
      </trkpt>
      <trkpt lat="44.87003" lon="5.9494">
        <ele>1731.95</ele>
        <time>2020-06-20T09:08:34Z</time>
      </trkpt>
      <trkpt lat="44.86994" lon="5.9495">
        <ele>1733.39</ele>
        <time>2020-06-20T09:08:49Z</time>
      </trkpt>
      <trkpt lat="44.86985" lon="5.94956">
        <ele>1734.36</ele>
        <time>2020-06-20T09:09:03Z</time>
      </trkpt>
      <trkpt lat="44.86971" lon="5.94965">
        <ele>1736.28</ele>
        <time>2020-06-20T09:09:22Z</time>
      </trkpt>
      <trkpt lat="44.86961" lon="5.94972">
        <ele>1737.24</ele>
        <time>2020-06-20T09:09:37Z</time>
      </trkpt>
      <trkpt lat="44.86948" lon="5.94976">
        <ele>1738.2</ele>
        <time>2020-06-20T09:09:53Z</time>
      </trkpt>
      <trkpt lat="44.86936" lon="5.94985">
        <ele>1739.16</ele>
        <time>2020-06-20T09:10:12Z</time>
      </trkpt>
      <trkpt lat="44.86923" lon="5.94989">
        <ele>1741.08</ele>
        <time>2020-06-20T09:10:27Z</time>
      </trkpt>
      <trkpt lat="44.86912" lon="5.94989">
        <ele>1742.53</ele>
        <time>2020-06-20T09:10:43Z</time>
      </trkpt>
      <trkpt lat="44.8691" lon="5.94993">
        <ele>1743.01</ele>
        <time>2020-06-20T09:10:57Z</time>
      </trkpt>
      <trkpt lat="44.86903" lon="5.95">
        <ele>1743.97</ele>
        <time>2020-06-20T09:11:14Z</time>
      </trkpt>
      <trkpt lat="44.86906" lon="5.94999">
        <ele>1743.97</ele>
        <time>2020-06-20T09:11:40Z</time>
      </trkpt>
      <trkpt lat="44.86904" lon="5.95013">
        <ele>1745.41</ele>
        <time>2020-06-20T09:11:55Z</time>
      </trkpt>
      <trkpt lat="44.86905" lon="5.95016">
        <ele>1745.41</ele>
        <time>2020-06-20T09:12:02Z</time>
      </trkpt>
      <trkpt lat="44.86904" lon="5.95027">
        <ele>1746.37</ele>
        <time>2020-06-20T09:12:16Z</time>
      </trkpt>
      <trkpt lat="44.86901" lon="5.95048">
        <ele>1747.33</ele>
        <time>2020-06-20T09:12:33Z</time>
      </trkpt>
      <trkpt lat="44.86892" lon="5.95065">
        <ele>1747.81</ele>
        <time>2020-06-20T09:12:45Z</time>
      </trkpt>
      <trkpt lat="44.8688" lon="5.95082">
        <ele>1749.74</ele>
        <time>2020-06-20T09:13:01Z</time>
      </trkpt>
      <trkpt lat="44.86868" lon="5.95092">
        <ele>1752.14</ele>
        <time>2020-06-20T09:13:18Z</time>
      </trkpt>
      <trkpt lat="44.86853" lon="5.95098">
        <ele>1753.58</ele>
        <time>2020-06-20T09:13:36Z</time>
      </trkpt>
      <trkpt lat="44.86841" lon="5.95112">
        <ele>1754.54</ele>
        <time>2020-06-20T09:13:52Z</time>
      </trkpt>
      <trkpt lat="44.8683" lon="5.95119">
        <ele>1755.99</ele>
        <time>2020-06-20T09:14:08Z</time>
      </trkpt>
      <trkpt lat="44.8681" lon="5.95121">
        <ele>1757.43</ele>
        <time>2020-06-20T09:14:26Z</time>
      </trkpt>
      <trkpt lat="44.86801" lon="5.95132">
        <ele>1758.39</ele>
        <time>2020-06-20T09:14:43Z</time>
      </trkpt>
      <trkpt lat="44.8679" lon="5.95141">
        <ele>1759.35</ele>
        <time>2020-06-20T09:14:58Z</time>
      </trkpt>
      <trkpt lat="44.86779" lon="5.9515">
        <ele>1760.79</ele>
        <time>2020-06-20T09:15:11Z</time>
      </trkpt>
      <trkpt lat="44.86775" lon="5.95159">
        <ele>1761.27</ele>
        <time>2020-06-20T09:15:24Z</time>
      </trkpt>
      <trkpt lat="44.86775" lon="5.9517">
        <ele>1762.71</ele>
        <time>2020-06-20T09:15:42Z</time>
      </trkpt>
      <trkpt lat="44.86773" lon="5.95185">
        <ele>1765.12</ele>
        <time>2020-06-20T09:15:58Z</time>
      </trkpt>
      <trkpt lat="44.86768" lon="5.952">
        <ele>1766.08</ele>
        <time>2020-06-20T09:16:15Z</time>
      </trkpt>
      <trkpt lat="44.86757" lon="5.95222">
        <ele>1768.96</ele>
        <time>2020-06-20T09:16:32Z</time>
      </trkpt>
      <trkpt lat="44.86749" lon="5.95235">
        <ele>1769.92</ele>
        <time>2020-06-20T09:16:47Z</time>
      </trkpt>
      <trkpt lat="44.8673" lon="5.95242">
        <ele>1771.37</ele>
        <time>2020-06-20T09:17:04Z</time>
      </trkpt>
      <trkpt lat="44.86719" lon="5.9524">
        <ele>1771.85</ele>
        <time>2020-06-20T09:17:18Z</time>
      </trkpt>
      <trkpt lat="44.86718" lon="5.95244">
        <ele>1771.85</ele>
        <time>2020-06-20T09:17:43Z</time>
      </trkpt>
      <trkpt lat="44.86717" lon="5.95245">
        <ele>1771.37</ele>
        <time>2020-06-20T09:18:12Z</time>
      </trkpt>
      <trkpt lat="44.86714" lon="5.95241">
        <ele>1772.33</ele>
        <time>2020-06-20T09:18:40Z</time>
      </trkpt>
      <trkpt lat="44.86708" lon="5.95247">
        <ele>1772.33</ele>
        <time>2020-06-20T09:19:10Z</time>
      </trkpt>
      <trkpt lat="44.86708" lon="5.95247">
        <ele>1772.33</ele>
        <time>2020-06-20T09:19:16Z</time>
      </trkpt>
      <trkpt lat="44.86707" lon="5.95247">
        <ele>1772.33</ele>
        <time>2020-06-20T09:19:18Z</time>
      </trkpt>
      <trkpt lat="44.86698" lon="5.95245">
        <ele>1772.81</ele>
        <time>2020-06-20T09:19:32Z</time>
      </trkpt>
      <trkpt lat="44.86691" lon="5.9525">
        <ele>1774.25</ele>
        <time>2020-06-20T09:19:49Z</time>
      </trkpt>
      <trkpt lat="44.86687" lon="5.95256">
        <ele>1775.21</ele>
        <time>2020-06-20T09:19:59Z</time>
      </trkpt>
      <trkpt lat="44.86683" lon="5.95269">
        <ele>1776.17</ele>
        <time>2020-06-20T09:20:15Z</time>
      </trkpt>
      <trkpt lat="44.86675" lon="5.9528">
        <ele>1777.13</ele>
        <time>2020-06-20T09:20:31Z</time>
      </trkpt>
      <trkpt lat="44.86674" lon="5.95282">
        <ele>1777.61</ele>
        <time>2020-06-20T09:20:34Z</time>
      </trkpt>
      <trkpt lat="44.86665" lon="5.95294">
        <ele>1779.06</ele>
        <time>2020-06-20T09:20:48Z</time>
      </trkpt>
      <trkpt lat="44.86655" lon="5.95309">
        <ele>1780.02</ele>
        <time>2020-06-20T09:21:04Z</time>
      </trkpt>
      <trkpt lat="44.86647" lon="5.9532">
        <ele>1781.46</ele>
        <time>2020-06-20T09:21:21Z</time>
      </trkpt>
      <trkpt lat="44.86639" lon="5.95336">
        <ele>1784.34</ele>
        <time>2020-06-20T09:21:37Z</time>
      </trkpt>
      <trkpt lat="44.8663" lon="5.95348">
        <ele>1785.79</ele>
        <time>2020-06-20T09:21:53Z</time>
      </trkpt>
      <trkpt lat="44.86617" lon="5.95356">
        <ele>1787.71</ele>
        <time>2020-06-20T09:22:09Z</time>
      </trkpt>
      <trkpt lat="44.86606" lon="5.95363">
        <ele>1789.63</ele>
        <time>2020-06-20T09:22:25Z</time>
      </trkpt>
      <trkpt lat="44.86603" lon="5.95373">
        <ele>1790.11</ele>
        <time>2020-06-20T09:22:42Z</time>
      </trkpt>
      <trkpt lat="44.86605" lon="5.9538">
        <ele>1791.07</ele>
        <time>2020-06-20T09:22:56Z</time>
      </trkpt>
      <trkpt lat="44.86605" lon="5.95395">
        <ele>1792.52</ele>
        <time>2020-06-20T09:23:12Z</time>
      </trkpt>
      <trkpt lat="44.86604" lon="5.95415">
        <ele>1793</ele>
        <time>2020-06-20T09:23:28Z</time>
      </trkpt>
      <trkpt lat="44.86607" lon="5.95431">
        <ele>1793.48</ele>
        <time>2020-06-20T09:23:43Z</time>
      </trkpt>
      <trkpt lat="44.86608" lon="5.95446">
        <ele>1794.44</ele>
        <time>2020-06-20T09:23:57Z</time>
      </trkpt>
      <trkpt lat="44.86605" lon="5.95456">
        <ele>1794.44</ele>
        <time>2020-06-20T09:24:06Z</time>
      </trkpt>
      <trkpt lat="44.86599" lon="5.95465">
        <ele>1794.44</ele>
        <time>2020-06-20T09:24:12Z</time>
      </trkpt>
      <trkpt lat="44.86585" lon="5.95469">
        <ele>1795.4</ele>
        <time>2020-06-20T09:24:29Z</time>
      </trkpt>
      <trkpt lat="44.86582" lon="5.9548">
        <ele>1795.88</ele>
        <time>2020-06-20T09:24:47Z</time>
      </trkpt>
      <trkpt lat="44.86588" lon="5.95493">
        <ele>1795.88</ele>
        <time>2020-06-20T09:25:10Z</time>
      </trkpt>
      <trkpt lat="44.86593" lon="5.95493">
        <ele>1796.36</ele>
        <time>2020-06-20T09:25:37Z</time>
      </trkpt>
      <trkpt lat="44.86595" lon="5.95498">
        <ele>1796.84</ele>
        <time>2020-06-20T09:26:02Z</time>
      </trkpt>
      <trkpt lat="44.866" lon="5.95491">
        <ele>1797.32</ele>
        <time>2020-06-20T09:26:20Z</time>
      </trkpt>
      <trkpt lat="44.86601" lon="5.95488">
        <ele>1797.8</ele>
        <time>2020-06-20T09:26:48Z</time>
      </trkpt>
      <trkpt lat="44.86599" lon="5.95493">
        <ele>1798.28</ele>
        <time>2020-06-20T09:27:11Z</time>
      </trkpt>
      <trkpt lat="44.86593" lon="5.955">
        <ele>1798.28</ele>
        <time>2020-06-20T09:27:37Z</time>
      </trkpt>
      <trkpt lat="44.86599" lon="5.95506">
        <ele>1798.76</ele>
        <time>2020-06-20T09:28:07Z</time>
      </trkpt>
      <trkpt lat="44.86599" lon="5.95508">
        <ele>1798.76</ele>
        <time>2020-06-20T09:28:32Z</time>
      </trkpt>
      <trkpt lat="44.86604" lon="5.95502">
        <ele>1799.24</ele>
        <time>2020-06-20T09:29:02Z</time>
      </trkpt>
      <trkpt lat="44.86591" lon="5.95503">
        <ele>1799.24</ele>
        <time>2020-06-20T09:29:28Z</time>
      </trkpt>
      <trkpt lat="44.86588" lon="5.95501">
        <ele>1799.24</ele>
        <time>2020-06-20T09:29:49Z</time>
      </trkpt>
      <trkpt lat="44.86591" lon="5.95501">
        <ele>1799.24</ele>
        <time>2020-06-20T09:30:11Z</time>
      </trkpt>
      <trkpt lat="44.8659" lon="5.95512">
        <ele>1799.73</ele>
        <time>2020-06-20T09:30:34Z</time>
      </trkpt>
      <trkpt lat="44.86594" lon="5.95517">
        <ele>1800.21</ele>
        <time>2020-06-20T09:30:42Z</time>
      </trkpt>
      <trkpt lat="44.86597" lon="5.95518">
        <ele>1800.21</ele>
        <time>2020-06-20T09:30:45Z</time>
      </trkpt>
      <trkpt lat="44.86595" lon="5.95522">
        <ele>1800.69</ele>
        <time>2020-06-20T09:31:00Z</time>
      </trkpt>
      <trkpt lat="44.86593" lon="5.95519">
        <ele>1800.69</ele>
        <time>2020-06-20T09:31:27Z</time>
      </trkpt>
      <trkpt lat="44.86589" lon="5.95518">
        <ele>1801.17</ele>
        <time>2020-06-20T09:31:54Z</time>
      </trkpt>
      <trkpt lat="44.86576" lon="5.95539">
        <ele>1802.13</ele>
        <time>2020-06-20T09:32:07Z</time>
      </trkpt>
      <trkpt lat="44.86569" lon="5.95557">
        <ele>1802.61</ele>
        <time>2020-06-20T09:32:21Z</time>
      </trkpt>
      <trkpt lat="44.86569" lon="5.95569">
        <ele>1804.05</ele>
        <time>2020-06-20T09:32:35Z</time>
      </trkpt>
      <trkpt lat="44.8657" lon="5.95578">
        <ele>1804.53</ele>
        <time>2020-06-20T09:32:46Z</time>
      </trkpt>
      <trkpt lat="44.86564" lon="5.95588">
        <ele>1805.97</ele>
        <time>2020-06-20T09:33:02Z</time>
      </trkpt>
      <trkpt lat="44.86562" lon="5.95595">
        <ele>1806.94</ele>
        <time>2020-06-20T09:33:17Z</time>
      </trkpt>
      <trkpt lat="44.86563" lon="5.95599">
        <ele>1806.94</ele>
        <time>2020-06-20T09:33:35Z</time>
      </trkpt>
      <trkpt lat="44.8656" lon="5.95608">
        <ele>1806.94</ele>
        <time>2020-06-20T09:33:53Z</time>
      </trkpt>
      <trkpt lat="44.86565" lon="5.95614">
        <ele>1807.9</ele>
        <time>2020-06-20T09:34:08Z</time>
      </trkpt>
      <trkpt lat="44.8657" lon="5.95621">
        <ele>1808.86</ele>
        <time>2020-06-20T09:34:23Z</time>
      </trkpt>
      <trkpt lat="44.86571" lon="5.95634">
        <ele>1809.34</ele>
        <time>2020-06-20T09:34:37Z</time>
      </trkpt>
      <trkpt lat="44.8657" lon="5.95645">
        <ele>1809.34</ele>
        <time>2020-06-20T09:34:56Z</time>
      </trkpt>
      <trkpt lat="44.86566" lon="5.95654">
        <ele>1809.82</ele>
        <time>2020-06-20T09:35:09Z</time>
      </trkpt>
      <trkpt lat="44.86568" lon="5.95661">
        <ele>1810.3</ele>
        <time>2020-06-20T09:35:27Z</time>
      </trkpt>
      <trkpt lat="44.8657" lon="5.95675">
        <ele>1810.78</ele>
        <time>2020-06-20T09:35:41Z</time>
      </trkpt>
      <trkpt lat="44.86568" lon="5.95677">
        <ele>1810.78</ele>
        <time>2020-06-20T09:35:42Z</time>
      </trkpt>
      <trkpt lat="44.8656" lon="5.95694">
        <ele>1812.22</ele>
        <time>2020-06-20T09:35:55Z</time>
      </trkpt>
      <trkpt lat="44.86559" lon="5.95698">
        <ele>1812.22</ele>
        <time>2020-06-20T09:35:58Z</time>
      </trkpt>
      <trkpt lat="44.86553" lon="5.95709">
        <ele>1813.18</ele>
        <time>2020-06-20T09:36:13Z</time>
      </trkpt>
      <trkpt lat="44.86544" lon="5.95709">
        <ele>1814.63</ele>
        <time>2020-06-20T09:36:28Z</time>
      </trkpt>
      <trkpt lat="44.86538" lon="5.95708">
        <ele>1814.63</ele>
        <time>2020-06-20T09:36:38Z</time>
      </trkpt>
      <trkpt lat="44.86524" lon="5.95707">
        <ele>1816.07</ele>
        <time>2020-06-20T09:36:53Z</time>
      </trkpt>
      <trkpt lat="44.86514" lon="5.95714">
        <ele>1817.51</ele>
        <time>2020-06-20T09:37:11Z</time>
      </trkpt>
      <trkpt lat="44.86512" lon="5.95719">
        <ele>1817.51</ele>
        <time>2020-06-20T09:37:18Z</time>
      </trkpt>
      <trkpt lat="44.86508" lon="5.95735">
        <ele>1817.51</ele>
        <time>2020-06-20T09:37:34Z</time>
      </trkpt>
      <trkpt lat="44.86497" lon="5.95754">
        <ele>1818.95</ele>
        <time>2020-06-20T09:37:54Z</time>
      </trkpt>
      <trkpt lat="44.86496" lon="5.95755">
        <ele>1818.95</ele>
        <time>2020-06-20T09:37:55Z</time>
      </trkpt>
      <trkpt lat="44.86487" lon="5.95765">
        <ele>1819.43</ele>
        <time>2020-06-20T09:38:12Z</time>
      </trkpt>
      <trkpt lat="44.86479" lon="5.95772">
        <ele>1819.43</ele>
        <time>2020-06-20T09:38:25Z</time>
      </trkpt>
      <trkpt lat="44.86468" lon="5.95782">
        <ele>1820.87</ele>
        <time>2020-06-20T09:38:40Z</time>
      </trkpt>
      <trkpt lat="44.86461" lon="5.95791">
        <ele>1821.84</ele>
        <time>2020-06-20T09:38:55Z</time>
      </trkpt>
      <trkpt lat="44.8645" lon="5.958">
        <ele>1823.76</ele>
        <time>2020-06-20T09:39:10Z</time>
      </trkpt>
      <trkpt lat="44.86437" lon="5.95808">
        <ele>1824.72</ele>
        <time>2020-06-20T09:39:27Z</time>
      </trkpt>
      <trkpt lat="44.86423" lon="5.95813">
        <ele>1826.64</ele>
        <time>2020-06-20T09:39:43Z</time>
      </trkpt>
      <trkpt lat="44.86406" lon="5.95821">
        <ele>1827.6</ele>
        <time>2020-06-20T09:40:01Z</time>
      </trkpt>
      <trkpt lat="44.86391" lon="5.95831">
        <ele>1829.05</ele>
        <time>2020-06-20T09:40:18Z</time>
      </trkpt>
      <trkpt lat="44.8638" lon="5.9584">
        <ele>1829.05</ele>
        <time>2020-06-20T09:40:33Z</time>
      </trkpt>
      <trkpt lat="44.86377" lon="5.95841">
        <ele>1829.53</ele>
        <time>2020-06-20T09:40:53Z</time>
      </trkpt>
      <trkpt lat="44.86376" lon="5.95843">
        <ele>1829.53</ele>
        <time>2020-06-20T09:41:07Z</time>
      </trkpt>
      <trkpt lat="44.86374" lon="5.95843">
        <ele>1830.01</ele>
        <time>2020-06-20T09:41:28Z</time>
      </trkpt>
      <trkpt lat="44.86374" lon="5.95844">
        <ele>1830.01</ele>
        <time>2020-06-20T09:42:04Z</time>
      </trkpt>
      <trkpt lat="44.86374" lon="5.95844">
        <ele>1830.01</ele>
        <time>2020-06-20T09:42:27Z</time>
      </trkpt>
      <trkpt lat="44.86375" lon="5.95846">
        <ele>1830.01</ele>
        <time>2020-06-20T09:42:59Z</time>
      </trkpt>
      <trkpt lat="44.86376" lon="5.95844">
        <ele>1830.01</ele>
        <time>2020-06-20T09:43:24Z</time>
      </trkpt>
      <trkpt lat="44.8637" lon="5.95851">
        <ele>1830.01</ele>
        <time>2020-06-20T09:43:39Z</time>
      </trkpt>
      <trkpt lat="44.86359" lon="5.9586">
        <ele>1829.53</ele>
        <time>2020-06-20T09:43:53Z</time>
      </trkpt>
      <trkpt lat="44.86356" lon="5.95863">
        <ele>1829.53</ele>
        <time>2020-06-20T09:44:09Z</time>
      </trkpt>
      <trkpt lat="44.86347" lon="5.95869">
        <ele>1829.53</ele>
        <time>2020-06-20T09:44:21Z</time>
      </trkpt>
      <trkpt lat="44.86335" lon="5.95875">
        <ele>1829.53</ele>
        <time>2020-06-20T09:44:37Z</time>
      </trkpt>
      <trkpt lat="44.86322" lon="5.95886">
        <ele>1828.08</ele>
        <time>2020-06-20T09:44:53Z</time>
      </trkpt>
      <trkpt lat="44.86315" lon="5.95893">
        <ele>1827.6</ele>
        <time>2020-06-20T09:45:02Z</time>
      </trkpt>
      <trkpt lat="44.86311" lon="5.95899">
        <ele>1827.12</ele>
        <time>2020-06-20T09:45:08Z</time>
      </trkpt>
      <trkpt lat="44.86305" lon="5.95912">
        <ele>1826.64</ele>
        <time>2020-06-20T09:45:22Z</time>
      </trkpt>
      <trkpt lat="44.86297" lon="5.95928">
        <ele>1826.16</ele>
        <time>2020-06-20T09:45:38Z</time>
      </trkpt>
      <trkpt lat="44.86296" lon="5.9593">
        <ele>1826.16</ele>
        <time>2020-06-20T09:45:39Z</time>
      </trkpt>
      <trkpt lat="44.86288" lon="5.95944">
        <ele>1825.2</ele>
        <time>2020-06-20T09:45:55Z</time>
      </trkpt>
      <trkpt lat="44.86279" lon="5.95957">
        <ele>1824.72</ele>
        <time>2020-06-20T09:46:08Z</time>
      </trkpt>
      <trkpt lat="44.86276" lon="5.9596">
        <ele>1824.72</ele>
        <time>2020-06-20T09:46:26Z</time>
      </trkpt>
      <trkpt lat="44.86267" lon="5.95974">
        <ele>1823.76</ele>
        <time>2020-06-20T09:46:45Z</time>
      </trkpt>
      <trkpt lat="44.86262" lon="5.95979">
        <ele>1823.76</ele>
        <time>2020-06-20T09:46:50Z</time>
      </trkpt>
      <trkpt lat="44.86259" lon="5.95984">
        <ele>1823.76</ele>
        <time>2020-06-20T09:46:54Z</time>
      </trkpt>
      <trkpt lat="44.86256" lon="5.9599">
        <ele>1823.28</ele>
        <time>2020-06-20T09:46:59Z</time>
      </trkpt>
      <trkpt lat="44.86244" lon="5.96009">
        <ele>1822.8</ele>
        <time>2020-06-20T09:47:17Z</time>
      </trkpt>
      <trkpt lat="44.86235" lon="5.96023">
        <ele>1822.32</ele>
        <time>2020-06-20T09:47:31Z</time>
      </trkpt>
      <trkpt lat="44.86227" lon="5.96033">
        <ele>1821.35</ele>
        <time>2020-06-20T09:47:46Z</time>
      </trkpt>
      <trkpt lat="44.86219" lon="5.96048">
        <ele>1821.35</ele>
        <time>2020-06-20T09:48:02Z</time>
      </trkpt>
      <trkpt lat="44.86213" lon="5.9606">
        <ele>1820.87</ele>
        <time>2020-06-20T09:48:15Z</time>
      </trkpt>
      <trkpt lat="44.8621" lon="5.96073">
        <ele>1820.39</ele>
        <time>2020-06-20T09:48:31Z</time>
      </trkpt>
      <trkpt lat="44.86202" lon="5.96089">
        <ele>1819.91</ele>
        <time>2020-06-20T09:48:47Z</time>
      </trkpt>
      <trkpt lat="44.86197" lon="5.96096">
        <ele>1818.95</ele>
        <time>2020-06-20T09:49:02Z</time>
      </trkpt>
      <trkpt lat="44.86188" lon="5.96112">
        <ele>1818.47</ele>
        <time>2020-06-20T09:49:21Z</time>
      </trkpt>
      <trkpt lat="44.86182" lon="5.96123">
        <ele>1817.51</ele>
        <time>2020-06-20T09:49:37Z</time>
      </trkpt>
      <trkpt lat="44.86174" lon="5.96135">
        <ele>1817.51</ele>
        <time>2020-06-20T09:49:51Z</time>
      </trkpt>
      <trkpt lat="44.86165" lon="5.96148">
        <ele>1817.03</ele>
        <time>2020-06-20T09:50:06Z</time>
      </trkpt>
      <trkpt lat="44.86156" lon="5.96165">
        <ele>1816.07</ele>
        <time>2020-06-20T09:50:21Z</time>
      </trkpt>
      <trkpt lat="44.86149" lon="5.96177">
        <ele>1815.11</ele>
        <time>2020-06-20T09:50:31Z</time>
      </trkpt>
      <trkpt lat="44.86139" lon="5.96193">
        <ele>1815.11</ele>
        <time>2020-06-20T09:50:46Z</time>
      </trkpt>
      <trkpt lat="44.86128" lon="5.96207">
        <ele>1814.15</ele>
        <time>2020-06-20T09:51:03Z</time>
      </trkpt>
      <trkpt lat="44.86119" lon="5.9622">
        <ele>1814.15</ele>
        <time>2020-06-20T09:51:17Z</time>
      </trkpt>
      <trkpt lat="44.86106" lon="5.96239">
        <ele>1813.18</ele>
        <time>2020-06-20T09:51:35Z</time>
      </trkpt>
      <trkpt lat="44.86101" lon="5.96243">
        <ele>1813.18</ele>
        <time>2020-06-20T09:51:44Z</time>
      </trkpt>
      <trkpt lat="44.861" lon="5.96246">
        <ele>1813.18</ele>
        <time>2020-06-20T09:51:47Z</time>
      </trkpt>
      <trkpt lat="44.8609" lon="5.9626">
        <ele>1812.22</ele>
        <time>2020-06-20T09:52:02Z</time>
      </trkpt>
      <trkpt lat="44.86076" lon="5.96278">
        <ele>1810.78</ele>
        <time>2020-06-20T09:52:19Z</time>
      </trkpt>
      <trkpt lat="44.86064" lon="5.96292">
        <ele>1810.3</ele>
        <time>2020-06-20T09:52:36Z</time>
      </trkpt>
      <trkpt lat="44.86052" lon="5.9631">
        <ele>1809.82</ele>
        <time>2020-06-20T09:52:54Z</time>
      </trkpt>
      <trkpt lat="44.86042" lon="5.96322">
        <ele>1809.34</ele>
        <time>2020-06-20T09:53:07Z</time>
      </trkpt>
      <trkpt lat="44.86038" lon="5.96328">
        <ele>1809.34</ele>
        <time>2020-06-20T09:53:13Z</time>
      </trkpt>
      <trkpt lat="44.86027" lon="5.9634">
        <ele>1808.38</ele>
        <time>2020-06-20T09:53:29Z</time>
      </trkpt>
      <trkpt lat="44.8602" lon="5.96353">
        <ele>1808.38</ele>
        <time>2020-06-20T09:53:42Z</time>
      </trkpt>
      <trkpt lat="44.86015" lon="5.96361">
        <ele>1807.9</ele>
        <time>2020-06-20T09:53:51Z</time>
      </trkpt>
      <trkpt lat="44.86005" lon="5.96377">
        <ele>1807.42</ele>
        <time>2020-06-20T09:54:06Z</time>
      </trkpt>
      <trkpt lat="44.86001" lon="5.96383">
        <ele>1806.94</ele>
        <time>2020-06-20T09:54:13Z</time>
      </trkpt>
      <trkpt lat="44.86" lon="5.96387">
        <ele>1806.94</ele>
        <time>2020-06-20T09:54:16Z</time>
      </trkpt>
      <trkpt lat="44.85993" lon="5.96399">
        <ele>1805.49</ele>
        <time>2020-06-20T09:54:29Z</time>
      </trkpt>
      <trkpt lat="44.8599" lon="5.96404">
        <ele>1805.01</ele>
        <time>2020-06-20T09:54:36Z</time>
      </trkpt>
      <trkpt lat="44.85983" lon="5.9642">
        <ele>1805.01</ele>
        <time>2020-06-20T09:54:51Z</time>
      </trkpt>
      <trkpt lat="44.85976" lon="5.96433">
        <ele>1803.57</ele>
        <time>2020-06-20T09:55:05Z</time>
      </trkpt>
      <trkpt lat="44.85969" lon="5.96445">
        <ele>1803.57</ele>
        <time>2020-06-20T09:55:23Z</time>
      </trkpt>
      <trkpt lat="44.85965" lon="5.96454">
        <ele>1803.09</ele>
        <time>2020-06-20T09:55:46Z</time>
      </trkpt>
      <trkpt lat="44.85957" lon="5.96471">
        <ele>1802.61</ele>
        <time>2020-06-20T09:56:00Z</time>
      </trkpt>
      <trkpt lat="44.85948" lon="5.96489">
        <ele>1801.65</ele>
        <time>2020-06-20T09:56:14Z</time>
      </trkpt>
      <trkpt lat="44.85945" lon="5.96497">
        <ele>1801.65</ele>
        <time>2020-06-20T09:56:19Z</time>
      </trkpt>
      <trkpt lat="44.85937" lon="5.96514">
        <ele>1800.69</ele>
        <time>2020-06-20T09:56:33Z</time>
      </trkpt>
      <trkpt lat="44.8593" lon="5.96528">
        <ele>1799.73</ele>
        <time>2020-06-20T09:56:47Z</time>
      </trkpt>
      <trkpt lat="44.85923" lon="5.96538">
        <ele>1799.73</ele>
        <time>2020-06-20T09:57:05Z</time>
      </trkpt>
      <trkpt lat="44.85914" lon="5.96555">
        <ele>1798.28</ele>
        <time>2020-06-20T09:57:20Z</time>
      </trkpt>
      <trkpt lat="44.85906" lon="5.96568">
        <ele>1798.28</ele>
        <time>2020-06-20T09:57:34Z</time>
      </trkpt>
      <trkpt lat="44.85897" lon="5.9658">
        <ele>1797.8</ele>
        <time>2020-06-20T09:57:48Z</time>
      </trkpt>
      <trkpt lat="44.85889" lon="5.96595">
        <ele>1797.32</ele>
        <time>2020-06-20T09:58:03Z</time>
      </trkpt>
      <trkpt lat="44.8588" lon="5.96609">
        <ele>1796.84</ele>
        <time>2020-06-20T09:58:17Z</time>
      </trkpt>
      <trkpt lat="44.85876" lon="5.96619">
        <ele>1796.84</ele>
        <time>2020-06-20T09:58:30Z</time>
      </trkpt>
      <trkpt lat="44.8587" lon="5.96631">
        <ele>1795.88</ele>
        <time>2020-06-20T09:58:46Z</time>
      </trkpt>
      <trkpt lat="44.85864" lon="5.96644">
        <ele>1795.4</ele>
        <time>2020-06-20T09:59:03Z</time>
      </trkpt>
      <trkpt lat="44.85858" lon="5.96661">
        <ele>1795.4</ele>
        <time>2020-06-20T09:59:20Z</time>
      </trkpt>
      <trkpt lat="44.85853" lon="5.96677">
        <ele>1794.92</ele>
        <time>2020-06-20T09:59:36Z</time>
      </trkpt>
      <trkpt lat="44.85849" lon="5.96697">
        <ele>1794.44</ele>
        <time>2020-06-20T09:59:53Z</time>
      </trkpt>
      <trkpt lat="44.85848" lon="5.96712">
        <ele>1793.96</ele>
        <time>2020-06-20T10:00:08Z</time>
      </trkpt>
      <trkpt lat="44.85845" lon="5.96722">
        <ele>1793</ele>
        <time>2020-06-20T10:00:23Z</time>
      </trkpt>
      <trkpt lat="44.85845" lon="5.96733">
        <ele>1792.52</ele>
        <time>2020-06-20T10:00:36Z</time>
      </trkpt>
      <trkpt lat="44.85843" lon="5.96745">
        <ele>1792.52</ele>
        <time>2020-06-20T10:00:51Z</time>
      </trkpt>
      <trkpt lat="44.85841" lon="5.96762">
        <ele>1791.55</ele>
        <time>2020-06-20T10:01:08Z</time>
      </trkpt>
      <trkpt lat="44.85838" lon="5.96776">
        <ele>1791.07</ele>
        <time>2020-06-20T10:01:21Z</time>
      </trkpt>
      <trkpt lat="44.85837" lon="5.96793">
        <ele>1790.59</ele>
        <time>2020-06-20T10:01:36Z</time>
      </trkpt>
      <trkpt lat="44.85834" lon="5.96807">
        <ele>1790.11</ele>
        <time>2020-06-20T10:01:51Z</time>
      </trkpt>
      <trkpt lat="44.85834" lon="5.96817">
        <ele>1789.63</ele>
        <time>2020-06-20T10:02:09Z</time>
      </trkpt>
      <trkpt lat="44.8583" lon="5.96833">
        <ele>1788.67</ele>
        <time>2020-06-20T10:02:31Z</time>
      </trkpt>
      <trkpt lat="44.85827" lon="5.96847">
        <ele>1788.19</ele>
        <time>2020-06-20T10:02:45Z</time>
      </trkpt>
      <trkpt lat="44.85828" lon="5.96861">
        <ele>1788.19</ele>
        <time>2020-06-20T10:03:03Z</time>
      </trkpt>
      <trkpt lat="44.85832" lon="5.96865">
        <ele>1788.19</ele>
        <time>2020-06-20T10:03:20Z</time>
      </trkpt>
      <trkpt lat="44.85838" lon="5.9687">
        <ele>1787.23</ele>
        <time>2020-06-20T10:03:32Z</time>
      </trkpt>
      <trkpt lat="44.85847" lon="5.96875">
        <ele>1786.27</ele>
        <time>2020-06-20T10:03:46Z</time>
      </trkpt>
      <trkpt lat="44.85849" lon="5.96875">
        <ele>1786.27</ele>
        <time>2020-06-20T10:03:49Z</time>
      </trkpt>
      <trkpt lat="44.85855" lon="5.96878">
        <ele>1786.27</ele>
        <time>2020-06-20T10:03:54Z</time>
      </trkpt>
      <trkpt lat="44.85858" lon="5.9688">
        <ele>1785.79</ele>
        <time>2020-06-20T10:03:58Z</time>
      </trkpt>
      <trkpt lat="44.85871" lon="5.96886">
        <ele>1785.31</ele>
        <time>2020-06-20T10:04:15Z</time>
      </trkpt>
      <trkpt lat="44.85875" lon="5.96888">
        <ele>1785.31</ele>
        <time>2020-06-20T10:04:21Z</time>
      </trkpt>
      <trkpt lat="44.85883" lon="5.96892">
        <ele>1784.82</ele>
        <time>2020-06-20T10:04:35Z</time>
      </trkpt>
      <trkpt lat="44.85884" lon="5.96894">
        <ele>1784.82</ele>
        <time>2020-06-20T10:04:47Z</time>
      </trkpt>
      <trkpt lat="44.85889" lon="5.96898">
        <ele>1784.82</ele>
        <time>2020-06-20T10:04:53Z</time>
      </trkpt>
      <trkpt lat="44.85896" lon="5.96907">
        <ele>1784.82</ele>
        <time>2020-06-20T10:05:03Z</time>
      </trkpt>
      <trkpt lat="44.859" lon="5.96909">
        <ele>1784.82</ele>
        <time>2020-06-20T10:05:09Z</time>
      </trkpt>
      <trkpt lat="44.85909" lon="5.9692">
        <ele>1783.86</ele>
        <time>2020-06-20T10:05:23Z</time>
      </trkpt>
      <trkpt lat="44.85911" lon="5.96921">
        <ele>1783.86</ele>
        <time>2020-06-20T10:05:25Z</time>
      </trkpt>
      <trkpt lat="44.85919" lon="5.96932">
        <ele>1783.86</ele>
        <time>2020-06-20T10:05:41Z</time>
      </trkpt>
      <trkpt lat="44.85918" lon="5.96948">
        <ele>1783.86</ele>
        <time>2020-06-20T10:05:57Z</time>
      </trkpt>
      <trkpt lat="44.85913" lon="5.96964">
        <ele>1781.94</ele>
        <time>2020-06-20T10:06:12Z</time>
      </trkpt>
      <trkpt lat="44.85909" lon="5.96978">
        <ele>1781.94</ele>
        <time>2020-06-20T10:06:26Z</time>
      </trkpt>
      <trkpt lat="44.85905" lon="5.96992">
        <ele>1781.46</ele>
        <time>2020-06-20T10:06:42Z</time>
      </trkpt>
      <trkpt lat="44.85905" lon="5.97002">
        <ele>1780.98</ele>
        <time>2020-06-20T10:06:58Z</time>
      </trkpt>
      <trkpt lat="44.85904" lon="5.97013">
        <ele>1780.02</ele>
        <time>2020-06-20T10:07:11Z</time>
      </trkpt>
      <trkpt lat="44.85904" lon="5.97015">
        <ele>1780.02</ele>
        <time>2020-06-20T10:07:25Z</time>
      </trkpt>
      <trkpt lat="44.85903" lon="5.97019">
        <ele>1779.06</ele>
        <time>2020-06-20T10:07:45Z</time>
      </trkpt>
      <trkpt lat="44.85903" lon="5.97021">
        <ele>1780.5</ele>
        <time>2020-06-20T10:07:47Z</time>
      </trkpt>
      <trkpt lat="44.85903" lon="5.97029">
        <ele>1780.02</ele>
        <time>2020-06-20T10:07:51Z</time>
      </trkpt>
      <trkpt lat="44.85907" lon="5.97049">
        <ele>1780.02</ele>
        <time>2020-06-20T10:08:05Z</time>
      </trkpt>
      <trkpt lat="44.85909" lon="5.97074">
        <ele>1778.58</ele>
        <time>2020-06-20T10:08:22Z</time>
      </trkpt>
      <trkpt lat="44.85912" lon="5.97085">
        <ele>1777.61</ele>
        <time>2020-06-20T10:08:35Z</time>
      </trkpt>
      <trkpt lat="44.85913" lon="5.97089">
        <ele>1777.61</ele>
        <time>2020-06-20T10:08:39Z</time>
      </trkpt>
      <trkpt lat="44.85918" lon="5.97096">
        <ele>1777.13</ele>
        <time>2020-06-20T10:08:54Z</time>
      </trkpt>
      <trkpt lat="44.85922" lon="5.97104">
        <ele>1776.17</ele>
        <time>2020-06-20T10:09:06Z</time>
      </trkpt>
      <trkpt lat="44.85929" lon="5.97125">
        <ele>1775.69</ele>
        <time>2020-06-20T10:09:22Z</time>
      </trkpt>
      <trkpt lat="44.85933" lon="5.97138">
        <ele>1775.21</ele>
        <time>2020-06-20T10:09:38Z</time>
      </trkpt>
      <trkpt lat="44.85941" lon="5.97145">
        <ele>1773.29</ele>
        <time>2020-06-20T10:10:00Z</time>
      </trkpt>
      <trkpt lat="44.85944" lon="5.97149">
        <ele>1772.33</ele>
        <time>2020-06-20T10:10:18Z</time>
      </trkpt>
      <trkpt lat="44.85944" lon="5.97152">
        <ele>1772.33</ele>
        <time>2020-06-20T10:10:51Z</time>
      </trkpt>
      <trkpt lat="44.85944" lon="5.97152">
        <ele>1772.33</ele>
        <time>2020-06-20T10:11:14Z</time>
      </trkpt>
      <trkpt lat="44.85942" lon="5.97145">
        <ele>1772.33</ele>
        <time>2020-06-20T10:11:38Z</time>
      </trkpt>
      <trkpt lat="44.85944" lon="5.97143">
        <ele>1771.85</ele>
        <time>2020-06-20T10:12:10Z</time>
      </trkpt>
      <trkpt lat="44.85952" lon="5.97148">
        <ele>1771.85</ele>
        <time>2020-06-20T10:12:21Z</time>
      </trkpt>
      <trkpt lat="44.85965" lon="5.97158">
        <ele>1773.77</ele>
        <time>2020-06-20T10:12:36Z</time>
      </trkpt>
      <trkpt lat="44.85977" lon="5.97165">
        <ele>1773.77</ele>
        <time>2020-06-20T10:12:50Z</time>
      </trkpt>
      <trkpt lat="44.85981" lon="5.97171">
        <ele>1774.73</ele>
        <time>2020-06-20T10:13:08Z</time>
      </trkpt>
      <trkpt lat="44.85982" lon="5.9717">
        <ele>1774.73</ele>
        <time>2020-06-20T10:13:30Z</time>
      </trkpt>
      <trkpt lat="44.85985" lon="5.97173">
        <ele>1775.21</ele>
        <time>2020-06-20T10:13:44Z</time>
      </trkpt>
      <trkpt lat="44.85988" lon="5.97183">
        <ele>1773.77</ele>
        <time>2020-06-20T10:13:53Z</time>
      </trkpt>
      <trkpt lat="44.85993" lon="5.97195">
        <ele>1772.81</ele>
        <time>2020-06-20T10:14:08Z</time>
      </trkpt>
      <trkpt lat="44.85993" lon="5.97206">
        <ele>1772.81</ele>
        <time>2020-06-20T10:14:21Z</time>
      </trkpt>
      <trkpt lat="44.85991" lon="5.9721">
        <ele>1772.81</ele>
        <time>2020-06-20T10:14:26Z</time>
      </trkpt>
      <trkpt lat="44.85985" lon="5.97229">
        <ele>1771.85</ele>
        <time>2020-06-20T10:14:44Z</time>
      </trkpt>
      <trkpt lat="44.85985" lon="5.97233">
        <ele>1771.85</ele>
        <time>2020-06-20T10:14:48Z</time>
      </trkpt>
      <trkpt lat="44.85982" lon="5.9725">
        <ele>1771.37</ele>
        <time>2020-06-20T10:15:02Z</time>
      </trkpt>
      <trkpt lat="44.8598" lon="5.97263">
        <ele>1770.89</ele>
        <time>2020-06-20T10:15:14Z</time>
      </trkpt>
      <trkpt lat="44.85979" lon="5.9728">
        <ele>1770.41</ele>
        <time>2020-06-20T10:15:30Z</time>
      </trkpt>
      <trkpt lat="44.85969" lon="5.97291">
        <ele>1769.92</ele>
        <time>2020-06-20T10:15:45Z</time>
      </trkpt>
      <trkpt lat="44.85964" lon="5.9729">
        <ele>1769.92</ele>
        <time>2020-06-20T10:16:03Z</time>
      </trkpt>
      <trkpt lat="44.85964" lon="5.9729">
        <ele>1769.92</ele>
        <time>2020-06-20T10:16:33Z</time>
      </trkpt>
      <trkpt lat="44.85965" lon="5.97293">
        <ele>1770.41</ele>
        <time>2020-06-20T10:16:59Z</time>
      </trkpt>
      <trkpt lat="44.85966" lon="5.97289">
        <ele>1770.41</ele>
        <time>2020-06-20T10:17:24Z</time>
      </trkpt>
      <trkpt lat="44.85964" lon="5.97289">
        <ele>1770.41</ele>
        <time>2020-06-20T10:17:53Z</time>
      </trkpt>
      <trkpt lat="44.85957" lon="5.973">
        <ele>1769.92</ele>
        <time>2020-06-20T10:18:07Z</time>
      </trkpt>
      <trkpt lat="44.85953" lon="5.97315">
        <ele>1768.96</ele>
        <time>2020-06-20T10:18:22Z</time>
      </trkpt>
      <trkpt lat="44.85946" lon="5.97334">
        <ele>1768.96</ele>
        <time>2020-06-20T10:18:39Z</time>
      </trkpt>
      <trkpt lat="44.85942" lon="5.97345">
        <ele>1768</ele>
        <time>2020-06-20T10:18:53Z</time>
      </trkpt>
      <trkpt lat="44.85938" lon="5.97349">
        <ele>1768</ele>
        <time>2020-06-20T10:18:59Z</time>
      </trkpt>
      <trkpt lat="44.85928" lon="5.97367">
        <ele>1767.52</ele>
        <time>2020-06-20T10:19:16Z</time>
      </trkpt>
      <trkpt lat="44.85919" lon="5.97382">
        <ele>1767.04</ele>
        <time>2020-06-20T10:19:33Z</time>
      </trkpt>
      <trkpt lat="44.85911" lon="5.97395">
        <ele>1766.56</ele>
        <time>2020-06-20T10:19:49Z</time>
      </trkpt>
      <trkpt lat="44.85908" lon="5.97399">
        <ele>1766.08</ele>
        <time>2020-06-20T10:20:06Z</time>
      </trkpt>
      <trkpt lat="44.85909" lon="5.97397">
        <ele>1765.6</ele>
        <time>2020-06-20T10:20:36Z</time>
      </trkpt>
      <trkpt lat="44.85908" lon="5.97401">
        <ele>1765.6</ele>
        <time>2020-06-20T10:20:49Z</time>
      </trkpt>
      <trkpt lat="44.85909" lon="5.97406">
        <ele>1765.6</ele>
        <time>2020-06-20T10:20:54Z</time>
      </trkpt>
      <trkpt lat="44.85913" lon="5.97422">
        <ele>1764.64</ele>
        <time>2020-06-20T10:21:09Z</time>
      </trkpt>
      <trkpt lat="44.85916" lon="5.97432">
        <ele>1766.08</ele>
        <time>2020-06-20T10:21:19Z</time>
      </trkpt>
      <trkpt lat="44.85918" lon="5.97438">
        <ele>1766.56</ele>
        <time>2020-06-20T10:21:25Z</time>
      </trkpt>
      <trkpt lat="44.85921" lon="5.97445">
        <ele>1767.04</ele>
        <time>2020-06-20T10:21:33Z</time>
      </trkpt>
      <trkpt lat="44.85926" lon="5.97461">
        <ele>1768</ele>
        <time>2020-06-20T10:21:48Z</time>
      </trkpt>
      <trkpt lat="44.85928" lon="5.97472">
        <ele>1768</ele>
        <time>2020-06-20T10:22:00Z</time>
      </trkpt>
      <trkpt lat="44.85929" lon="5.97487">
        <ele>1769.92</ele>
        <time>2020-06-20T10:22:14Z</time>
      </trkpt>
      <trkpt lat="44.85928" lon="5.97501">
        <ele>1771.85</ele>
        <time>2020-06-20T10:22:30Z</time>
      </trkpt>
      <trkpt lat="44.85926" lon="5.97514">
        <ele>1773.29</ele>
        <time>2020-06-20T10:22:45Z</time>
      </trkpt>
      <trkpt lat="44.85922" lon="5.97526">
        <ele>1775.21</ele>
        <time>2020-06-20T10:23:01Z</time>
      </trkpt>
      <trkpt lat="44.85918" lon="5.97536">
        <ele>1778.1</ele>
        <time>2020-06-20T10:23:17Z</time>
      </trkpt>
      <trkpt lat="44.85915" lon="5.97547">
        <ele>1779.06</ele>
        <time>2020-06-20T10:23:32Z</time>
      </trkpt>
      <trkpt lat="44.85915" lon="5.97561">
        <ele>1780.02</ele>
        <time>2020-06-20T10:24:01Z</time>
      </trkpt>
      <trkpt lat="44.85915" lon="5.97577">
        <ele>1780.5</ele>
        <time>2020-06-20T10:24:17Z</time>
      </trkpt>
      <trkpt lat="44.85911" lon="5.97597">
        <ele>1780.98</ele>
        <time>2020-06-20T10:24:36Z</time>
      </trkpt>
      <trkpt lat="44.85912" lon="5.97616">
        <ele>1781.46</ele>
        <time>2020-06-20T10:24:51Z</time>
      </trkpt>
      <trkpt lat="44.85913" lon="5.97626">
        <ele>1781.94</ele>
        <time>2020-06-20T10:25:09Z</time>
      </trkpt>
      <trkpt lat="44.85913" lon="5.97627">
        <ele>1781.94</ele>
        <time>2020-06-20T10:25:25Z</time>
      </trkpt>
      <trkpt lat="44.85913" lon="5.97632">
        <ele>1781.94</ele>
        <time>2020-06-20T10:25:45Z</time>
      </trkpt>
      <trkpt lat="44.85916" lon="5.97651">
        <ele>1781.94</ele>
        <time>2020-06-20T10:26:01Z</time>
      </trkpt>
      <trkpt lat="44.85919" lon="5.97667">
        <ele>1781.94</ele>
        <time>2020-06-20T10:26:17Z</time>
      </trkpt>
      <trkpt lat="44.85921" lon="5.97683">
        <ele>1781.94</ele>
        <time>2020-06-20T10:26:31Z</time>
      </trkpt>
      <trkpt lat="44.85922" lon="5.97687">
        <ele>1780.5</ele>
        <time>2020-06-20T10:26:35Z</time>
      </trkpt>
      <trkpt lat="44.85924" lon="5.97706">
        <ele>1780.02</ele>
        <time>2020-06-20T10:26:50Z</time>
      </trkpt>
      <trkpt lat="44.85927" lon="5.97718">
        <ele>1779.54</ele>
        <time>2020-06-20T10:27:03Z</time>
      </trkpt>
      <trkpt lat="44.85931" lon="5.97737">
        <ele>1778.58</ele>
        <time>2020-06-20T10:27:18Z</time>
      </trkpt>
      <trkpt lat="44.8594" lon="5.97754">
        <ele>1777.61</ele>
        <time>2020-06-20T10:27:34Z</time>
      </trkpt>
      <trkpt lat="44.85948" lon="5.9777">
        <ele>1777.13</ele>
        <time>2020-06-20T10:27:51Z</time>
      </trkpt>
      <trkpt lat="44.8595" lon="5.97774">
        <ele>1776.65</ele>
        <time>2020-06-20T10:27:55Z</time>
      </trkpt>
      <trkpt lat="44.85957" lon="5.97786">
        <ele>1776.17</ele>
        <time>2020-06-20T10:28:10Z</time>
      </trkpt>
      <trkpt lat="44.85964" lon="5.97794">
        <ele>1776.17</ele>
        <time>2020-06-20T10:28:24Z</time>
      </trkpt>
      <trkpt lat="44.85972" lon="5.97809">
        <ele>1775.69</ele>
        <time>2020-06-20T10:28:38Z</time>
      </trkpt>
      <trkpt lat="44.8598" lon="5.97822">
        <ele>1774.73</ele>
        <time>2020-06-20T10:28:53Z</time>
      </trkpt>
      <trkpt lat="44.85989" lon="5.97838">
        <ele>1774.25</ele>
        <time>2020-06-20T10:29:08Z</time>
      </trkpt>
      <trkpt lat="44.8599" lon="5.97845">
        <ele>1773.77</ele>
        <time>2020-06-20T10:29:13Z</time>
      </trkpt>
      <trkpt lat="44.85979" lon="5.97862">
        <ele>1773.29</ele>
        <time>2020-06-20T10:29:31Z</time>
      </trkpt>
      <trkpt lat="44.85963" lon="5.97874">
        <ele>1771.85</ele>
        <time>2020-06-20T10:29:52Z</time>
      </trkpt>
      <trkpt lat="44.85954" lon="5.97882">
        <ele>1770.89</ele>
        <time>2020-06-20T10:30:07Z</time>
      </trkpt>
      <trkpt lat="44.85954" lon="5.97882">
        <ele>1770.89</ele>
        <time>2020-06-20T10:30:10Z</time>
      </trkpt>
      <trkpt lat="44.85962" lon="5.97883">
        <ele>1772.33</ele>
        <time>2020-06-20T10:30:19Z</time>
      </trkpt>
      <trkpt lat="44.85956" lon="5.97881">
        <ele>1771.37</ele>
        <time>2020-06-20T10:30:35Z</time>
      </trkpt>
      <trkpt lat="44.8595" lon="5.97887">
        <ele>1769.92</ele>
        <time>2020-06-20T10:30:48Z</time>
      </trkpt>
      <trkpt lat="44.85942" lon="5.97893">
        <ele>1769.44</ele>
        <time>2020-06-20T10:31:01Z</time>
      </trkpt>
      <trkpt lat="44.85926" lon="5.97893">
        <ele>1768.48</ele>
        <time>2020-06-20T10:31:20Z</time>
      </trkpt>
      <trkpt lat="44.85917" lon="5.97899">
        <ele>1768.48</ele>
        <time>2020-06-20T10:31:38Z</time>
      </trkpt>
      <trkpt lat="44.85904" lon="5.979">
        <ele>1767.52</ele>
        <time>2020-06-20T10:31:54Z</time>
      </trkpt>
      <trkpt lat="44.85896" lon="5.97895">
        <ele>1767.52</ele>
        <time>2020-06-20T10:32:14Z</time>
      </trkpt>
      <trkpt lat="44.85897" lon="5.97893">
        <ele>1767.52</ele>
        <time>2020-06-20T10:32:38Z</time>
      </trkpt>
      <trkpt lat="44.85888" lon="5.97894">
        <ele>1766.56</ele>
        <time>2020-06-20T10:32:53Z</time>
      </trkpt>
      <trkpt lat="44.85879" lon="5.979">
        <ele>1767.04</ele>
        <time>2020-06-20T10:33:05Z</time>
      </trkpt>
      <trkpt lat="44.85873" lon="5.979">
        <ele>1767.04</ele>
        <time>2020-06-20T10:33:21Z</time>
      </trkpt>
      <trkpt lat="44.85866" lon="5.97902">
        <ele>1767.04</ele>
        <time>2020-06-20T10:33:42Z</time>
      </trkpt>
      <trkpt lat="44.85862" lon="5.97905">
        <ele>1767.04</ele>
        <time>2020-06-20T10:33:59Z</time>
      </trkpt>
      <trkpt lat="44.8586" lon="5.97903">
        <ele>1767.04</ele>
        <time>2020-06-20T10:34:22Z</time>
      </trkpt>
      <trkpt lat="44.85858" lon="5.97901">
        <ele>1767.04</ele>
        <time>2020-06-20T10:34:42Z</time>
      </trkpt>
      <trkpt lat="44.85858" lon="5.97901">
        <ele>1767.04</ele>
        <time>2020-06-20T10:35:09Z</time>
      </trkpt>
      <trkpt lat="44.85856" lon="5.979">
        <ele>1767.04</ele>
        <time>2020-06-20T10:35:39Z</time>
      </trkpt>
      <trkpt lat="44.85862" lon="5.97907">
        <ele>1767.04</ele>
        <time>2020-06-20T10:36:07Z</time>
      </trkpt>
      <trkpt lat="44.85859" lon="5.97902">
        <ele>1767.04</ele>
        <time>2020-06-20T10:36:28Z</time>
      </trkpt>
      <trkpt lat="44.85858" lon="5.97901">
        <ele>1767.52</ele>
        <time>2020-06-20T10:36:42Z</time>
      </trkpt>
      <trkpt lat="44.85858" lon="5.97901">
        <ele>1767.04</ele>
        <time>2020-06-20T10:37:16Z</time>
      </trkpt>
      <trkpt lat="44.85861" lon="5.97903">
        <ele>1767.04</ele>
        <time>2020-06-20T10:37:55Z</time>
      </trkpt>
      <trkpt lat="44.8586" lon="5.97904">
        <ele>1767.04</ele>
        <time>2020-06-20T10:38:32Z</time>
      </trkpt>
      <trkpt lat="44.85855" lon="5.97895">
        <ele>1767.04</ele>
        <time>2020-06-20T10:39:07Z</time>
      </trkpt>
      <trkpt lat="44.8586" lon="5.97903">
        <ele>1767.52</ele>
        <time>2020-06-20T10:39:49Z</time>
      </trkpt>
      <trkpt lat="44.85859" lon="5.97902">
        <ele>1767.52</ele>
        <time>2020-06-20T10:40:21Z</time>
      </trkpt>
      <trkpt lat="44.85858" lon="5.97898">
        <ele>1767.52</ele>
        <time>2020-06-20T10:41:04Z</time>
      </trkpt>
      <trkpt lat="44.85855" lon="5.97896">
        <ele>1767.52</ele>
        <time>2020-06-20T10:41:38Z</time>
      </trkpt>
      <trkpt lat="44.85855" lon="5.97898">
        <ele>1768</ele>
        <time>2020-06-20T10:42:28Z</time>
      </trkpt>
      <trkpt lat="44.85857" lon="5.97898">
        <ele>1768</ele>
        <time>2020-06-20T10:43:23Z</time>
      </trkpt>
      <trkpt lat="44.85861" lon="5.97902">
        <ele>1768.48</ele>
        <time>2020-06-20T10:44:14Z</time>
      </trkpt>
      <trkpt lat="44.85859" lon="5.97898">
        <ele>1768.48</ele>
        <time>2020-06-20T10:45:10Z</time>
      </trkpt>
      <trkpt lat="44.85859" lon="5.979">
        <ele>1768.96</ele>
        <time>2020-06-20T10:46:06Z</time>
      </trkpt>
      <trkpt lat="44.8586" lon="5.97899">
        <ele>1768.96</ele>
        <time>2020-06-20T10:47:07Z</time>
      </trkpt>
      <trkpt lat="44.8586" lon="5.97905">
        <ele>1768.96</ele>
        <time>2020-06-20T10:47:52Z</time>
      </trkpt>
      <trkpt lat="44.85859" lon="5.979">
        <ele>1769.44</ele>
        <time>2020-06-20T10:48:29Z</time>
      </trkpt>
      <trkpt lat="44.85862" lon="5.97907">
        <ele>1769.44</ele>
        <time>2020-06-20T10:49:00Z</time>
      </trkpt>
      <trkpt lat="44.85856" lon="5.97898">
        <ele>1769.92</ele>
        <time>2020-06-20T10:49:40Z</time>
      </trkpt>
      <trkpt lat="44.85857" lon="5.97898">
        <ele>1769.92</ele>
        <time>2020-06-20T10:50:09Z</time>
      </trkpt>
      <trkpt lat="44.85857" lon="5.97898">
        <ele>1769.92</ele>
        <time>2020-06-20T10:50:30Z</time>
      </trkpt>
      <trkpt lat="44.85856" lon="5.97898">
        <ele>1769.92</ele>
        <time>2020-06-20T10:50:54Z</time>
      </trkpt>
      <trkpt lat="44.85857" lon="5.97899">
        <ele>1770.41</ele>
        <time>2020-06-20T10:51:26Z</time>
      </trkpt>
      <trkpt lat="44.8586" lon="5.97906">
        <ele>1770.41</ele>
        <time>2020-06-20T10:51:45Z</time>
      </trkpt>
      <trkpt lat="44.85861" lon="5.97908">
        <ele>1770.41</ele>
        <time>2020-06-20T10:52:08Z</time>
      </trkpt>
      <trkpt lat="44.85859" lon="5.97908">
        <ele>1770.41</ele>
        <time>2020-06-20T10:52:31Z</time>
      </trkpt>
      <trkpt lat="44.85859" lon="5.97907">
        <ele>1770.41</ele>
        <time>2020-06-20T10:52:47Z</time>
      </trkpt>
      <trkpt lat="44.85862" lon="5.9791">
        <ele>1770.41</ele>
        <time>2020-06-20T10:53:14Z</time>
      </trkpt>
      <trkpt lat="44.8586" lon="5.97907">
        <ele>1770.41</ele>
        <time>2020-06-20T10:53:48Z</time>
      </trkpt>
      <trkpt lat="44.85859" lon="5.97908">
        <ele>1770.89</ele>
        <time>2020-06-20T10:54:04Z</time>
      </trkpt>
      <trkpt lat="44.85861" lon="5.97908">
        <ele>1770.89</ele>
        <time>2020-06-20T10:54:18Z</time>
      </trkpt>
      <trkpt lat="44.85863" lon="5.97909">
        <ele>1770.89</ele>
        <time>2020-06-20T10:54:35Z</time>
      </trkpt>
      <trkpt lat="44.85862" lon="5.9791">
        <ele>1770.89</ele>
        <time>2020-06-20T10:54:52Z</time>
      </trkpt>
      <trkpt lat="44.85864" lon="5.97912">
        <ele>1770.89</ele>
        <time>2020-06-20T10:55:22Z</time>
      </trkpt>
      <trkpt lat="44.85861" lon="5.9791">
        <ele>1770.89</ele>
        <time>2020-06-20T10:55:41Z</time>
      </trkpt>
      <trkpt lat="44.8586" lon="5.97906">
        <ele>1770.89</ele>
        <time>2020-06-20T10:56:09Z</time>
      </trkpt>
      <trkpt lat="44.85858" lon="5.97906">
        <ele>1770.89</ele>
        <time>2020-06-20T10:56:31Z</time>
      </trkpt>
      <trkpt lat="44.85857" lon="5.97904">
        <ele>1770.89</ele>
        <time>2020-06-20T10:56:48Z</time>
      </trkpt>
      <trkpt lat="44.85859" lon="5.97907">
        <ele>1770.89</ele>
        <time>2020-06-20T10:57:12Z</time>
      </trkpt>
      <trkpt lat="44.85859" lon="5.97906">
        <ele>1771.37</ele>
        <time>2020-06-20T10:57:27Z</time>
      </trkpt>
      <trkpt lat="44.85858" lon="5.97905">
        <ele>1771.37</ele>
        <time>2020-06-20T10:57:40Z</time>
      </trkpt>
      <trkpt lat="44.85859" lon="5.97907">
        <ele>1771.37</ele>
        <time>2020-06-20T10:57:56Z</time>
      </trkpt>
      <trkpt lat="44.8586" lon="5.97908">
        <ele>1771.37</ele>
        <time>2020-06-20T10:58:14Z</time>
      </trkpt>
      <trkpt lat="44.85859" lon="5.97907">
        <ele>1771.37</ele>
        <time>2020-06-20T10:58:30Z</time>
      </trkpt>
      <trkpt lat="44.8586" lon="5.97909">
        <ele>1771.37</ele>
        <time>2020-06-20T10:58:51Z</time>
      </trkpt>
      <trkpt lat="44.85861" lon="5.97908">
        <ele>1771.37</ele>
        <time>2020-06-20T10:59:11Z</time>
      </trkpt>
      <trkpt lat="44.85861" lon="5.97907">
        <ele>1771.37</ele>
        <time>2020-06-20T10:59:28Z</time>
      </trkpt>
      <trkpt lat="44.85861" lon="5.97907">
        <ele>1771.37</ele>
        <time>2020-06-20T10:59:47Z</time>
      </trkpt>
      <trkpt lat="44.85861" lon="5.97909">
        <ele>1771.37</ele>
        <time>2020-06-20T11:00:02Z</time>
      </trkpt>
      <trkpt lat="44.85861" lon="5.97909">
        <ele>1771.37</ele>
        <time>2020-06-20T11:00:14Z</time>
      </trkpt>
      <trkpt lat="44.85862" lon="5.97911">
        <ele>1771.37</ele>
        <time>2020-06-20T11:00:26Z</time>
      </trkpt>
      <trkpt lat="44.85862" lon="5.9791">
        <ele>1771.37</ele>
        <time>2020-06-20T11:00:44Z</time>
      </trkpt>
      <trkpt lat="44.8586" lon="5.97907">
        <ele>1771.37</ele>
        <time>2020-06-20T11:01:00Z</time>
      </trkpt>
      <trkpt lat="44.85859" lon="5.97903">
        <ele>1771.37</ele>
        <time>2020-06-20T11:01:37Z</time>
      </trkpt>
      <trkpt lat="44.85856" lon="5.97898">
        <ele>1771.37</ele>
        <time>2020-06-20T11:02:12Z</time>
      </trkpt>
      <trkpt lat="44.85855" lon="5.97902">
        <ele>1771.85</ele>
        <time>2020-06-20T11:02:54Z</time>
      </trkpt>
      <trkpt lat="44.85858" lon="5.97904">
        <ele>1771.85</ele>
        <time>2020-06-20T11:03:12Z</time>
      </trkpt>
      <trkpt lat="44.85859" lon="5.97903">
        <ele>1771.85</ele>
        <time>2020-06-20T11:03:32Z</time>
      </trkpt>
      <trkpt lat="44.85853" lon="5.97898">
        <ele>1771.85</ele>
        <time>2020-06-20T11:04:11Z</time>
      </trkpt>
      <trkpt lat="44.85857" lon="5.97902">
        <ele>1771.85</ele>
        <time>2020-06-20T11:04:36Z</time>
      </trkpt>
      <trkpt lat="44.85855" lon="5.97898">
        <ele>1771.85</ele>
        <time>2020-06-20T11:05:03Z</time>
      </trkpt>
      <trkpt lat="44.85857" lon="5.979">
        <ele>1772.33</ele>
        <time>2020-06-20T11:05:29Z</time>
      </trkpt>
      <trkpt lat="44.85851" lon="5.97891">
        <ele>1772.33</ele>
        <time>2020-06-20T11:06:05Z</time>
      </trkpt>
      <trkpt lat="44.8585" lon="5.97889">
        <ele>1772.33</ele>
        <time>2020-06-20T11:06:39Z</time>
      </trkpt>
      <trkpt lat="44.85851" lon="5.97893">
        <ele>1772.33</ele>
        <time>2020-06-20T11:07:11Z</time>
      </trkpt>
      <trkpt lat="44.85853" lon="5.97895">
        <ele>1772.33</ele>
        <time>2020-06-20T11:07:54Z</time>
      </trkpt>
      <trkpt lat="44.85854" lon="5.979">
        <ele>1772.33</ele>
        <time>2020-06-20T11:08:20Z</time>
      </trkpt>
      <trkpt lat="44.85852" lon="5.97895">
        <ele>1772.81</ele>
        <time>2020-06-20T11:08:56Z</time>
      </trkpt>
      <trkpt lat="44.85856" lon="5.97903">
        <ele>1772.81</ele>
        <time>2020-06-20T11:09:30Z</time>
      </trkpt>
      <trkpt lat="44.85856" lon="5.979">
        <ele>1772.81</ele>
        <time>2020-06-20T11:10:08Z</time>
      </trkpt>
      <trkpt lat="44.85857" lon="5.97904">
        <ele>1772.81</ele>
        <time>2020-06-20T11:10:37Z</time>
      </trkpt>
      <trkpt lat="44.85858" lon="5.97905">
        <ele>1772.81</ele>
        <time>2020-06-20T11:11:11Z</time>
      </trkpt>
      <trkpt lat="44.85859" lon="5.97904">
        <ele>1772.81</ele>
        <time>2020-06-20T11:11:43Z</time>
      </trkpt>
      <trkpt lat="44.85856" lon="5.97902">
        <ele>1772.81</ele>
        <time>2020-06-20T11:12:11Z</time>
      </trkpt>
      <trkpt lat="44.85853" lon="5.97902">
        <ele>1772.81</ele>
        <time>2020-06-20T11:12:44Z</time>
      </trkpt>
      <trkpt lat="44.85854" lon="5.97898">
        <ele>1773.29</ele>
        <time>2020-06-20T11:13:25Z</time>
      </trkpt>
      <trkpt lat="44.85853" lon="5.97893">
        <ele>1773.29</ele>
        <time>2020-06-20T11:13:55Z</time>
      </trkpt>
      <trkpt lat="44.85856" lon="5.97895">
        <ele>1772.81</ele>
        <time>2020-06-20T11:14:31Z</time>
      </trkpt>
      <trkpt lat="44.85854" lon="5.97891">
        <ele>1772.81</ele>
        <time>2020-06-20T11:15:06Z</time>
      </trkpt>
      <trkpt lat="44.85856" lon="5.97895">
        <ele>1772.81</ele>
        <time>2020-06-20T11:15:46Z</time>
      </trkpt>
      <trkpt lat="44.85856" lon="5.97896">
        <ele>1772.81</ele>
        <time>2020-06-20T11:16:13Z</time>
      </trkpt>
      <trkpt lat="44.85857" lon="5.97897">
        <ele>1772.81</ele>
        <time>2020-06-20T11:16:49Z</time>
      </trkpt>
      <trkpt lat="44.85854" lon="5.97898">
        <ele>1772.81</ele>
        <time>2020-06-20T11:17:28Z</time>
      </trkpt>
      <trkpt lat="44.85853" lon="5.97896">
        <ele>1772.33</ele>
        <time>2020-06-20T11:17:56Z</time>
      </trkpt>
      <trkpt lat="44.8585" lon="5.9789">
        <ele>1772.33</ele>
        <time>2020-06-20T11:18:23Z</time>
      </trkpt>
      <trkpt lat="44.85848" lon="5.97891">
        <ele>1772.81</ele>
        <time>2020-06-20T11:19:10Z</time>
      </trkpt>
      <trkpt lat="44.8585" lon="5.97896">
        <ele>1772.81</ele>
        <time>2020-06-20T11:19:40Z</time>
      </trkpt>
      <trkpt lat="44.85851" lon="5.97894">
        <ele>1772.81</ele>
        <time>2020-06-20T11:20:19Z</time>
      </trkpt>
      <trkpt lat="44.85853" lon="5.97896">
        <ele>1772.81</ele>
        <time>2020-06-20T11:20:58Z</time>
      </trkpt>
      <trkpt lat="44.85852" lon="5.97893">
        <ele>1772.81</ele>
        <time>2020-06-20T11:21:38Z</time>
      </trkpt>
      <trkpt lat="44.85852" lon="5.97899">
        <ele>1772.81</ele>
        <time>2020-06-20T11:22:29Z</time>
      </trkpt>
      <trkpt lat="44.85855" lon="5.97897">
        <ele>1772.81</ele>
        <time>2020-06-20T11:23:02Z</time>
      </trkpt>
      <trkpt lat="44.85854" lon="5.97901">
        <ele>1772.81</ele>
        <time>2020-06-20T11:23:30Z</time>
      </trkpt>
      <trkpt lat="44.85853" lon="5.97898">
        <ele>1772.81</ele>
        <time>2020-06-20T11:23:57Z</time>
      </trkpt>
      <trkpt lat="44.85851" lon="5.97895">
        <ele>1772.81</ele>
        <time>2020-06-20T11:24:14Z</time>
      </trkpt>
      <trkpt lat="44.85853" lon="5.97896">
        <ele>1772.81</ele>
        <time>2020-06-20T11:24:34Z</time>
      </trkpt>
      <trkpt lat="44.85858" lon="5.97895">
        <ele>1773.77</ele>
        <time>2020-06-20T11:24:50Z</time>
      </trkpt>
      <trkpt lat="44.8587" lon="5.97893">
        <ele>1773.77</ele>
        <time>2020-06-20T11:25:05Z</time>
      </trkpt>
      <trkpt lat="44.85871" lon="5.97892">
        <ele>1773.77</ele>
        <time>2020-06-20T11:25:06Z</time>
      </trkpt>
      <trkpt lat="44.85887" lon="5.97885">
        <ele>1774.25</ele>
        <time>2020-06-20T11:25:22Z</time>
      </trkpt>
      <trkpt lat="44.85901" lon="5.97886">
        <ele>1774.73</ele>
        <time>2020-06-20T11:25:39Z</time>
      </trkpt>
      <trkpt lat="44.85912" lon="5.97886">
        <ele>1774.73</ele>
        <time>2020-06-20T11:25:53Z</time>
      </trkpt>
      <trkpt lat="44.85921" lon="5.97884">
        <ele>1775.21</ele>
        <time>2020-06-20T11:26:10Z</time>
      </trkpt>
      <trkpt lat="44.85925" lon="5.9788">
        <ele>1775.21</ele>
        <time>2020-06-20T11:26:27Z</time>
      </trkpt>
      <trkpt lat="44.85933" lon="5.97873">
        <ele>1776.17</ele>
        <time>2020-06-20T11:26:41Z</time>
      </trkpt>
      <trkpt lat="44.8594" lon="5.97867">
        <ele>1777.13</ele>
        <time>2020-06-20T11:26:57Z</time>
      </trkpt>
      <trkpt lat="44.85944" lon="5.97863">
        <ele>1778.1</ele>
        <time>2020-06-20T11:27:11Z</time>
      </trkpt>
      <trkpt lat="44.85952" lon="5.97864">
        <ele>1778.58</ele>
        <time>2020-06-20T11:27:30Z</time>
      </trkpt>
      <trkpt lat="44.85955" lon="5.9786">
        <ele>1778.58</ele>
        <time>2020-06-20T11:27:48Z</time>
      </trkpt>
      <trkpt lat="44.85957" lon="5.97859">
        <ele>1779.54</ele>
        <time>2020-06-20T11:27:51Z</time>
      </trkpt>
      <trkpt lat="44.85971" lon="5.97855">
        <ele>1780.02</ele>
        <time>2020-06-20T11:28:04Z</time>
      </trkpt>
      <trkpt lat="44.85978" lon="5.97851">
        <ele>1780.5</ele>
        <time>2020-06-20T11:28:17Z</time>
      </trkpt>
      <trkpt lat="44.85981" lon="5.97847">
        <ele>1780.5</ele>
        <time>2020-06-20T11:28:32Z</time>
      </trkpt>
      <trkpt lat="44.85985" lon="5.97841">
        <ele>1780.98</ele>
        <time>2020-06-20T11:28:46Z</time>
      </trkpt>
      <trkpt lat="44.85984" lon="5.97836">
        <ele>1780.98</ele>
        <time>2020-06-20T11:29:06Z</time>
      </trkpt>
      <trkpt lat="44.85984" lon="5.97834">
        <ele>1780.98</ele>
        <time>2020-06-20T11:29:08Z</time>
      </trkpt>
      <trkpt lat="44.85976" lon="5.97824">
        <ele>1781.94</ele>
        <time>2020-06-20T11:29:22Z</time>
      </trkpt>
      <trkpt lat="44.85972" lon="5.97813">
        <ele>1781.94</ele>
        <time>2020-06-20T11:29:39Z</time>
      </trkpt>
      <trkpt lat="44.85969" lon="5.97807">
        <ele>1782.42</ele>
        <time>2020-06-20T11:29:59Z</time>
      </trkpt>
      <trkpt lat="44.85967" lon="5.97804">
        <ele>1782.42</ele>
        <time>2020-06-20T11:30:01Z</time>
      </trkpt>
      <trkpt lat="44.85955" lon="5.9779">
        <ele>1783.38</ele>
        <time>2020-06-20T11:30:17Z</time>
      </trkpt>
      <trkpt lat="44.85947" lon="5.97776">
        <ele>1783.86</ele>
        <time>2020-06-20T11:30:32Z</time>
      </trkpt>
      <trkpt lat="44.85941" lon="5.97766">
        <ele>1784.82</ele>
        <time>2020-06-20T11:30:47Z</time>
      </trkpt>
      <trkpt lat="44.85933" lon="5.9775">
        <ele>1784.82</ele>
        <time>2020-06-20T11:31:03Z</time>
      </trkpt>
      <trkpt lat="44.8593" lon="5.97742">
        <ele>1785.31</ele>
        <time>2020-06-20T11:31:11Z</time>
      </trkpt>
      <trkpt lat="44.8593" lon="5.97736">
        <ele>1785.79</ele>
        <time>2020-06-20T11:31:29Z</time>
      </trkpt>
      <trkpt lat="44.85927" lon="5.97734">
        <ele>1785.79</ele>
        <time>2020-06-20T11:31:58Z</time>
      </trkpt>
      <trkpt lat="44.85929" lon="5.97733">
        <ele>1785.79</ele>
        <time>2020-06-20T11:32:21Z</time>
      </trkpt>
      <trkpt lat="44.8593" lon="5.97734">
        <ele>1786.27</ele>
        <time>2020-06-20T11:32:47Z</time>
      </trkpt>
      <trkpt lat="44.85929" lon="5.97734">
        <ele>1786.27</ele>
        <time>2020-06-20T11:33:11Z</time>
      </trkpt>
      <trkpt lat="44.85929" lon="5.97733">
        <ele>1785.79</ele>
        <time>2020-06-20T11:33:36Z</time>
      </trkpt>
      <trkpt lat="44.85929" lon="5.97734">
        <ele>1785.79</ele>
        <time>2020-06-20T11:34:01Z</time>
      </trkpt>
      <trkpt lat="44.85929" lon="5.97735">
        <ele>1786.75</ele>
        <time>2020-06-20T11:34:20Z</time>
      </trkpt>
      <trkpt lat="44.85929" lon="5.97733">
        <ele>1784.34</ele>
        <time>2020-06-20T11:34:28Z</time>
      </trkpt>
      <trkpt lat="44.8593" lon="5.97733">
        <ele>1785.31</ele>
        <time>2020-06-20T11:35:00Z</time>
      </trkpt>
      <trkpt lat="44.85929" lon="5.97732">
        <ele>1785.79</ele>
        <time>2020-06-20T11:35:06Z</time>
      </trkpt>
      <trkpt lat="44.85929" lon="5.97732">
        <ele>1784.34</ele>
        <time>2020-06-20T11:35:08Z</time>
      </trkpt>
      <trkpt lat="44.85928" lon="5.97731">
        <ele>1787.71</ele>
        <time>2020-06-20T11:35:19Z</time>
      </trkpt>
      <trkpt lat="44.85928" lon="5.97734">
        <ele>1785.31</ele>
        <time>2020-06-20T11:35:35Z</time>
      </trkpt>
      <trkpt lat="44.85927" lon="5.97733">
        <ele>1785.31</ele>
        <time>2020-06-20T11:35:54Z</time>
      </trkpt>
      <trkpt lat="44.85926" lon="5.97731">
        <ele>1785.31</ele>
        <time>2020-06-20T11:36:19Z</time>
      </trkpt>
      <trkpt lat="44.85925" lon="5.97718">
        <ele>1785.31</ele>
        <time>2020-06-20T11:36:31Z</time>
      </trkpt>
      <trkpt lat="44.85925" lon="5.97715">
        <ele>1785.31</ele>
        <time>2020-06-20T11:36:33Z</time>
      </trkpt>
      <trkpt lat="44.85922" lon="5.97699">
        <ele>1786.75</ele>
        <time>2020-06-20T11:36:49Z</time>
      </trkpt>
      <trkpt lat="44.85922" lon="5.97694">
        <ele>1787.23</ele>
        <time>2020-06-20T11:37:08Z</time>
      </trkpt>
      <trkpt lat="44.85922" lon="5.97681">
        <ele>1787.71</ele>
        <time>2020-06-20T11:37:22Z</time>
      </trkpt>
      <trkpt lat="44.85919" lon="5.97666">
        <ele>1787.71</ele>
        <time>2020-06-20T11:37:36Z</time>
      </trkpt>
      <trkpt lat="44.8592" lon="5.97648">
        <ele>1788.19</ele>
        <time>2020-06-20T11:37:53Z</time>
      </trkpt>
      <trkpt lat="44.85916" lon="5.97633">
        <ele>1788.67</ele>
        <time>2020-06-20T11:38:04Z</time>
      </trkpt>
      <trkpt lat="44.85914" lon="5.97622">
        <ele>1788.67</ele>
        <time>2020-06-20T11:38:11Z</time>
      </trkpt>
      <trkpt lat="44.85913" lon="5.97604">
        <ele>1787.23</ele>
        <time>2020-06-20T11:38:24Z</time>
      </trkpt>
      <trkpt lat="44.85913" lon="5.97598">
        <ele>1787.23</ele>
        <time>2020-06-20T11:38:28Z</time>
      </trkpt>
      <trkpt lat="44.85917" lon="5.97577">
        <ele>1786.75</ele>
        <time>2020-06-20T11:38:45Z</time>
      </trkpt>
      <trkpt lat="44.85918" lon="5.97576">
        <ele>1786.75</ele>
        <time>2020-06-20T11:38:46Z</time>
      </trkpt>
      <trkpt lat="44.85917" lon="5.97554">
        <ele>1785.79</ele>
        <time>2020-06-20T11:39:02Z</time>
      </trkpt>
      <trkpt lat="44.85916" lon="5.97551">
        <ele>1785.31</ele>
        <time>2020-06-20T11:39:05Z</time>
      </trkpt>
      <trkpt lat="44.85918" lon="5.97533">
        <ele>1782.9</ele>
        <time>2020-06-20T11:39:19Z</time>
      </trkpt>
      <trkpt lat="44.85922" lon="5.97518">
        <ele>1780.5</ele>
        <time>2020-06-20T11:39:34Z</time>
      </trkpt>
      <trkpt lat="44.85922" lon="5.97507">
        <ele>1777.61</ele>
        <time>2020-06-20T11:39:48Z</time>
      </trkpt>
      <trkpt lat="44.85923" lon="5.97493">
        <ele>1775.69</ele>
        <time>2020-06-20T11:40:01Z</time>
      </trkpt>
      <trkpt lat="44.85924" lon="5.97483">
        <ele>1773.77</ele>
        <time>2020-06-20T11:40:17Z</time>
      </trkpt>
      <trkpt lat="44.85923" lon="5.97479">
        <ele>1773.77</ele>
        <time>2020-06-20T11:40:36Z</time>
      </trkpt>
      <trkpt lat="44.85922" lon="5.97475">
        <ele>1773.77</ele>
        <time>2020-06-20T11:41:15Z</time>
      </trkpt>
      <trkpt lat="44.8592" lon="5.97459">
        <ele>1772.33</ele>
        <time>2020-06-20T11:41:31Z</time>
      </trkpt>
      <trkpt lat="44.85917" lon="5.9745">
        <ele>1772.33</ele>
        <time>2020-06-20T11:41:44Z</time>
      </trkpt>
      <trkpt lat="44.85912" lon="5.97433">
        <ele>1770.89</ele>
        <time>2020-06-20T11:42:00Z</time>
      </trkpt>
      <trkpt lat="44.8591" lon="5.97421">
        <ele>1770.41</ele>
        <time>2020-06-20T11:42:16Z</time>
      </trkpt>
      <trkpt lat="44.85911" lon="5.97403">
        <ele>1770.41</ele>
        <time>2020-06-20T11:42:30Z</time>
      </trkpt>
      <trkpt lat="44.85913" lon="5.97387">
        <ele>1771.37</ele>
        <time>2020-06-20T11:42:44Z</time>
      </trkpt>
      <trkpt lat="44.85918" lon="5.97376">
        <ele>1771.37</ele>
        <time>2020-06-20T11:42:55Z</time>
      </trkpt>
      <trkpt lat="44.85923" lon="5.97367">
        <ele>1771.85</ele>
        <time>2020-06-20T11:43:05Z</time>
      </trkpt>
      <trkpt lat="44.85931" lon="5.97353">
        <ele>1772.33</ele>
        <time>2020-06-20T11:43:20Z</time>
      </trkpt>
      <trkpt lat="44.85939" lon="5.97341">
        <ele>1772.81</ele>
        <time>2020-06-20T11:43:34Z</time>
      </trkpt>
      <trkpt lat="44.85942" lon="5.97331">
        <ele>1773.77</ele>
        <time>2020-06-20T11:43:43Z</time>
      </trkpt>
      <trkpt lat="44.85948" lon="5.97316">
        <ele>1774.73</ele>
        <time>2020-06-20T11:43:58Z</time>
      </trkpt>
      <trkpt lat="44.85955" lon="5.97297">
        <ele>1774.73</ele>
        <time>2020-06-20T11:44:13Z</time>
      </trkpt>
      <trkpt lat="44.85956" lon="5.97293">
        <ele>1774.73</ele>
        <time>2020-06-20T11:44:17Z</time>
      </trkpt>
      <trkpt lat="44.8596" lon="5.9729">
        <ele>1774.73</ele>
        <time>2020-06-20T11:44:20Z</time>
      </trkpt>
      <trkpt lat="44.85961" lon="5.97288">
        <ele>1775.21</ele>
        <time>2020-06-20T11:44:22Z</time>
      </trkpt>
      <trkpt lat="44.8597" lon="5.97281">
        <ele>1775.21</ele>
        <time>2020-06-20T11:44:33Z</time>
      </trkpt>
      <trkpt lat="44.85978" lon="5.97268">
        <ele>1776.65</ele>
        <time>2020-06-20T11:44:49Z</time>
      </trkpt>
      <trkpt lat="44.85977" lon="5.97249">
        <ele>1776.65</ele>
        <time>2020-06-20T11:45:02Z</time>
      </trkpt>
      <trkpt lat="44.8598" lon="5.97241">
        <ele>1777.13</ele>
        <time>2020-06-20T11:45:19Z</time>
      </trkpt>
      <trkpt lat="44.85981" lon="5.97241">
        <ele>1777.13</ele>
        <time>2020-06-20T11:45:46Z</time>
      </trkpt>
      <trkpt lat="44.85982" lon="5.97237">
        <ele>1777.13</ele>
        <time>2020-06-20T11:46:09Z</time>
      </trkpt>
      <trkpt lat="44.85983" lon="5.97225">
        <ele>1777.13</ele>
        <time>2020-06-20T11:46:26Z</time>
      </trkpt>
      <trkpt lat="44.85984" lon="5.97221">
        <ele>1777.13</ele>
        <time>2020-06-20T11:46:30Z</time>
      </trkpt>
      <trkpt lat="44.8599" lon="5.97206">
        <ele>1777.61</ele>
        <time>2020-06-20T11:46:43Z</time>
      </trkpt>
      <trkpt lat="44.85992" lon="5.97197">
        <ele>1778.1</ele>
        <time>2020-06-20T11:46:54Z</time>
      </trkpt>
      <trkpt lat="44.85992" lon="5.97192">
        <ele>1778.58</ele>
        <time>2020-06-20T11:46:58Z</time>
      </trkpt>
      <trkpt lat="44.85991" lon="5.9719">
        <ele>1778.58</ele>
        <time>2020-06-20T11:47:00Z</time>
      </trkpt>
      <trkpt lat="44.85987" lon="5.97178">
        <ele>1779.06</ele>
        <time>2020-06-20T11:47:14Z</time>
      </trkpt>
      <trkpt lat="44.85984" lon="5.97175">
        <ele>1780.02</ele>
        <time>2020-06-20T11:47:27Z</time>
      </trkpt>
      <trkpt lat="44.85977" lon="5.97172">
        <ele>1778.58</ele>
        <time>2020-06-20T11:47:34Z</time>
      </trkpt>
      <trkpt lat="44.85966" lon="5.97166">
        <ele>1778.58</ele>
        <time>2020-06-20T11:47:50Z</time>
      </trkpt>
      <trkpt lat="44.85954" lon="5.97161">
        <ele>1778.1</ele>
        <time>2020-06-20T11:48:05Z</time>
      </trkpt>
      <trkpt lat="44.85939" lon="5.97157">
        <ele>1777.61</ele>
        <time>2020-06-20T11:48:21Z</time>
      </trkpt>
      <trkpt lat="44.85934" lon="5.97154">
        <ele>1779.06</ele>
        <time>2020-06-20T11:48:29Z</time>
      </trkpt>
      <trkpt lat="44.8593" lon="5.97141">
        <ele>1780.02</ele>
        <time>2020-06-20T11:48:43Z</time>
      </trkpt>
      <trkpt lat="44.85926" lon="5.97133">
        <ele>1780.5</ele>
        <time>2020-06-20T11:48:55Z</time>
      </trkpt>
      <trkpt lat="44.85925" lon="5.97131">
        <ele>1780.5</ele>
        <time>2020-06-20T11:48:57Z</time>
      </trkpt>
      <trkpt lat="44.85922" lon="5.97123">
        <ele>1780.98</ele>
        <time>2020-06-20T11:49:04Z</time>
      </trkpt>
      <trkpt lat="44.8592" lon="5.97118">
        <ele>1780.98</ele>
        <time>2020-06-20T11:49:09Z</time>
      </trkpt>
      <trkpt lat="44.85912" lon="5.971">
        <ele>1781.46</ele>
        <time>2020-06-20T11:49:25Z</time>
      </trkpt>
      <trkpt lat="44.85911" lon="5.97099">
        <ele>1781.94</ele>
        <time>2020-06-20T11:49:27Z</time>
      </trkpt>
      <trkpt lat="44.85906" lon="5.97085">
        <ele>1782.42</ele>
        <time>2020-06-20T11:49:40Z</time>
      </trkpt>
      <trkpt lat="44.85905" lon="5.97083">
        <ele>1782.42</ele>
        <time>2020-06-20T11:49:42Z</time>
      </trkpt>
      <trkpt lat="44.85901" lon="5.97066">
        <ele>1782.9</ele>
        <time>2020-06-20T11:49:57Z</time>
      </trkpt>
      <trkpt lat="44.85901" lon="5.9705">
        <ele>1783.38</ele>
        <time>2020-06-20T11:50:13Z</time>
      </trkpt>
      <trkpt lat="44.85899" lon="5.97032">
        <ele>1783.86</ele>
        <time>2020-06-20T11:50:29Z</time>
      </trkpt>
      <trkpt lat="44.85899" lon="5.97013">
        <ele>1783.86</ele>
        <time>2020-06-20T11:50:45Z</time>
      </trkpt>
      <trkpt lat="44.85901" lon="5.96998">
        <ele>1784.34</ele>
        <time>2020-06-20T11:50:58Z</time>
      </trkpt>
      <trkpt lat="44.859" lon="5.96994">
        <ele>1784.34</ele>
        <time>2020-06-20T11:51:14Z</time>
      </trkpt>
      <trkpt lat="44.85901" lon="5.96986">
        <ele>1784.34</ele>
        <time>2020-06-20T11:51:26Z</time>
      </trkpt>
      <trkpt lat="44.85902" lon="5.96982">
        <ele>1784.34</ele>
        <time>2020-06-20T11:51:29Z</time>
      </trkpt>
      <trkpt lat="44.85903" lon="5.96973">
        <ele>1784.82</ele>
        <time>2020-06-20T11:51:46Z</time>
      </trkpt>
      <trkpt lat="44.85907" lon="5.96966">
        <ele>1785.79</ele>
        <time>2020-06-20T11:51:54Z</time>
      </trkpt>
      <trkpt lat="44.85913" lon="5.9695">
        <ele>1786.75</ele>
        <time>2020-06-20T11:52:10Z</time>
      </trkpt>
      <trkpt lat="44.85916" lon="5.96938">
        <ele>1788.19</ele>
        <time>2020-06-20T11:52:24Z</time>
      </trkpt>
      <trkpt lat="44.85916" lon="5.96932">
        <ele>1787.71</ele>
        <time>2020-06-20T11:52:37Z</time>
      </trkpt>
      <trkpt lat="44.85909" lon="5.96924">
        <ele>1787.71</ele>
        <time>2020-06-20T11:52:50Z</time>
      </trkpt>
      <trkpt lat="44.85902" lon="5.96917">
        <ele>1787.71</ele>
        <time>2020-06-20T11:53:05Z</time>
      </trkpt>
      <trkpt lat="44.859" lon="5.96913">
        <ele>1788.19</ele>
        <time>2020-06-20T11:53:35Z</time>
      </trkpt>
      <trkpt lat="44.859" lon="5.96913">
        <ele>1788.19</ele>
        <time>2020-06-20T11:53:36Z</time>
      </trkpt>
      <trkpt lat="44.8589" lon="5.96906">
        <ele>1787.71</ele>
        <time>2020-06-20T11:53:47Z</time>
      </trkpt>
      <trkpt lat="44.85879" lon="5.96897">
        <ele>1788.67</ele>
        <time>2020-06-20T11:54:00Z</time>
      </trkpt>
      <trkpt lat="44.85879" lon="5.96896">
        <ele>1788.67</ele>
        <time>2020-06-20T11:54:01Z</time>
      </trkpt>
      <trkpt lat="44.85869" lon="5.9689">
        <ele>1788.67</ele>
        <time>2020-06-20T11:54:14Z</time>
      </trkpt>
      <trkpt lat="44.85859" lon="5.96885">
        <ele>1788.67</ele>
        <time>2020-06-20T11:54:27Z</time>
      </trkpt>
      <trkpt lat="44.85842" lon="5.96877">
        <ele>1788.67</ele>
        <time>2020-06-20T11:54:46Z</time>
      </trkpt>
      <trkpt lat="44.85832" lon="5.96869">
        <ele>1789.63</ele>
        <time>2020-06-20T11:55:01Z</time>
      </trkpt>
      <trkpt lat="44.85827" lon="5.96857">
        <ele>1791.07</ele>
        <time>2020-06-20T11:55:15Z</time>
      </trkpt>
      <trkpt lat="44.85825" lon="5.96847">
        <ele>1791.55</ele>
        <time>2020-06-20T11:55:28Z</time>
      </trkpt>
      <trkpt lat="44.85829" lon="5.96833">
        <ele>1792.03</ele>
        <time>2020-06-20T11:55:42Z</time>
      </trkpt>
      <trkpt lat="44.85829" lon="5.96829">
        <ele>1791.55</ele>
        <time>2020-06-20T11:56:02Z</time>
      </trkpt>
      <trkpt lat="44.85833" lon="5.96814">
        <ele>1792.52</ele>
        <time>2020-06-20T11:56:18Z</time>
      </trkpt>
      <trkpt lat="44.85833" lon="5.96808">
        <ele>1792.52</ele>
        <time>2020-06-20T11:56:24Z</time>
      </trkpt>
      <trkpt lat="44.85835" lon="5.96784">
        <ele>1793.48</ele>
        <time>2020-06-20T11:56:44Z</time>
      </trkpt>
      <trkpt lat="44.85837" lon="5.9677">
        <ele>1794.92</ele>
        <time>2020-06-20T11:56:59Z</time>
      </trkpt>
      <trkpt lat="44.85838" lon="5.96768">
        <ele>1793.48</ele>
        <time>2020-06-20T11:57:01Z</time>
      </trkpt>
      <trkpt lat="44.85838" lon="5.96767">
        <ele>1793</ele>
        <time>2020-06-20T11:57:02Z</time>
      </trkpt>
      <trkpt lat="44.85842" lon="5.96748">
        <ele>1794.44</ele>
        <time>2020-06-20T11:57:18Z</time>
      </trkpt>
      <trkpt lat="44.85843" lon="5.96742">
        <ele>1794.44</ele>
        <time>2020-06-20T11:57:34Z</time>
      </trkpt>
      <trkpt lat="44.85845" lon="5.96729">
        <ele>1794.44</ele>
        <time>2020-06-20T11:57:57Z</time>
      </trkpt>
      <trkpt lat="44.85847" lon="5.96714">
        <ele>1795.4</ele>
        <time>2020-06-20T11:58:12Z</time>
      </trkpt>
      <trkpt lat="44.85852" lon="5.96701">
        <ele>1795.88</ele>
        <time>2020-06-20T11:58:25Z</time>
      </trkpt>
      <trkpt lat="44.85855" lon="5.96684">
        <ele>1796.84</ele>
        <time>2020-06-20T11:58:40Z</time>
      </trkpt>
      <trkpt lat="44.85858" lon="5.96667">
        <ele>1797.32</ele>
        <time>2020-06-20T11:58:55Z</time>
      </trkpt>
      <trkpt lat="44.85862" lon="5.96653">
        <ele>1797.32</ele>
        <time>2020-06-20T11:59:08Z</time>
      </trkpt>
      <trkpt lat="44.85869" lon="5.96635">
        <ele>1798.28</ele>
        <time>2020-06-20T11:59:23Z</time>
      </trkpt>
      <trkpt lat="44.85876" lon="5.96621">
        <ele>1798.76</ele>
        <time>2020-06-20T11:59:39Z</time>
      </trkpt>
      <trkpt lat="44.85881" lon="5.96609">
        <ele>1799.24</ele>
        <time>2020-06-20T11:59:54Z</time>
      </trkpt>
      <trkpt lat="44.85889" lon="5.96596">
        <ele>1799.24</ele>
        <time>2020-06-20T12:00:07Z</time>
      </trkpt>
      <trkpt lat="44.85894" lon="5.96587">
        <ele>1800.69</ele>
        <time>2020-06-20T12:00:18Z</time>
      </trkpt>
      <trkpt lat="44.85895" lon="5.96586">
        <ele>1798.28</ele>
        <time>2020-06-20T12:00:21Z</time>
      </trkpt>
      <trkpt lat="44.85895" lon="5.96585">
        <ele>1800.69</ele>
        <time>2020-06-20T12:00:30Z</time>
      </trkpt>
      <trkpt lat="44.85901" lon="5.96577">
        <ele>1800.69</ele>
        <time>2020-06-20T12:00:46Z</time>
      </trkpt>
      <trkpt lat="44.85909" lon="5.96567">
        <ele>1800.69</ele>
        <time>2020-06-20T12:00:57Z</time>
      </trkpt>
      <trkpt lat="44.85911" lon="5.96564">
        <ele>1800.69</ele>
        <time>2020-06-20T12:01:00Z</time>
      </trkpt>
      <trkpt lat="44.8592" lon="5.96546">
        <ele>1799.73</ele>
        <time>2020-06-20T12:01:16Z</time>
      </trkpt>
      <trkpt lat="44.8592" lon="5.96546">
        <ele>1799.73</ele>
        <time>2020-06-20T12:01:17Z</time>
      </trkpt>
      <trkpt lat="44.85923" lon="5.96538">
        <ele>1799.73</ele>
        <time>2020-06-20T12:01:34Z</time>
      </trkpt>
      <trkpt lat="44.85924" lon="5.96537">
        <ele>1801.17</ele>
        <time>2020-06-20T12:01:36Z</time>
      </trkpt>
      <trkpt lat="44.85935" lon="5.96519">
        <ele>1801.65</ele>
        <time>2020-06-20T12:01:52Z</time>
      </trkpt>
      <trkpt lat="44.85941" lon="5.96506">
        <ele>1802.13</ele>
        <time>2020-06-20T12:02:05Z</time>
      </trkpt>
      <trkpt lat="44.85948" lon="5.96492">
        <ele>1802.61</ele>
        <time>2020-06-20T12:02:20Z</time>
      </trkpt>
      <trkpt lat="44.85958" lon="5.96477">
        <ele>1803.57</ele>
        <time>2020-06-20T12:02:34Z</time>
      </trkpt>
      <trkpt lat="44.85961" lon="5.96464">
        <ele>1804.05</ele>
        <time>2020-06-20T12:02:46Z</time>
      </trkpt>
      <trkpt lat="44.85969" lon="5.96446">
        <ele>1805.01</ele>
        <time>2020-06-20T12:03:01Z</time>
      </trkpt>
      <trkpt lat="44.85975" lon="5.96437">
        <ele>1805.49</ele>
        <time>2020-06-20T12:03:10Z</time>
      </trkpt>
      <trkpt lat="44.85986" lon="5.96418">
        <ele>1806.45</ele>
        <time>2020-06-20T12:03:26Z</time>
      </trkpt>
      <trkpt lat="44.85995" lon="5.96402">
        <ele>1806.94</ele>
        <time>2020-06-20T12:03:41Z</time>
      </trkpt>
      <trkpt lat="44.86006" lon="5.96387">
        <ele>1808.38</ele>
        <time>2020-06-20T12:03:56Z</time>
      </trkpt>
      <trkpt lat="44.86016" lon="5.96375">
        <ele>1806.94</ele>
        <time>2020-06-20T12:04:08Z</time>
      </trkpt>
      <trkpt lat="44.86021" lon="5.96369">
        <ele>1807.9</ele>
        <time>2020-06-20T12:04:14Z</time>
      </trkpt>
      <trkpt lat="44.86021" lon="5.96366">
        <ele>1807.9</ele>
        <time>2020-06-20T12:04:16Z</time>
      </trkpt>
      <trkpt lat="44.86028" lon="5.96359">
        <ele>1807.9</ele>
        <time>2020-06-20T12:04:25Z</time>
      </trkpt>
      <trkpt lat="44.86038" lon="5.96342">
        <ele>1808.38</ele>
        <time>2020-06-20T12:04:41Z</time>
      </trkpt>
      <trkpt lat="44.86048" lon="5.9633">
        <ele>1809.34</ele>
        <time>2020-06-20T12:04:55Z</time>
      </trkpt>
      <trkpt lat="44.86052" lon="5.96323">
        <ele>1807.9</ele>
        <time>2020-06-20T12:05:03Z</time>
      </trkpt>
      <trkpt lat="44.86053" lon="5.9632">
        <ele>1809.34</ele>
        <time>2020-06-20T12:05:06Z</time>
      </trkpt>
      <trkpt lat="44.86061" lon="5.96305">
        <ele>1809.34</ele>
        <time>2020-06-20T12:05:20Z</time>
      </trkpt>
      <trkpt lat="44.8607" lon="5.96289">
        <ele>1809.82</ele>
        <time>2020-06-20T12:05:36Z</time>
      </trkpt>
      <trkpt lat="44.86075" lon="5.9628">
        <ele>1810.3</ele>
        <time>2020-06-20T12:05:45Z</time>
      </trkpt>
      <trkpt lat="44.86087" lon="5.96262">
        <ele>1810.3</ele>
        <time>2020-06-20T12:06:03Z</time>
      </trkpt>
      <trkpt lat="44.861" lon="5.96249">
        <ele>1811.74</ele>
        <time>2020-06-20T12:06:20Z</time>
      </trkpt>
      <trkpt lat="44.8611" lon="5.96233">
        <ele>1811.74</ele>
        <time>2020-06-20T12:06:36Z</time>
      </trkpt>
      <trkpt lat="44.86121" lon="5.96217">
        <ele>1812.22</ele>
        <time>2020-06-20T12:06:52Z</time>
      </trkpt>
      <trkpt lat="44.8612" lon="5.96216">
        <ele>1812.7</ele>
        <time>2020-06-20T12:07:16Z</time>
      </trkpt>
      <trkpt lat="44.86119" lon="5.96216">
        <ele>1811.26</ele>
        <time>2020-06-20T12:07:30Z</time>
      </trkpt>
      <trkpt lat="44.86119" lon="5.96217">
        <ele>1811.26</ele>
        <time>2020-06-20T12:07:57Z</time>
      </trkpt>
      <trkpt lat="44.86118" lon="5.96216">
        <ele>1812.7</ele>
        <time>2020-06-20T12:08:21Z</time>
      </trkpt>
      <trkpt lat="44.86118" lon="5.96215">
        <ele>1812.7</ele>
        <time>2020-06-20T12:08:44Z</time>
      </trkpt>
      <trkpt lat="44.8612" lon="5.96212">
        <ele>1812.7</ele>
        <time>2020-06-20T12:09:02Z</time>
      </trkpt>
      <trkpt lat="44.86127" lon="5.96203">
        <ele>1814.15</ele>
        <time>2020-06-20T12:09:11Z</time>
      </trkpt>
      <trkpt lat="44.86135" lon="5.96193">
        <ele>1814.15</ele>
        <time>2020-06-20T12:09:23Z</time>
      </trkpt>
      <trkpt lat="44.86149" lon="5.96174">
        <ele>1814.15</ele>
        <time>2020-06-20T12:09:40Z</time>
      </trkpt>
      <trkpt lat="44.86163" lon="5.96156">
        <ele>1815.59</ele>
        <time>2020-06-20T12:09:55Z</time>
      </trkpt>
      <trkpt lat="44.86175" lon="5.96137">
        <ele>1816.07</ele>
        <time>2020-06-20T12:10:12Z</time>
      </trkpt>
      <trkpt lat="44.86183" lon="5.96126">
        <ele>1816.55</ele>
        <time>2020-06-20T12:10:23Z</time>
      </trkpt>
      <trkpt lat="44.86186" lon="5.96122">
        <ele>1816.07</ele>
        <time>2020-06-20T12:10:27Z</time>
      </trkpt>
      <trkpt lat="44.8619" lon="5.96116">
        <ele>1816.07</ele>
        <time>2020-06-20T12:10:32Z</time>
      </trkpt>
      <trkpt lat="44.86195" lon="5.96106">
        <ele>1817.51</ele>
        <time>2020-06-20T12:10:46Z</time>
      </trkpt>
      <trkpt lat="44.86198" lon="5.96096">
        <ele>1817.99</ele>
        <time>2020-06-20T12:10:58Z</time>
      </trkpt>
      <trkpt lat="44.86199" lon="5.96094">
        <ele>1817.99</ele>
        <time>2020-06-20T12:11:00Z</time>
      </trkpt>
      <trkpt lat="44.86206" lon="5.96086">
        <ele>1817.99</ele>
        <time>2020-06-20T12:11:09Z</time>
      </trkpt>
      <trkpt lat="44.86211" lon="5.96071">
        <ele>1818.95</ele>
        <time>2020-06-20T12:11:20Z</time>
      </trkpt>
      <trkpt lat="44.86213" lon="5.96065">
        <ele>1818.95</ele>
        <time>2020-06-20T12:11:24Z</time>
      </trkpt>
      <trkpt lat="44.86217" lon="5.96054">
        <ele>1818.47</ele>
        <time>2020-06-20T12:11:38Z</time>
      </trkpt>
      <trkpt lat="44.86219" lon="5.96051">
        <ele>1818.95</ele>
        <time>2020-06-20T12:11:41Z</time>
      </trkpt>
      <trkpt lat="44.8622" lon="5.96048">
        <ele>1818.95</ele>
        <time>2020-06-20T12:11:43Z</time>
      </trkpt>
      <trkpt lat="44.8623" lon="5.96031">
        <ele>1819.91</ele>
        <time>2020-06-20T12:11:58Z</time>
      </trkpt>
      <trkpt lat="44.8624" lon="5.96016">
        <ele>1821.35</ele>
        <time>2020-06-20T12:12:13Z</time>
      </trkpt>
      <trkpt lat="44.86243" lon="5.96009">
        <ele>1820.87</ele>
        <time>2020-06-20T12:12:28Z</time>
      </trkpt>
      <trkpt lat="44.86254" lon="5.95996">
        <ele>1820.87</ele>
        <time>2020-06-20T12:12:43Z</time>
      </trkpt>
      <trkpt lat="44.8626" lon="5.95981">
        <ele>1820.87</ele>
        <time>2020-06-20T12:12:58Z</time>
      </trkpt>
      <trkpt lat="44.86263" lon="5.9598">
        <ele>1822.32</ele>
        <time>2020-06-20T12:13:00Z</time>
      </trkpt>
      <trkpt lat="44.86264" lon="5.95978">
        <ele>1820.39</ele>
        <time>2020-06-20T12:13:05Z</time>
      </trkpt>
      <trkpt lat="44.86264" lon="5.95976">
        <ele>1822.32</ele>
        <time>2020-06-20T12:13:07Z</time>
      </trkpt>
      <trkpt lat="44.86268" lon="5.95971">
        <ele>1822.32</ele>
        <time>2020-06-20T12:13:13Z</time>
      </trkpt>
      <trkpt lat="44.8627" lon="5.9597">
        <ele>1822.32</ele>
        <time>2020-06-20T12:13:15Z</time>
      </trkpt>
      <trkpt lat="44.86281" lon="5.95953">
        <ele>1822.8</ele>
        <time>2020-06-20T12:13:32Z</time>
      </trkpt>
      <trkpt lat="44.86289" lon="5.95933">
        <ele>1823.28</ele>
        <time>2020-06-20T12:13:49Z</time>
      </trkpt>
      <trkpt lat="44.86299" lon="5.95917">
        <ele>1824.24</ele>
        <time>2020-06-20T12:14:05Z</time>
      </trkpt>
      <trkpt lat="44.86302" lon="5.95912">
        <ele>1824.24</ele>
        <time>2020-06-20T12:14:09Z</time>
      </trkpt>
      <trkpt lat="44.86309" lon="5.95896">
        <ele>1824.24</ele>
        <time>2020-06-20T12:14:23Z</time>
      </trkpt>
      <trkpt lat="44.86311" lon="5.95894">
        <ele>1824.72</ele>
        <time>2020-06-20T12:14:26Z</time>
      </trkpt>
      <trkpt lat="44.86324" lon="5.9588">
        <ele>1826.16</ele>
        <time>2020-06-20T12:14:42Z</time>
      </trkpt>
      <trkpt lat="44.86339" lon="5.95869">
        <ele>1827.6</ele>
        <time>2020-06-20T12:14:58Z</time>
      </trkpt>
      <trkpt lat="44.86353" lon="5.95861">
        <ele>1827.6</ele>
        <time>2020-06-20T12:15:13Z</time>
      </trkpt>
      <trkpt lat="44.86368" lon="5.95847">
        <ele>1827.6</ele>
        <time>2020-06-20T12:15:32Z</time>
      </trkpt>
      <trkpt lat="44.86374" lon="5.95841">
        <ele>1827.6</ele>
        <time>2020-06-20T12:15:47Z</time>
      </trkpt>
      <trkpt lat="44.86374" lon="5.9584">
        <ele>1826.16</ele>
        <time>2020-06-20T12:15:51Z</time>
      </trkpt>
      <trkpt lat="44.86374" lon="5.95839">
        <ele>1826.16</ele>
        <time>2020-06-20T12:16:07Z</time>
      </trkpt>
      <trkpt lat="44.86374" lon="5.95837">
        <ele>1827.6</ele>
        <time>2020-06-20T12:16:21Z</time>
      </trkpt>
      <trkpt lat="44.86374" lon="5.95839">
        <ele>1827.6</ele>
        <time>2020-06-20T12:16:41Z</time>
      </trkpt>
      <trkpt lat="44.86374" lon="5.95838">
        <ele>1826.16</ele>
        <time>2020-06-20T12:16:51Z</time>
      </trkpt>
      <trkpt lat="44.86374" lon="5.95838">
        <ele>1826.16</ele>
        <time>2020-06-20T12:17:20Z</time>
      </trkpt>
      <trkpt lat="44.86372" lon="5.95837">
        <ele>1826.16</ele>
        <time>2020-06-20T12:17:43Z</time>
      </trkpt>
      <trkpt lat="44.86373" lon="5.95839">
        <ele>1826.64</ele>
        <time>2020-06-20T12:18:14Z</time>
      </trkpt>
      <trkpt lat="44.86374" lon="5.95838">
        <ele>1826.64</ele>
        <time>2020-06-20T12:18:37Z</time>
      </trkpt>
      <trkpt lat="44.86374" lon="5.95838">
        <ele>1826.16</ele>
        <time>2020-06-20T12:19:10Z</time>
      </trkpt>
      <trkpt lat="44.86373" lon="5.95838">
        <ele>1826.16</ele>
        <time>2020-06-20T12:19:40Z</time>
      </trkpt>
      <trkpt lat="44.86374" lon="5.95839">
        <ele>1827.6</ele>
        <time>2020-06-20T12:19:46Z</time>
      </trkpt>
      <trkpt lat="44.86374" lon="5.95838">
        <ele>1826.16</ele>
        <time>2020-06-20T12:20:07Z</time>
      </trkpt>
      <trkpt lat="44.86374" lon="5.95839">
        <ele>1826.16</ele>
        <time>2020-06-20T12:20:28Z</time>
      </trkpt>
      <trkpt lat="44.86376" lon="5.95839">
        <ele>1825.68</ele>
        <time>2020-06-20T12:20:54Z</time>
      </trkpt>
      <trkpt lat="44.86376" lon="5.95839">
        <ele>1826.64</ele>
        <time>2020-06-20T12:21:20Z</time>
      </trkpt>
      <trkpt lat="44.86374" lon="5.95839">
        <ele>1826.64</ele>
        <time>2020-06-20T12:21:44Z</time>
      </trkpt>
      <trkpt lat="44.86373" lon="5.95839">
        <ele>1826.64</ele>
        <time>2020-06-20T12:21:59Z</time>
      </trkpt>
      <trkpt lat="44.86376" lon="5.95841">
        <ele>1826.64</ele>
        <time>2020-06-20T12:22:17Z</time>
      </trkpt>
      <trkpt lat="44.86379" lon="5.9584">
        <ele>1826.64</ele>
        <time>2020-06-20T12:22:50Z</time>
      </trkpt>
      <trkpt lat="44.86379" lon="5.95841">
        <ele>1825.2</ele>
        <time>2020-06-20T12:23:09Z</time>
      </trkpt>
      <trkpt lat="44.86379" lon="5.95841">
        <ele>1826.64</ele>
        <time>2020-06-20T12:23:20Z</time>
      </trkpt>
      <trkpt lat="44.86374" lon="5.95844">
        <ele>1827.12</ele>
        <time>2020-06-20T12:23:39Z</time>
      </trkpt>
      <trkpt lat="44.86371" lon="5.9584">
        <ele>1826.64</ele>
        <time>2020-06-20T12:24:13Z</time>
      </trkpt>
      <trkpt lat="44.86371" lon="5.95839">
        <ele>1828.08</ele>
        <time>2020-06-20T12:24:26Z</time>
      </trkpt>
      <trkpt lat="44.86371" lon="5.9584">
        <ele>1826.64</ele>
        <time>2020-06-20T12:24:28Z</time>
      </trkpt>
      <trkpt lat="44.8637" lon="5.95841">
        <ele>1826.16</ele>
        <time>2020-06-20T12:25:09Z</time>
      </trkpt>
      <trkpt lat="44.86371" lon="5.95843">
        <ele>1826.16</ele>
        <time>2020-06-20T12:25:29Z</time>
      </trkpt>
      <trkpt lat="44.86368" lon="5.95842">
        <ele>1826.16</ele>
        <time>2020-06-20T12:25:45Z</time>
      </trkpt>
      <trkpt lat="44.86364" lon="5.95837">
        <ele>1827.12</ele>
        <time>2020-06-20T12:25:50Z</time>
      </trkpt>
      <trkpt lat="44.86362" lon="5.95834">
        <ele>1827.12</ele>
        <time>2020-06-20T12:25:53Z</time>
      </trkpt>
      <trkpt lat="44.86358" lon="5.95827">
        <ele>1827.12</ele>
        <time>2020-06-20T12:25:59Z</time>
      </trkpt>
      <trkpt lat="44.86349" lon="5.95812">
        <ele>1828.56</ele>
        <time>2020-06-20T12:26:14Z</time>
      </trkpt>
      <trkpt lat="44.86346" lon="5.95807">
        <ele>1829.05</ele>
        <time>2020-06-20T12:26:18Z</time>
      </trkpt>
      <trkpt lat="44.86341" lon="5.95797">
        <ele>1829.53</ele>
        <time>2020-06-20T12:26:29Z</time>
      </trkpt>
      <trkpt lat="44.86332" lon="5.95775">
        <ele>1830.97</ele>
        <time>2020-06-20T12:26:47Z</time>
      </trkpt>
      <trkpt lat="44.86326" lon="5.95762">
        <ele>1831.93</ele>
        <time>2020-06-20T12:27:01Z</time>
      </trkpt>
      <trkpt lat="44.86323" lon="5.95757">
        <ele>1831.45</ele>
        <time>2020-06-20T12:27:07Z</time>
      </trkpt>
      <trkpt lat="44.86322" lon="5.95754">
        <ele>1832.89</ele>
        <time>2020-06-20T12:27:10Z</time>
      </trkpt>
      <trkpt lat="44.86312" lon="5.95738">
        <ele>1834.33</ele>
        <time>2020-06-20T12:27:26Z</time>
      </trkpt>
      <trkpt lat="44.86306" lon="5.95728">
        <ele>1835.29</ele>
        <time>2020-06-20T12:27:42Z</time>
      </trkpt>
      <trkpt lat="44.86307" lon="5.95727">
        <ele>1835.77</ele>
        <time>2020-06-20T12:28:02Z</time>
      </trkpt>
      <trkpt lat="44.86305" lon="5.95725">
        <ele>1835.77</ele>
        <time>2020-06-20T12:28:17Z</time>
      </trkpt>
      <trkpt lat="44.863" lon="5.95714">
        <ele>1836.74</ele>
        <time>2020-06-20T12:28:33Z</time>
      </trkpt>
      <trkpt lat="44.86294" lon="5.957">
        <ele>1838.66</ele>
        <time>2020-06-20T12:28:49Z</time>
      </trkpt>
      <trkpt lat="44.8629" lon="5.95693">
        <ele>1839.62</ele>
        <time>2020-06-20T12:29:05Z</time>
      </trkpt>
      <trkpt lat="44.86286" lon="5.95687">
        <ele>1841.54</ele>
        <time>2020-06-20T12:29:13Z</time>
      </trkpt>
      <trkpt lat="44.86279" lon="5.95665">
        <ele>1842.02</ele>
        <time>2020-06-20T12:29:29Z</time>
      </trkpt>
      <trkpt lat="44.86271" lon="5.95652">
        <ele>1843.95</ele>
        <time>2020-06-20T12:29:43Z</time>
      </trkpt>
      <trkpt lat="44.86261" lon="5.95642">
        <ele>1844.91</ele>
        <time>2020-06-20T12:29:57Z</time>
      </trkpt>
      <trkpt lat="44.86252" lon="5.95625">
        <ele>1845.87</ele>
        <time>2020-06-20T12:30:14Z</time>
      </trkpt>
      <trkpt lat="44.86242" lon="5.95612">
        <ele>1848.27</ele>
        <time>2020-06-20T12:30:31Z</time>
      </trkpt>
      <trkpt lat="44.86232" lon="5.95602">
        <ele>1849.71</ele>
        <time>2020-06-20T12:30:49Z</time>
      </trkpt>
      <trkpt lat="44.86221" lon="5.95592">
        <ele>1851.64</ele>
        <time>2020-06-20T12:31:06Z</time>
      </trkpt>
      <trkpt lat="44.86212" lon="5.95589">
        <ele>1852.12</ele>
        <time>2020-06-20T12:31:21Z</time>
      </trkpt>
      <trkpt lat="44.86208" lon="5.95583">
        <ele>1852.6</ele>
        <time>2020-06-20T12:31:34Z</time>
      </trkpt>
      <trkpt lat="44.86197" lon="5.95569">
        <ele>1854.52</ele>
        <time>2020-06-20T12:31:50Z</time>
      </trkpt>
      <trkpt lat="44.86193" lon="5.95563">
        <ele>1855</ele>
        <time>2020-06-20T12:31:56Z</time>
      </trkpt>
      <trkpt lat="44.86184" lon="5.95558">
        <ele>1855</ele>
        <time>2020-06-20T12:32:05Z</time>
      </trkpt>
      <trkpt lat="44.86172" lon="5.95547">
        <ele>1856.92</ele>
        <time>2020-06-20T12:32:22Z</time>
      </trkpt>
      <trkpt lat="44.86167" lon="5.9555">
        <ele>1857.4</ele>
        <time>2020-06-20T12:32:36Z</time>
      </trkpt>
      <trkpt lat="44.86159" lon="5.95547">
        <ele>1857.89</ele>
        <time>2020-06-20T12:32:42Z</time>
      </trkpt>
      <trkpt lat="44.86146" lon="5.95527">
        <ele>1860.29</ele>
        <time>2020-06-20T12:32:59Z</time>
      </trkpt>
      <trkpt lat="44.86137" lon="5.95516">
        <ele>1862.21</ele>
        <time>2020-06-20T12:33:13Z</time>
      </trkpt>
      <trkpt lat="44.86129" lon="5.95504">
        <ele>1863.17</ele>
        <time>2020-06-20T12:33:28Z</time>
      </trkpt>
      <trkpt lat="44.8612" lon="5.95491">
        <ele>1865.58</ele>
        <time>2020-06-20T12:33:45Z</time>
      </trkpt>
      <trkpt lat="44.86114" lon="5.95482">
        <ele>1867.5</ele>
        <time>2020-06-20T12:34:00Z</time>
      </trkpt>
      <trkpt lat="44.86109" lon="5.95467">
        <ele>1869.42</ele>
        <time>2020-06-20T12:34:16Z</time>
      </trkpt>
      <trkpt lat="44.86103" lon="5.95452">
        <ele>1872.79</ele>
        <time>2020-06-20T12:34:37Z</time>
      </trkpt>
      <trkpt lat="44.86096" lon="5.95445">
        <ele>1874.71</ele>
        <time>2020-06-20T12:34:52Z</time>
      </trkpt>
      <trkpt lat="44.86091" lon="5.95429">
        <ele>1877.11</ele>
        <time>2020-06-20T12:35:09Z</time>
      </trkpt>
      <trkpt lat="44.86087" lon="5.95409">
        <ele>1879.03</ele>
        <time>2020-06-20T12:35:26Z</time>
      </trkpt>
      <trkpt lat="44.8608" lon="5.95396">
        <ele>1880.96</ele>
        <time>2020-06-20T12:35:41Z</time>
      </trkpt>
      <trkpt lat="44.86072" lon="5.9539">
        <ele>1882.88</ele>
        <time>2020-06-20T12:35:54Z</time>
      </trkpt>
      <trkpt lat="44.86062" lon="5.95382">
        <ele>1885.76</ele>
        <time>2020-06-20T12:36:12Z</time>
      </trkpt>
      <trkpt lat="44.86056" lon="5.95376">
        <ele>1886.72</ele>
        <time>2020-06-20T12:36:25Z</time>
      </trkpt>
      <trkpt lat="44.8605" lon="5.95363">
        <ele>1890.09</ele>
        <time>2020-06-20T12:36:40Z</time>
      </trkpt>
      <trkpt lat="44.86041" lon="5.95356">
        <ele>1892.01</ele>
        <time>2020-06-20T12:36:56Z</time>
      </trkpt>
      <trkpt lat="44.86033" lon="5.95344">
        <ele>1895.38</ele>
        <time>2020-06-20T12:37:13Z</time>
      </trkpt>
      <trkpt lat="44.86028" lon="5.95336">
        <ele>1896.82</ele>
        <time>2020-06-20T12:37:26Z</time>
      </trkpt>
      <trkpt lat="44.86019" lon="5.95327">
        <ele>1899.22</ele>
        <time>2020-06-20T12:37:42Z</time>
      </trkpt>
      <trkpt lat="44.86014" lon="5.95317">
        <ele>1901.63</ele>
        <time>2020-06-20T12:37:58Z</time>
      </trkpt>
      <trkpt lat="44.86009" lon="5.95302">
        <ele>1903.55</ele>
        <time>2020-06-20T12:38:14Z</time>
      </trkpt>
      <trkpt lat="44.86008" lon="5.9529">
        <ele>1906.43</ele>
        <time>2020-06-20T12:38:26Z</time>
      </trkpt>
      <trkpt lat="44.86014" lon="5.95278">
        <ele>1908.83</ele>
        <time>2020-06-20T12:38:41Z</time>
      </trkpt>
      <trkpt lat="44.86018" lon="5.95263">
        <ele>1910.76</ele>
        <time>2020-06-20T12:38:55Z</time>
      </trkpt>
      <trkpt lat="44.86019" lon="5.95247">
        <ele>1911.72</ele>
        <time>2020-06-20T12:39:09Z</time>
      </trkpt>
      <trkpt lat="44.86019" lon="5.95247">
        <ele>1911.72</ele>
        <time>2020-06-20T12:39:25Z</time>
      </trkpt>
      <trkpt lat="44.8602" lon="5.95248">
        <ele>1911.72</ele>
        <time>2020-06-20T12:39:52Z</time>
      </trkpt>
      <trkpt lat="44.86019" lon="5.95248">
        <ele>1911.72</ele>
        <time>2020-06-20T12:40:25Z</time>
      </trkpt>
      <trkpt lat="44.86019" lon="5.95248">
        <ele>1911.72</ele>
        <time>2020-06-20T12:40:58Z</time>
      </trkpt>
      <trkpt lat="44.86019" lon="5.95248">
        <ele>1911.72</ele>
        <time>2020-06-20T12:41:24Z</time>
      </trkpt>
      <trkpt lat="44.86019" lon="5.95246">
        <ele>1912.68</ele>
        <time>2020-06-20T12:41:51Z</time>
      </trkpt>
      <trkpt lat="44.86019" lon="5.95247">
        <ele>1910.76</ele>
        <time>2020-06-20T12:42:04Z</time>
      </trkpt>
      <trkpt lat="44.86019" lon="5.95247">
        <ele>1912.68</ele>
        <time>2020-06-20T12:42:07Z</time>
      </trkpt>
      <trkpt lat="44.86019" lon="5.95246">
        <ele>1911.24</ele>
        <time>2020-06-20T12:42:17Z</time>
      </trkpt>
      <trkpt lat="44.86019" lon="5.95245">
        <ele>1912.68</ele>
        <time>2020-06-20T12:42:26Z</time>
      </trkpt>
      <trkpt lat="44.8602" lon="5.95236">
        <ele>1912.68</ele>
        <time>2020-06-20T12:42:36Z</time>
      </trkpt>
      <trkpt lat="44.86021" lon="5.95221">
        <ele>1915.08</ele>
        <time>2020-06-20T12:42:54Z</time>
      </trkpt>
      <trkpt lat="44.86022" lon="5.95216">
        <ele>1915.08</ele>
        <time>2020-06-20T12:43:10Z</time>
      </trkpt>
      <trkpt lat="44.86024" lon="5.95211">
        <ele>1916.53</ele>
        <time>2020-06-20T12:43:24Z</time>
      </trkpt>
      <trkpt lat="44.86026" lon="5.95193">
        <ele>1917.49</ele>
        <time>2020-06-20T12:43:40Z</time>
      </trkpt>
      <trkpt lat="44.86029" lon="5.95181">
        <ele>1916.53</ele>
        <time>2020-06-20T12:43:54Z</time>
      </trkpt>
      <trkpt lat="44.86029" lon="5.95179">
        <ele>1918.45</ele>
        <time>2020-06-20T12:43:57Z</time>
      </trkpt>
      <trkpt lat="44.86032" lon="5.95165">
        <ele>1917.01</ele>
        <time>2020-06-20T12:44:11Z</time>
      </trkpt>
      <trkpt lat="44.86033" lon="5.95164">
        <ele>1918.45</ele>
        <time>2020-06-20T12:44:19Z</time>
      </trkpt>
      <trkpt lat="44.86034" lon="5.95154">
        <ele>1917.01</ele>
        <time>2020-06-20T12:44:35Z</time>
      </trkpt>
      <trkpt lat="44.86037" lon="5.95138">
        <ele>1917.49</ele>
        <time>2020-06-20T12:44:49Z</time>
      </trkpt>
      <trkpt lat="44.86037" lon="5.95138">
        <ele>1917.49</ele>
        <time>2020-06-20T12:44:50Z</time>
      </trkpt>
      <trkpt lat="44.86037" lon="5.95136">
        <ele>1918.93</ele>
        <time>2020-06-20T12:44:53Z</time>
      </trkpt>
      <trkpt lat="44.8604" lon="5.95131">
        <ele>1917.97</ele>
        <time>2020-06-20T12:45:10Z</time>
      </trkpt>
      <trkpt lat="44.86039" lon="5.9513">
        <ele>1918.45</ele>
        <time>2020-06-20T12:45:27Z</time>
      </trkpt>
      <trkpt lat="44.86038" lon="5.95129">
        <ele>1918.93</ele>
        <time>2020-06-20T12:45:44Z</time>
      </trkpt>
      <trkpt lat="44.86038" lon="5.9513">
        <ele>1917.97</ele>
        <time>2020-06-20T12:46:11Z</time>
      </trkpt>
      <trkpt lat="44.8604" lon="5.95131">
        <ele>1917.97</ele>
        <time>2020-06-20T12:46:39Z</time>
      </trkpt>
      <trkpt lat="44.86039" lon="5.95127">
        <ele>1917.97</ele>
        <time>2020-06-20T12:46:52Z</time>
      </trkpt>
      <trkpt lat="44.86041" lon="5.95116">
        <ele>1917.97</ele>
        <time>2020-06-20T12:47:06Z</time>
      </trkpt>
      <trkpt lat="44.86043" lon="5.95099">
        <ele>1918.45</ele>
        <time>2020-06-20T12:47:20Z</time>
      </trkpt>
      <trkpt lat="44.86047" lon="5.95076">
        <ele>1916.53</ele>
        <time>2020-06-20T12:47:37Z</time>
      </trkpt>
      <trkpt lat="44.8605" lon="5.95054">
        <ele>1914.6</ele>
        <time>2020-06-20T12:47:54Z</time>
      </trkpt>
      <trkpt lat="44.86054" lon="5.95033">
        <ele>1911.72</ele>
        <time>2020-06-20T12:48:11Z</time>
      </trkpt>
      <trkpt lat="44.86057" lon="5.95013">
        <ele>1908.83</ele>
        <time>2020-06-20T12:48:30Z</time>
      </trkpt>
      <trkpt lat="44.8606" lon="5.94999">
        <ele>1906.91</ele>
        <time>2020-06-20T12:48:45Z</time>
      </trkpt>
      <trkpt lat="44.86063" lon="5.94984">
        <ele>1904.03</ele>
        <time>2020-06-20T12:48:58Z</time>
      </trkpt>
      <trkpt lat="44.86064" lon="5.9498">
        <ele>1903.55</ele>
        <time>2020-06-20T12:49:02Z</time>
      </trkpt>
      <trkpt lat="44.86065" lon="5.94971">
        <ele>1902.11</ele>
        <time>2020-06-20T12:49:10Z</time>
      </trkpt>
      <trkpt lat="44.86069" lon="5.94952">
        <ele>1899.22</ele>
        <time>2020-06-20T12:49:26Z</time>
      </trkpt>
      <trkpt lat="44.86072" lon="5.94937">
        <ele>1897.3</ele>
        <time>2020-06-20T12:49:38Z</time>
      </trkpt>
      <trkpt lat="44.86076" lon="5.94915">
        <ele>1894.42</ele>
        <time>2020-06-20T12:49:55Z</time>
      </trkpt>
      <trkpt lat="44.86081" lon="5.94891">
        <ele>1892.97</ele>
        <time>2020-06-20T12:50:11Z</time>
      </trkpt>
      <trkpt lat="44.86084" lon="5.94876">
        <ele>1892.49</ele>
        <time>2020-06-20T12:50:22Z</time>
      </trkpt>
      <trkpt lat="44.86089" lon="5.9485">
        <ele>1891.05</ele>
        <time>2020-06-20T12:50:40Z</time>
      </trkpt>
      <trkpt lat="44.86091" lon="5.94838">
        <ele>1890.57</ele>
        <time>2020-06-20T12:50:49Z</time>
      </trkpt>
      <trkpt lat="44.86094" lon="5.94827">
        <ele>1890.57</ele>
        <time>2020-06-20T12:50:57Z</time>
      </trkpt>
      <trkpt lat="44.86095" lon="5.94824">
        <ele>1889.61</ele>
        <time>2020-06-20T12:51:00Z</time>
      </trkpt>
      <trkpt lat="44.861" lon="5.94803">
        <ele>1888.17</ele>
        <time>2020-06-20T12:51:17Z</time>
      </trkpt>
      <trkpt lat="44.86106" lon="5.94783">
        <ele>1887.21</ele>
        <time>2020-06-20T12:51:32Z</time>
      </trkpt>
      <trkpt lat="44.86115" lon="5.9476">
        <ele>1885.28</ele>
        <time>2020-06-20T12:51:49Z</time>
      </trkpt>
      <trkpt lat="44.86121" lon="5.9474">
        <ele>1884.8</ele>
        <time>2020-06-20T12:52:04Z</time>
      </trkpt>
      <trkpt lat="44.86125" lon="5.94729">
        <ele>1883.84</ele>
        <time>2020-06-20T12:52:20Z</time>
      </trkpt>
      <trkpt lat="44.86126" lon="5.94728">
        <ele>1883.84</ele>
        <time>2020-06-20T12:52:24Z</time>
      </trkpt>
      <trkpt lat="44.86127" lon="5.94726">
        <ele>1883.84</ele>
        <time>2020-06-20T12:52:26Z</time>
      </trkpt>
      <trkpt lat="44.86128" lon="5.94718">
        <ele>1882.4</ele>
        <time>2020-06-20T12:52:43Z</time>
      </trkpt>
      <trkpt lat="44.8613" lon="5.94717">
        <ele>1882.4</ele>
        <time>2020-06-20T12:53:00Z</time>
      </trkpt>
      <trkpt lat="44.86136" lon="5.94699">
        <ele>1882.4</ele>
        <time>2020-06-20T12:53:15Z</time>
      </trkpt>
      <trkpt lat="44.86145" lon="5.94674">
        <ele>1881.44</ele>
        <time>2020-06-20T12:53:33Z</time>
      </trkpt>
      <trkpt lat="44.86147" lon="5.94664">
        <ele>1880.48</ele>
        <time>2020-06-20T12:53:49Z</time>
      </trkpt>
      <trkpt lat="44.86147" lon="5.94665">
        <ele>1880.48</ele>
        <time>2020-06-20T12:54:10Z</time>
      </trkpt>
      <trkpt lat="44.86147" lon="5.94663">
        <ele>1880.48</ele>
        <time>2020-06-20T12:54:29Z</time>
      </trkpt>
      <trkpt lat="44.86147" lon="5.94665">
        <ele>1879.51</ele>
        <time>2020-06-20T12:54:57Z</time>
      </trkpt>
      <trkpt lat="44.86147" lon="5.94663">
        <ele>1880.96</ele>
        <time>2020-06-20T12:55:12Z</time>
      </trkpt>
      <trkpt lat="44.86154" lon="5.94643">
        <ele>1880</ele>
        <time>2020-06-20T12:55:29Z</time>
      </trkpt>
      <trkpt lat="44.86162" lon="5.94624">
        <ele>1877.59</ele>
        <time>2020-06-20T12:55:47Z</time>
      </trkpt>
      <trkpt lat="44.86166" lon="5.94606">
        <ele>1877.11</ele>
        <time>2020-06-20T12:56:01Z</time>
      </trkpt>
      <trkpt lat="44.86168" lon="5.94601">
        <ele>1876.63</ele>
        <time>2020-06-20T12:56:05Z</time>
      </trkpt>
      <trkpt lat="44.86172" lon="5.94577">
        <ele>1875.67</ele>
        <time>2020-06-20T12:56:23Z</time>
      </trkpt>
      <trkpt lat="44.86176" lon="5.9456">
        <ele>1874.23</ele>
        <time>2020-06-20T12:56:39Z</time>
      </trkpt>
      <trkpt lat="44.86179" lon="5.94551">
        <ele>1873.75</ele>
        <time>2020-06-20T12:56:53Z</time>
      </trkpt>
      <trkpt lat="44.86183" lon="5.94538">
        <ele>1873.27</ele>
        <time>2020-06-20T12:57:07Z</time>
      </trkpt>
      <trkpt lat="44.86188" lon="5.94521">
        <ele>1872.79</ele>
        <time>2020-06-20T12:57:23Z</time>
      </trkpt>
      <trkpt lat="44.86188" lon="5.9452">
        <ele>1872.3</ele>
        <time>2020-06-20T12:57:40Z</time>
      </trkpt>
      <trkpt lat="44.86191" lon="5.94508">
        <ele>1871.34</ele>
        <time>2020-06-20T12:57:53Z</time>
      </trkpt>
      <trkpt lat="44.86197" lon="5.94487">
        <ele>1870.86</ele>
        <time>2020-06-20T12:58:10Z</time>
      </trkpt>
      <trkpt lat="44.862" lon="5.94474">
        <ele>1871.82</ele>
        <time>2020-06-20T12:58:20Z</time>
      </trkpt>
      <trkpt lat="44.86206" lon="5.9445">
        <ele>1871.82</ele>
        <time>2020-06-20T12:58:36Z</time>
      </trkpt>
      <trkpt lat="44.86208" lon="5.94441">
        <ele>1870.38</ele>
        <time>2020-06-20T12:58:43Z</time>
      </trkpt>
      <trkpt lat="44.86212" lon="5.94422">
        <ele>1870.38</ele>
        <time>2020-06-20T12:58:57Z</time>
      </trkpt>
      <trkpt lat="44.86215" lon="5.94403">
        <ele>1870.38</ele>
        <time>2020-06-20T12:59:10Z</time>
      </trkpt>
      <trkpt lat="44.8622" lon="5.94377">
        <ele>1869.42</ele>
        <time>2020-06-20T12:59:28Z</time>
      </trkpt>
      <trkpt lat="44.86226" lon="5.94352">
        <ele>1867.98</ele>
        <time>2020-06-20T12:59:47Z</time>
      </trkpt>
      <trkpt lat="44.86227" lon="5.94341">
        <ele>1867.5</ele>
        <time>2020-06-20T12:59:56Z</time>
      </trkpt>
      <trkpt lat="44.86232" lon="5.94314">
        <ele>1866.06</ele>
        <time>2020-06-20T13:00:15Z</time>
      </trkpt>
      <trkpt lat="44.86236" lon="5.94291">
        <ele>1864.61</ele>
        <time>2020-06-20T13:00:31Z</time>
      </trkpt>
      <trkpt lat="44.86243" lon="5.94267">
        <ele>1862.69</ele>
        <time>2020-06-20T13:00:49Z</time>
      </trkpt>
      <trkpt lat="44.86247" lon="5.9424">
        <ele>1861.25</ele>
        <time>2020-06-20T13:01:06Z</time>
      </trkpt>
      <trkpt lat="44.86248" lon="5.94222">
        <ele>1859.81</ele>
        <time>2020-06-20T13:01:22Z</time>
      </trkpt>
      <trkpt lat="44.86248" lon="5.94206">
        <ele>1859.33</ele>
        <time>2020-06-20T13:01:36Z</time>
      </trkpt>
      <trkpt lat="44.8625" lon="5.94201">
        <ele>1858.37</ele>
        <time>2020-06-20T13:01:41Z</time>
      </trkpt>
      <trkpt lat="44.86253" lon="5.94175">
        <ele>1857.4</ele>
        <time>2020-06-20T13:01:59Z</time>
      </trkpt>
      <trkpt lat="44.86255" lon="5.94152">
        <ele>1856.44</ele>
        <time>2020-06-20T13:02:15Z</time>
      </trkpt>
      <trkpt lat="44.8626" lon="5.94129">
        <ele>1855</ele>
        <time>2020-06-20T13:02:31Z</time>
      </trkpt>
      <trkpt lat="44.86262" lon="5.94104">
        <ele>1853.56</ele>
        <time>2020-06-20T13:02:49Z</time>
      </trkpt>
      <trkpt lat="44.86263" lon="5.9408">
        <ele>1851.64</ele>
        <time>2020-06-20T13:03:06Z</time>
      </trkpt>
      <trkpt lat="44.86262" lon="5.94068">
        <ele>1849.71</ele>
        <time>2020-06-20T13:03:20Z</time>
      </trkpt>
      <trkpt lat="44.86254" lon="5.94056">
        <ele>1847.31</ele>
        <time>2020-06-20T13:03:34Z</time>
      </trkpt>
      <trkpt lat="44.86249" lon="5.94054">
        <ele>1846.35</ele>
        <time>2020-06-20T13:03:41Z</time>
      </trkpt>
      <trkpt lat="44.86235" lon="5.94049">
        <ele>1844.91</ele>
        <time>2020-06-20T13:03:56Z</time>
      </trkpt>
      <trkpt lat="44.86217" lon="5.94048">
        <ele>1843.47</ele>
        <time>2020-06-20T13:04:13Z</time>
      </trkpt>
      <trkpt lat="44.86203" lon="5.94045">
        <ele>1843.47</ele>
        <time>2020-06-20T13:04:28Z</time>
      </trkpt>
      <trkpt lat="44.86188" lon="5.94041">
        <ele>1841.54</ele>
        <time>2020-06-20T13:04:43Z</time>
      </trkpt>
      <trkpt lat="44.86177" lon="5.94036">
        <ele>1841.54</ele>
        <time>2020-06-20T13:04:55Z</time>
      </trkpt>
      <trkpt lat="44.86175" lon="5.94035">
        <ele>1841.54</ele>
        <time>2020-06-20T13:04:57Z</time>
      </trkpt>
      <trkpt lat="44.86159" lon="5.94033">
        <ele>1840.58</ele>
        <time>2020-06-20T13:05:14Z</time>
      </trkpt>
      <trkpt lat="44.86147" lon="5.94029">
        <ele>1839.62</ele>
        <time>2020-06-20T13:05:26Z</time>
      </trkpt>
      <trkpt lat="44.8613" lon="5.94025">
        <ele>1837.7</ele>
        <time>2020-06-20T13:05:44Z</time>
      </trkpt>
      <trkpt lat="44.8611" lon="5.94021">
        <ele>1835.77</ele>
        <time>2020-06-20T13:06:03Z</time>
      </trkpt>
      <trkpt lat="44.86094" lon="5.94015">
        <ele>1835.29</ele>
        <time>2020-06-20T13:06:18Z</time>
      </trkpt>
      <trkpt lat="44.86093" lon="5.94014">
        <ele>1835.29</ele>
        <time>2020-06-20T13:06:19Z</time>
      </trkpt>
      <trkpt lat="44.86074" lon="5.94">
        <ele>1833.37</ele>
        <time>2020-06-20T13:06:40Z</time>
      </trkpt>
      <trkpt lat="44.86059" lon="5.9399">
        <ele>1832.89</ele>
        <time>2020-06-20T13:06:55Z</time>
      </trkpt>
      <trkpt lat="44.86046" lon="5.93976">
        <ele>1831.93</ele>
        <time>2020-06-20T13:07:11Z</time>
      </trkpt>
      <trkpt lat="44.86032" lon="5.93959">
        <ele>1830.49</ele>
        <time>2020-06-20T13:07:29Z</time>
      </trkpt>
      <trkpt lat="44.86018" lon="5.93944">
        <ele>1830.01</ele>
        <time>2020-06-20T13:07:46Z</time>
      </trkpt>
      <trkpt lat="44.86009" lon="5.93925">
        <ele>1829.05</ele>
        <time>2020-06-20T13:08:01Z</time>
      </trkpt>
      <trkpt lat="44.86001" lon="5.93901">
        <ele>1827.6</ele>
        <time>2020-06-20T13:08:18Z</time>
      </trkpt>
      <trkpt lat="44.85995" lon="5.9388">
        <ele>1827.12</ele>
        <time>2020-06-20T13:08:34Z</time>
      </trkpt>
      <trkpt lat="44.85994" lon="5.93874">
        <ele>1826.64</ele>
        <time>2020-06-20T13:08:48Z</time>
      </trkpt>
      <trkpt lat="44.85995" lon="5.93875">
        <ele>1826.64</ele>
        <time>2020-06-20T13:09:08Z</time>
      </trkpt>
      <trkpt lat="44.85997" lon="5.93874">
        <ele>1826.64</ele>
        <time>2020-06-20T13:09:14Z</time>
      </trkpt>
      <trkpt lat="44.86001" lon="5.9387">
        <ele>1828.08</ele>
        <time>2020-06-20T13:09:19Z</time>
      </trkpt>
      <trkpt lat="44.8601" lon="5.93862">
        <ele>1828.08</ele>
        <time>2020-06-20T13:09:35Z</time>
      </trkpt>
      <trkpt lat="44.86013" lon="5.9386">
        <ele>1826.64</ele>
        <time>2020-06-20T13:09:38Z</time>
      </trkpt>
      <trkpt lat="44.86026" lon="5.93849">
        <ele>1825.68</ele>
        <time>2020-06-20T13:09:54Z</time>
      </trkpt>
      <trkpt lat="44.86039" lon="5.93838">
        <ele>1824.72</ele>
        <time>2020-06-20T13:10:10Z</time>
      </trkpt>
      <trkpt lat="44.86043" lon="5.93835">
        <ele>1824.24</ele>
        <time>2020-06-20T13:10:14Z</time>
      </trkpt>
      <trkpt lat="44.86057" lon="5.93828">
        <ele>1822.32</ele>
        <time>2020-06-20T13:10:30Z</time>
      </trkpt>
      <trkpt lat="44.86072" lon="5.93813">
        <ele>1821.35</ele>
        <time>2020-06-20T13:10:48Z</time>
      </trkpt>
      <trkpt lat="44.8608" lon="5.93803">
        <ele>1821.35</ele>
        <time>2020-06-20T13:10:57Z</time>
      </trkpt>
      <trkpt lat="44.86092" lon="5.93782">
        <ele>1820.87</ele>
        <time>2020-06-20T13:11:16Z</time>
      </trkpt>
      <trkpt lat="44.861" lon="5.93769">
        <ele>1820.39</ele>
        <time>2020-06-20T13:11:30Z</time>
      </trkpt>
      <trkpt lat="44.86112" lon="5.93749">
        <ele>1820.39</ele>
        <time>2020-06-20T13:11:48Z</time>
      </trkpt>
      <trkpt lat="44.86121" lon="5.93732">
        <ele>1820.39</ele>
        <time>2020-06-20T13:12:06Z</time>
      </trkpt>
      <trkpt lat="44.86132" lon="5.93717">
        <ele>1820.39</ele>
        <time>2020-06-20T13:12:24Z</time>
      </trkpt>
      <trkpt lat="44.86144" lon="5.93702">
        <ele>1820.39</ele>
        <time>2020-06-20T13:12:39Z</time>
      </trkpt>
      <trkpt lat="44.8615" lon="5.93691">
        <ele>1820.39</ele>
        <time>2020-06-20T13:12:52Z</time>
      </trkpt>
      <trkpt lat="44.8616" lon="5.93673">
        <ele>1820.39</ele>
        <time>2020-06-20T13:13:08Z</time>
      </trkpt>
      <trkpt lat="44.86169" lon="5.93659">
        <ele>1820.39</ele>
        <time>2020-06-20T13:13:22Z</time>
      </trkpt>
      <trkpt lat="44.86175" lon="5.93646">
        <ele>1821.84</ele>
        <time>2020-06-20T13:13:33Z</time>
      </trkpt>
      <trkpt lat="44.86183" lon="5.93629">
        <ele>1822.8</ele>
        <time>2020-06-20T13:13:49Z</time>
      </trkpt>
      <trkpt lat="44.86191" lon="5.93611">
        <ele>1822.32</ele>
        <time>2020-06-20T13:14:04Z</time>
      </trkpt>
      <trkpt lat="44.86199" lon="5.93596">
        <ele>1823.28</ele>
        <time>2020-06-20T13:14:19Z</time>
      </trkpt>
      <trkpt lat="44.86207" lon="5.93582">
        <ele>1823.76</ele>
        <time>2020-06-20T13:14:33Z</time>
      </trkpt>
      <trkpt lat="44.86209" lon="5.93578">
        <ele>1822.32</ele>
        <time>2020-06-20T13:14:37Z</time>
      </trkpt>
      <trkpt lat="44.86218" lon="5.93563">
        <ele>1821.84</ele>
        <time>2020-06-20T13:14:53Z</time>
      </trkpt>
      <trkpt lat="44.86222" lon="5.93554">
        <ele>1822.8</ele>
        <time>2020-06-20T13:15:01Z</time>
      </trkpt>
      <trkpt lat="44.86225" lon="5.9355">
        <ele>1822.8</ele>
        <time>2020-06-20T13:15:05Z</time>
      </trkpt>
      <trkpt lat="44.86229" lon="5.93542">
        <ele>1821.84</ele>
        <time>2020-06-20T13:15:13Z</time>
      </trkpt>
      <trkpt lat="44.86238" lon="5.93527">
        <ele>1821.35</ele>
        <time>2020-06-20T13:15:30Z</time>
      </trkpt>
      <trkpt lat="44.86249" lon="5.93511">
        <ele>1820.87</ele>
        <time>2020-06-20T13:15:47Z</time>
      </trkpt>
      <trkpt lat="44.86257" lon="5.93498">
        <ele>1819.91</ele>
        <time>2020-06-20T13:16:02Z</time>
      </trkpt>
      <trkpt lat="44.86263" lon="5.93488">
        <ele>1817.51</ele>
        <time>2020-06-20T13:16:17Z</time>
      </trkpt>
      <trkpt lat="44.86269" lon="5.9348">
        <ele>1816.07</ele>
        <time>2020-06-20T13:16:31Z</time>
      </trkpt>
      <trkpt lat="44.86276" lon="5.93471">
        <ele>1814.63</ele>
        <time>2020-06-20T13:16:43Z</time>
      </trkpt>
      <trkpt lat="44.86287" lon="5.93458">
        <ele>1812.7</ele>
        <time>2020-06-20T13:16:58Z</time>
      </trkpt>
      <trkpt lat="44.86296" lon="5.9345">
        <ele>1811.26</ele>
        <time>2020-06-20T13:17:11Z</time>
      </trkpt>
      <trkpt lat="44.86304" lon="5.93441">
        <ele>1809.82</ele>
        <time>2020-06-20T13:17:27Z</time>
      </trkpt>
      <trkpt lat="44.86316" lon="5.93431">
        <ele>1807.9</ele>
        <time>2020-06-20T13:17:45Z</time>
      </trkpt>
      <trkpt lat="44.86324" lon="5.93426">
        <ele>1806.45</ele>
        <time>2020-06-20T13:17:59Z</time>
      </trkpt>
      <trkpt lat="44.86334" lon="5.93417">
        <ele>1803.57</ele>
        <time>2020-06-20T13:18:16Z</time>
      </trkpt>
      <trkpt lat="44.86343" lon="5.93409">
        <ele>1801.65</ele>
        <time>2020-06-20T13:18:32Z</time>
      </trkpt>
      <trkpt lat="44.86352" lon="5.93399">
        <ele>1799.73</ele>
        <time>2020-06-20T13:18:47Z</time>
      </trkpt>
      <trkpt lat="44.86359" lon="5.93391">
        <ele>1797.32</ele>
        <time>2020-06-20T13:19:02Z</time>
      </trkpt>
      <trkpt lat="44.86365" lon="5.93389">
        <ele>1796.84</ele>
        <time>2020-06-20T13:19:12Z</time>
      </trkpt>
      <trkpt lat="44.86374" lon="5.93381">
        <ele>1794.92</ele>
        <time>2020-06-20T13:19:26Z</time>
      </trkpt>
      <trkpt lat="44.86383" lon="5.93373">
        <ele>1793</ele>
        <time>2020-06-20T13:19:41Z</time>
      </trkpt>
      <trkpt lat="44.86391" lon="5.93364">
        <ele>1791.55</ele>
        <time>2020-06-20T13:19:55Z</time>
      </trkpt>
      <trkpt lat="44.86398" lon="5.93356">
        <ele>1789.15</ele>
        <time>2020-06-20T13:20:10Z</time>
      </trkpt>
      <trkpt lat="44.86402" lon="5.93353">
        <ele>1788.67</ele>
        <time>2020-06-20T13:20:18Z</time>
      </trkpt>
      <trkpt lat="44.8641" lon="5.93341">
        <ele>1787.71</ele>
        <time>2020-06-20T13:20:33Z</time>
      </trkpt>
      <trkpt lat="44.8642" lon="5.93337">
        <ele>1785.31</ele>
        <time>2020-06-20T13:20:48Z</time>
      </trkpt>
      <trkpt lat="44.86429" lon="5.93333">
        <ele>1783.38</ele>
        <time>2020-06-20T13:21:01Z</time>
      </trkpt>
      <trkpt lat="44.8644" lon="5.93327">
        <ele>1780.98</ele>
        <time>2020-06-20T13:21:18Z</time>
      </trkpt>
      <trkpt lat="44.86454" lon="5.93317">
        <ele>1778.1</ele>
        <time>2020-06-20T13:21:36Z</time>
      </trkpt>
      <trkpt lat="44.86464" lon="5.93311">
        <ele>1774.73</ele>
        <time>2020-06-20T13:21:50Z</time>
      </trkpt>
      <trkpt lat="44.86477" lon="5.93304">
        <ele>1772.33</ele>
        <time>2020-06-20T13:22:07Z</time>
      </trkpt>
      <trkpt lat="44.86489" lon="5.93298">
        <ele>1769.44</ele>
        <time>2020-06-20T13:22:23Z</time>
      </trkpt>
      <trkpt lat="44.86502" lon="5.93295">
        <ele>1766.56</ele>
        <time>2020-06-20T13:22:39Z</time>
      </trkpt>
      <trkpt lat="44.86514" lon="5.9329">
        <ele>1763.68</ele>
        <time>2020-06-20T13:22:55Z</time>
      </trkpt>
      <trkpt lat="44.86522" lon="5.93293">
        <ele>1762.23</ele>
        <time>2020-06-20T13:23:11Z</time>
      </trkpt>
      <trkpt lat="44.86523" lon="5.93293">
        <ele>1761.75</ele>
        <time>2020-06-20T13:23:32Z</time>
      </trkpt>
      <trkpt lat="44.86523" lon="5.93293">
        <ele>1761.27</ele>
        <time>2020-06-20T13:24:03Z</time>
      </trkpt>
      <trkpt lat="44.86526" lon="5.93289">
        <ele>1761.27</ele>
        <time>2020-06-20T13:24:18Z</time>
      </trkpt>
      <trkpt lat="44.86527" lon="5.93291">
        <ele>1760.79</ele>
        <time>2020-06-20T13:24:53Z</time>
      </trkpt>
      <trkpt lat="44.86527" lon="5.93291">
        <ele>1760.79</ele>
        <time>2020-06-20T13:25:17Z</time>
      </trkpt>
      <trkpt lat="44.86532" lon="5.93288">
        <ele>1760.31</ele>
        <time>2020-06-20T13:25:25Z</time>
      </trkpt>
      <trkpt lat="44.86544" lon="5.93288">
        <ele>1757.91</ele>
        <time>2020-06-20T13:25:40Z</time>
      </trkpt>
      <trkpt lat="44.86551" lon="5.93286">
        <ele>1756.47</ele>
        <time>2020-06-20T13:25:49Z</time>
      </trkpt>
      <trkpt lat="44.86562" lon="5.93279">
        <ele>1753.58</ele>
        <time>2020-06-20T13:26:05Z</time>
      </trkpt>
      <trkpt lat="44.86569" lon="5.93277">
        <ele>1752.62</ele>
        <time>2020-06-20T13:26:22Z</time>
      </trkpt>
      <trkpt lat="44.86573" lon="5.93277">
        <ele>1751.66</ele>
        <time>2020-06-20T13:26:34Z</time>
      </trkpt>
      <trkpt lat="44.86584" lon="5.93276">
        <ele>1748.78</ele>
        <time>2020-06-20T13:26:49Z</time>
      </trkpt>
      <trkpt lat="44.86598" lon="5.9327">
        <ele>1745.89</ele>
        <time>2020-06-20T13:27:08Z</time>
      </trkpt>
      <trkpt lat="44.86607" lon="5.93267">
        <ele>1744.93</ele>
        <time>2020-06-20T13:27:23Z</time>
      </trkpt>
      <trkpt lat="44.86614" lon="5.93265">
        <ele>1743.01</ele>
        <time>2020-06-20T13:27:39Z</time>
      </trkpt>
      <trkpt lat="44.86622" lon="5.9326">
        <ele>1741.08</ele>
        <time>2020-06-20T13:27:54Z</time>
      </trkpt>
      <trkpt lat="44.86631" lon="5.93255">
        <ele>1738.68</ele>
        <time>2020-06-20T13:28:09Z</time>
      </trkpt>
      <trkpt lat="44.86639" lon="5.93251">
        <ele>1736.76</ele>
        <time>2020-06-20T13:28:22Z</time>
      </trkpt>
      <trkpt lat="44.86651" lon="5.93244">
        <ele>1734.36</ele>
        <time>2020-06-20T13:28:40Z</time>
      </trkpt>
      <trkpt lat="44.8666" lon="5.93237">
        <ele>1732.43</ele>
        <time>2020-06-20T13:28:56Z</time>
      </trkpt>
      <trkpt lat="44.86663" lon="5.93231">
        <ele>1732.43</ele>
        <time>2020-06-20T13:29:03Z</time>
      </trkpt>
      <trkpt lat="44.86664" lon="5.93229">
        <ele>1731.47</ele>
        <time>2020-06-20T13:29:21Z</time>
      </trkpt>
      <trkpt lat="44.86664" lon="5.93228">
        <ele>1731.95</ele>
        <time>2020-06-20T13:29:42Z</time>
      </trkpt>
      <trkpt lat="44.86669" lon="5.93224">
        <ele>1730.03</ele>
        <time>2020-06-20T13:29:59Z</time>
      </trkpt>
      <trkpt lat="44.86672" lon="5.93223">
        <ele>1733.39</ele>
        <time>2020-06-20T13:30:05Z</time>
      </trkpt>
      <trkpt lat="44.86672" lon="5.93223">
        <ele>1733.39</ele>
        <time>2020-06-20T13:30:06Z</time>
      </trkpt>
      <trkpt lat="44.86673" lon="5.93222">
        <ele>1730.51</ele>
        <time>2020-06-20T13:30:08Z</time>
      </trkpt>
      <trkpt lat="44.86674" lon="5.93221">
        <ele>1730.51</ele>
        <time>2020-06-20T13:30:09Z</time>
      </trkpt>
      <trkpt lat="44.86682" lon="5.93217">
        <ele>1730.99</ele>
        <time>2020-06-20T13:30:20Z</time>
      </trkpt>
      <trkpt lat="44.86686" lon="5.93216">
        <ele>1729.07</ele>
        <time>2020-06-20T13:30:24Z</time>
      </trkpt>
      <trkpt lat="44.867" lon="5.9321">
        <ele>1727.15</ele>
        <time>2020-06-20T13:30:42Z</time>
      </trkpt>
      <trkpt lat="44.86709" lon="5.93205">
        <ele>1725.7</ele>
        <time>2020-06-20T13:30:53Z</time>
      </trkpt>
      <trkpt lat="44.86718" lon="5.932">
        <ele>1725.7</ele>
        <time>2020-06-20T13:31:07Z</time>
      </trkpt>
      <trkpt lat="44.86721" lon="5.93197">
        <ele>1724.26</ele>
        <time>2020-06-20T13:31:12Z</time>
      </trkpt>
      <trkpt lat="44.86729" lon="5.93191">
        <ele>1723.3</ele>
        <time>2020-06-20T13:31:27Z</time>
      </trkpt>
      <trkpt lat="44.86742" lon="5.93183">
        <ele>1720.9</ele>
        <time>2020-06-20T13:31:43Z</time>
      </trkpt>
      <trkpt lat="44.86756" lon="5.93176">
        <ele>1718.49</ele>
        <time>2020-06-20T13:31:59Z</time>
      </trkpt>
      <trkpt lat="44.8677" lon="5.9317">
        <ele>1717.05</ele>
        <time>2020-06-20T13:32:15Z</time>
      </trkpt>
      <trkpt lat="44.86784" lon="5.93165">
        <ele>1716.09</ele>
        <time>2020-06-20T13:32:32Z</time>
      </trkpt>
      <trkpt lat="44.86798" lon="5.93161">
        <ele>1714.65</ele>
        <time>2020-06-20T13:32:48Z</time>
      </trkpt>
      <trkpt lat="44.86815" lon="5.93153">
        <ele>1713.21</ele>
        <time>2020-06-20T13:33:06Z</time>
      </trkpt>
      <trkpt lat="44.86816" lon="5.93153">
        <ele>1712.73</ele>
        <time>2020-06-20T13:33:07Z</time>
      </trkpt>
      <trkpt lat="44.86821" lon="5.93154">
        <ele>1712.25</ele>
        <time>2020-06-20T13:33:13Z</time>
      </trkpt>
      <trkpt lat="44.86832" lon="5.93149">
        <ele>1710.8</ele>
        <time>2020-06-20T13:33:27Z</time>
      </trkpt>
      <trkpt lat="44.86842" lon="5.93144">
        <ele>1709.84</ele>
        <time>2020-06-20T13:33:40Z</time>
      </trkpt>
      <trkpt lat="44.86858" lon="5.93136">
        <ele>1707.44</ele>
        <time>2020-06-20T13:33:58Z</time>
      </trkpt>
      <trkpt lat="44.86862" lon="5.93135">
        <ele>1707.92</ele>
        <time>2020-06-20T13:34:03Z</time>
      </trkpt>
      <trkpt lat="44.86864" lon="5.93135">
        <ele>1706</ele>
        <time>2020-06-20T13:34:06Z</time>
      </trkpt>
      <trkpt lat="44.86865" lon="5.93136">
        <ele>1707.44</ele>
        <time>2020-06-20T13:34:08Z</time>
      </trkpt>
      <trkpt lat="44.86867" lon="5.93136">
        <ele>1706</ele>
        <time>2020-06-20T13:34:10Z</time>
      </trkpt>
      <trkpt lat="44.86879" lon="5.93143">
        <ele>1704.55</ele>
        <time>2020-06-20T13:34:25Z</time>
      </trkpt>
      <trkpt lat="44.86886" lon="5.9315">
        <ele>1702.15</ele>
        <time>2020-06-20T13:34:37Z</time>
      </trkpt>
      <trkpt lat="44.86889" lon="5.93154">
        <ele>1701.67</ele>
        <time>2020-06-20T13:34:42Z</time>
      </trkpt>
      <trkpt lat="44.86886" lon="5.93171">
        <ele>1699.75</ele>
        <time>2020-06-20T13:34:58Z</time>
      </trkpt>
      <trkpt lat="44.86879" lon="5.93181">
        <ele>1698.31</ele>
        <time>2020-06-20T13:35:12Z</time>
      </trkpt>
      <trkpt lat="44.86878" lon="5.93184">
        <ele>1698.31</ele>
        <time>2020-06-20T13:35:15Z</time>
      </trkpt>
      <trkpt lat="44.86869" lon="5.93194">
        <ele>1695.9</ele>
        <time>2020-06-20T13:35:30Z</time>
      </trkpt>
      <trkpt lat="44.86866" lon="5.93201">
        <ele>1695.42</ele>
        <time>2020-06-20T13:35:37Z</time>
      </trkpt>
      <trkpt lat="44.86863" lon="5.93205">
        <ele>1694.94</ele>
        <time>2020-06-20T13:35:41Z</time>
      </trkpt>
      <trkpt lat="44.86861" lon="5.93213">
        <ele>1693.98</ele>
        <time>2020-06-20T13:35:52Z</time>
      </trkpt>
      <trkpt lat="44.86856" lon="5.93223">
        <ele>1693.5</ele>
        <time>2020-06-20T13:36:02Z</time>
      </trkpt>
      <trkpt lat="44.8685" lon="5.93234">
        <ele>1691.1</ele>
        <time>2020-06-20T13:36:17Z</time>
      </trkpt>
      <trkpt lat="44.86843" lon="5.93241">
        <ele>1689.17</ele>
        <time>2020-06-20T13:36:33Z</time>
      </trkpt>
      <trkpt lat="44.86839" lon="5.93248">
        <ele>1688.69</ele>
        <time>2020-06-20T13:36:49Z</time>
      </trkpt>
      <trkpt lat="44.86832" lon="5.93261">
        <ele>1687.25</ele>
        <time>2020-06-20T13:37:04Z</time>
      </trkpt>
      <trkpt lat="44.86826" lon="5.9327">
        <ele>1685.33</ele>
        <time>2020-06-20T13:37:19Z</time>
      </trkpt>
      <trkpt lat="44.86818" lon="5.93284">
        <ele>1682.44</ele>
        <time>2020-06-20T13:37:34Z</time>
      </trkpt>
      <trkpt lat="44.86814" lon="5.93293">
        <ele>1681</ele>
        <time>2020-06-20T13:37:51Z</time>
      </trkpt>
      <trkpt lat="44.86813" lon="5.93292">
        <ele>1680.52</ele>
        <time>2020-06-20T13:38:11Z</time>
      </trkpt>
      <trkpt lat="44.86812" lon="5.93293">
        <ele>1680.52</ele>
        <time>2020-06-20T13:38:15Z</time>
      </trkpt>
      <trkpt lat="44.86805" lon="5.933">
        <ele>1679.56</ele>
        <time>2020-06-20T13:38:24Z</time>
      </trkpt>
      <trkpt lat="44.86794" lon="5.93321">
        <ele>1676.68</ele>
        <time>2020-06-20T13:38:43Z</time>
      </trkpt>
      <trkpt lat="44.86783" lon="5.93337">
        <ele>1673.31</ele>
        <time>2020-06-20T13:38:57Z</time>
      </trkpt>
      <trkpt lat="44.86774" lon="5.93349">
        <ele>1670.91</ele>
        <time>2020-06-20T13:39:12Z</time>
      </trkpt>
      <trkpt lat="44.86766" lon="5.93363">
        <ele>1668.99</ele>
        <time>2020-06-20T13:39:29Z</time>
      </trkpt>
      <trkpt lat="44.86757" lon="5.93375">
        <ele>1666.1</ele>
        <time>2020-06-20T13:39:46Z</time>
      </trkpt>
      <trkpt lat="44.86747" lon="5.93392">
        <ele>1662.74</ele>
        <time>2020-06-20T13:40:02Z</time>
      </trkpt>
      <trkpt lat="44.86739" lon="5.93408">
        <ele>1660.33</ele>
        <time>2020-06-20T13:40:17Z</time>
      </trkpt>
      <trkpt lat="44.8673" lon="5.93422">
        <ele>1657.45</ele>
        <time>2020-06-20T13:40:33Z</time>
      </trkpt>
      <trkpt lat="44.86725" lon="5.93435">
        <ele>1656.49</ele>
        <time>2020-06-20T13:40:48Z</time>
      </trkpt>
      <trkpt lat="44.86723" lon="5.93438">
        <ele>1656.01</ele>
        <time>2020-06-20T13:41:04Z</time>
      </trkpt>
      <trkpt lat="44.86717" lon="5.93454">
        <ele>1653.12</ele>
        <time>2020-06-20T13:41:20Z</time>
      </trkpt>
      <trkpt lat="44.86709" lon="5.93469">
        <ele>1650.24</ele>
        <time>2020-06-20T13:41:36Z</time>
      </trkpt>
      <trkpt lat="44.867" lon="5.93479">
        <ele>1649.76</ele>
        <time>2020-06-20T13:41:50Z</time>
      </trkpt>
      <trkpt lat="44.86698" lon="5.93488">
        <ele>1648.8</ele>
        <time>2020-06-20T13:42:05Z</time>
      </trkpt>
      <trkpt lat="44.86693" lon="5.93506">
        <ele>1646.88</ele>
        <time>2020-06-20T13:42:23Z</time>
      </trkpt>
      <trkpt lat="44.8669" lon="5.93517">
        <ele>1643.99</ele>
        <time>2020-06-20T13:42:38Z</time>
      </trkpt>
      <trkpt lat="44.8669" lon="5.93519">
        <ele>1643.51</ele>
        <time>2020-06-20T13:42:40Z</time>
      </trkpt>
      <trkpt lat="44.8669" lon="5.93522">
        <ele>1646.88</ele>
        <time>2020-06-20T13:42:44Z</time>
      </trkpt>
      <trkpt lat="44.86691" lon="5.93525">
        <ele>1643.51</ele>
        <time>2020-06-20T13:42:47Z</time>
      </trkpt>
      <trkpt lat="44.86691" lon="5.93534">
        <ele>1641.11</ele>
        <time>2020-06-20T13:43:01Z</time>
      </trkpt>
      <trkpt lat="44.86692" lon="5.93537">
        <ele>1641.11</ele>
        <time>2020-06-20T13:43:15Z</time>
      </trkpt>
      <trkpt lat="44.86698" lon="5.93534">
        <ele>1639.67</ele>
        <time>2020-06-20T13:43:32Z</time>
      </trkpt>
      <trkpt lat="44.86699" lon="5.93528">
        <ele>1640.63</ele>
        <time>2020-06-20T13:43:46Z</time>
      </trkpt>
      <trkpt lat="44.867" lon="5.93524">
        <ele>1640.63</ele>
        <time>2020-06-20T13:44:01Z</time>
      </trkpt>
      <trkpt lat="44.86706" lon="5.93516">
        <ele>1639.19</ele>
        <time>2020-06-20T13:44:11Z</time>
      </trkpt>
      <trkpt lat="44.86707" lon="5.93514">
        <ele>1639.19</ele>
        <time>2020-06-20T13:44:13Z</time>
      </trkpt>
      <trkpt lat="44.86708" lon="5.93513">
        <ele>1638.7</ele>
        <time>2020-06-20T13:44:15Z</time>
      </trkpt>
      <trkpt lat="44.86717" lon="5.93504">
        <ele>1637.26</ele>
        <time>2020-06-20T13:44:26Z</time>
      </trkpt>
      <trkpt lat="44.86726" lon="5.93494">
        <ele>1636.78</ele>
        <time>2020-06-20T13:44:41Z</time>
      </trkpt>
      <trkpt lat="44.86736" lon="5.93487">
        <ele>1636.78</ele>
        <time>2020-06-20T13:44:54Z</time>
      </trkpt>
      <trkpt lat="44.86749" lon="5.9348">
        <ele>1636.3</ele>
        <time>2020-06-20T13:45:10Z</time>
      </trkpt>
      <trkpt lat="44.86755" lon="5.93476">
        <ele>1636.3</ele>
        <time>2020-06-20T13:45:18Z</time>
      </trkpt>
      <trkpt lat="44.86765" lon="5.93465">
        <ele>1635.82</ele>
        <time>2020-06-20T13:45:34Z</time>
      </trkpt>
      <trkpt lat="44.86776" lon="5.93457">
        <ele>1634.38</ele>
        <time>2020-06-20T13:45:48Z</time>
      </trkpt>
      <trkpt lat="44.86778" lon="5.93455">
        <ele>1634.38</ele>
        <time>2020-06-20T13:45:51Z</time>
      </trkpt>
      <trkpt lat="44.86792" lon="5.93444">
        <ele>1633.42</ele>
        <time>2020-06-20T13:46:08Z</time>
      </trkpt>
      <trkpt lat="44.86803" lon="5.93436">
        <ele>1632.94</ele>
        <time>2020-06-20T13:46:23Z</time>
      </trkpt>
      <trkpt lat="44.86815" lon="5.93424">
        <ele>1632.46</ele>
        <time>2020-06-20T13:46:37Z</time>
      </trkpt>
      <trkpt lat="44.86823" lon="5.93419">
        <ele>1632.46</ele>
        <time>2020-06-20T13:46:46Z</time>
      </trkpt>
      <trkpt lat="44.86836" lon="5.93409">
        <ele>1632.46</ele>
        <time>2020-06-20T13:47:01Z</time>
      </trkpt>
      <trkpt lat="44.86837" lon="5.93408">
        <ele>1632.46</ele>
        <time>2020-06-20T13:47:02Z</time>
      </trkpt>
      <trkpt lat="44.86849" lon="5.93405">
        <ele>1630.53</ele>
        <time>2020-06-20T13:47:17Z</time>
      </trkpt>
      <trkpt lat="44.86861" lon="5.93398">
        <ele>1630.53</ele>
        <time>2020-06-20T13:47:31Z</time>
      </trkpt>
      <trkpt lat="44.86862" lon="5.93396">
        <ele>1630.53</ele>
        <time>2020-06-20T13:47:32Z</time>
      </trkpt>
      <trkpt lat="44.86872" lon="5.93391">
        <ele>1629.57</ele>
        <time>2020-06-20T13:47:45Z</time>
      </trkpt>
      <trkpt lat="44.86874" lon="5.93389">
        <ele>1629.57</ele>
        <time>2020-06-20T13:47:47Z</time>
      </trkpt>
      <trkpt lat="44.86888" lon="5.9338">
        <ele>1629.57</ele>
        <time>2020-06-20T13:48:02Z</time>
      </trkpt>
      <trkpt lat="44.86892" lon="5.93379">
        <ele>1629.57</ele>
        <time>2020-06-20T13:48:07Z</time>
      </trkpt>
      <trkpt lat="44.86894" lon="5.93378">
        <ele>1629.57</ele>
        <time>2020-06-20T13:48:09Z</time>
      </trkpt>
      <trkpt lat="44.86896" lon="5.93378">
        <ele>1629.57</ele>
        <time>2020-06-20T13:48:11Z</time>
      </trkpt>
      <trkpt lat="44.86911" lon="5.93369">
        <ele>1629.09</ele>
        <time>2020-06-20T13:48:28Z</time>
      </trkpt>
      <trkpt lat="44.86916" lon="5.93366">
        <ele>1629.09</ele>
        <time>2020-06-20T13:48:34Z</time>
      </trkpt>
      <trkpt lat="44.86921" lon="5.93361">
        <ele>1630.53</ele>
        <time>2020-06-20T13:48:40Z</time>
      </trkpt>
      <trkpt lat="44.86934" lon="5.9335">
        <ele>1631.01</ele>
        <time>2020-06-20T13:48:55Z</time>
      </trkpt>
      <trkpt lat="44.86946" lon="5.93339">
        <ele>1631.01</ele>
        <time>2020-06-20T13:49:09Z</time>
      </trkpt>
      <trkpt lat="44.8695" lon="5.93338">
        <ele>1630.05</ele>
        <time>2020-06-20T13:49:13Z</time>
      </trkpt>
      <trkpt lat="44.86964" lon="5.93328">
        <ele>1629.57</ele>
        <time>2020-06-20T13:49:28Z</time>
      </trkpt>
      <trkpt lat="44.86976" lon="5.93316">
        <ele>1629.09</ele>
        <time>2020-06-20T13:49:43Z</time>
      </trkpt>
      <trkpt lat="44.86986" lon="5.93303">
        <ele>1628.61</ele>
        <time>2020-06-20T13:49:57Z</time>
      </trkpt>
      <trkpt lat="44.86991" lon="5.93297">
        <ele>1628.13</ele>
        <time>2020-06-20T13:50:04Z</time>
      </trkpt>
      <trkpt lat="44.87006" lon="5.93284">
        <ele>1627.17</ele>
        <time>2020-06-20T13:50:21Z</time>
      </trkpt>
      <trkpt lat="44.8702" lon="5.93269">
        <ele>1626.21</ele>
        <time>2020-06-20T13:50:38Z</time>
      </trkpt>
      <trkpt lat="44.87029" lon="5.9326">
        <ele>1626.21</ele>
        <time>2020-06-20T13:50:48Z</time>
      </trkpt>
      <trkpt lat="44.87031" lon="5.9326">
        <ele>1626.21</ele>
        <time>2020-06-20T13:50:50Z</time>
      </trkpt>
      <trkpt lat="44.87034" lon="5.93259">
        <ele>1626.21</ele>
        <time>2020-06-20T13:50:54Z</time>
      </trkpt>
      <trkpt lat="44.87038" lon="5.93262">
        <ele>1625.73</ele>
        <time>2020-06-20T13:50:58Z</time>
      </trkpt>
      <trkpt lat="44.87049" lon="5.93266">
        <ele>1623.32</ele>
        <time>2020-06-20T13:51:10Z</time>
      </trkpt>
      <trkpt lat="44.87049" lon="5.93287">
        <ele>1621.88</ele>
        <time>2020-06-20T13:51:27Z</time>
      </trkpt>
      <trkpt lat="44.87049" lon="5.9329">
        <ele>1620.92</ele>
        <time>2020-06-20T13:51:30Z</time>
      </trkpt>
      <trkpt lat="44.8705" lon="5.93301">
        <ele>1620.44</ele>
        <time>2020-06-20T13:51:43Z</time>
      </trkpt>
      <trkpt lat="44.87054" lon="5.9331">
        <ele>1619.96</ele>
        <time>2020-06-20T13:51:53Z</time>
      </trkpt>
      <trkpt lat="44.87055" lon="5.93318">
        <ele>1620.92</ele>
        <time>2020-06-20T13:52:00Z</time>
      </trkpt>
      <trkpt lat="44.87062" lon="5.93336">
        <ele>1622.84</ele>
        <time>2020-06-20T13:52:17Z</time>
      </trkpt>
      <trkpt lat="44.87063" lon="5.93334">
        <ele>1623.32</ele>
        <time>2020-06-20T13:52:32Z</time>
      </trkpt>
      <trkpt lat="44.87066" lon="5.93334">
        <ele>1623.32</ele>
        <time>2020-06-20T13:52:45Z</time>
      </trkpt>
      <trkpt lat="44.87074" lon="5.93325">
        <ele>1623.32</ele>
        <time>2020-06-20T13:53:00Z</time>
      </trkpt>
      <trkpt lat="44.87083" lon="5.93315">
        <ele>1623.32</ele>
        <time>2020-06-20T13:53:14Z</time>
      </trkpt>
      <trkpt lat="44.87093" lon="5.93302">
        <ele>1623.8</ele>
        <time>2020-06-20T13:53:30Z</time>
      </trkpt>
      <trkpt lat="44.87105" lon="5.93282">
        <ele>1623.8</ele>
        <time>2020-06-20T13:53:45Z</time>
      </trkpt>
      <trkpt lat="44.87112" lon="5.93273">
        <ele>1623.8</ele>
        <time>2020-06-20T13:54:00Z</time>
      </trkpt>
      <trkpt lat="44.87112" lon="5.93273">
        <ele>1622.36</ele>
        <time>2020-06-20T13:54:03Z</time>
      </trkpt>
      <trkpt lat="44.8711" lon="5.93268">
        <ele>1623.8</ele>
        <time>2020-06-20T13:54:17Z</time>
      </trkpt>
      <trkpt lat="44.8712" lon="5.93259">
        <ele>1623.8</ele>
        <time>2020-06-20T13:54:29Z</time>
      </trkpt>
      <trkpt lat="44.87121" lon="5.93258">
        <ele>1623.8</ele>
        <time>2020-06-20T13:54:30Z</time>
      </trkpt>
      <trkpt lat="44.87126" lon="5.93257">
        <ele>1622.36</ele>
        <time>2020-06-20T13:54:36Z</time>
      </trkpt>
      <trkpt lat="44.87129" lon="5.93251">
        <ele>1622.36</ele>
        <time>2020-06-20T13:54:53Z</time>
      </trkpt>
      <trkpt lat="44.87132" lon="5.93252">
        <ele>1622.36</ele>
        <time>2020-06-20T13:55:06Z</time>
      </trkpt>
      <trkpt lat="44.87135" lon="5.9325">
        <ele>1621.4</ele>
        <time>2020-06-20T13:55:20Z</time>
      </trkpt>
      <trkpt lat="44.87148" lon="5.93237">
        <ele>1619.96</ele>
        <time>2020-06-20T13:55:36Z</time>
      </trkpt>
      <trkpt lat="44.87162" lon="5.93222">
        <ele>1620.44</ele>
        <time>2020-06-20T13:55:50Z</time>
      </trkpt>
      <trkpt lat="44.8717" lon="5.93215">
        <ele>1618.52</ele>
        <time>2020-06-20T13:55:58Z</time>
      </trkpt>
      <trkpt lat="44.87187" lon="5.932">
        <ele>1615.63</ele>
        <time>2020-06-20T13:56:15Z</time>
      </trkpt>
      <trkpt lat="44.87205" lon="5.93185">
        <ele>1613.71</ele>
        <time>2020-06-20T13:56:32Z</time>
      </trkpt>
      <trkpt lat="44.87213" lon="5.93178">
        <ele>1612.27</ele>
        <time>2020-06-20T13:56:41Z</time>
      </trkpt>
      <trkpt lat="44.87216" lon="5.93177">
        <ele>1611.79</ele>
        <time>2020-06-20T13:56:45Z</time>
      </trkpt>
      <trkpt lat="44.87217" lon="5.93175">
        <ele>1611.79</ele>
        <time>2020-06-20T13:56:47Z</time>
      </trkpt>
      <trkpt lat="44.87234" lon="5.93167">
        <ele>1608.9</ele>
        <time>2020-06-20T13:57:05Z</time>
      </trkpt>
      <trkpt lat="44.87244" lon="5.93162">
        <ele>1606.98</ele>
        <time>2020-06-20T13:57:21Z</time>
      </trkpt>
      <trkpt lat="44.87242" lon="5.93163">
        <ele>1606.98</ele>
        <time>2020-06-20T13:57:52Z</time>
      </trkpt>
      <trkpt lat="44.8725" lon="5.93157">
        <ele>1606.02</ele>
        <time>2020-06-20T13:58:16Z</time>
      </trkpt>
      <trkpt lat="44.87252" lon="5.93156">
        <ele>1608.42</ele>
        <time>2020-06-20T13:58:18Z</time>
      </trkpt>
      <trkpt lat="44.87253" lon="5.93155">
        <ele>1606.5</ele>
        <time>2020-06-20T13:58:20Z</time>
      </trkpt>
      <trkpt lat="44.87255" lon="5.93154">
        <ele>1606.5</ele>
        <time>2020-06-20T13:58:35Z</time>
      </trkpt>
      <trkpt lat="44.87263" lon="5.93143">
        <ele>1604.58</ele>
        <time>2020-06-20T13:58:50Z</time>
      </trkpt>
      <trkpt lat="44.8727" lon="5.93138">
        <ele>1603.62</ele>
        <time>2020-06-20T13:59:01Z</time>
      </trkpt>
      <trkpt lat="44.87272" lon="5.93137">
        <ele>1603.62</ele>
        <time>2020-06-20T13:59:03Z</time>
      </trkpt>
      <trkpt lat="44.87285" lon="5.93125">
        <ele>1601.69</ele>
        <time>2020-06-20T13:59:18Z</time>
      </trkpt>
      <trkpt lat="44.87301" lon="5.93106">
        <ele>1600.73</ele>
        <time>2020-06-20T13:59:37Z</time>
      </trkpt>
      <trkpt lat="44.8731" lon="5.93094">
        <ele>1599.77</ele>
        <time>2020-06-20T13:59:52Z</time>
      </trkpt>
      <trkpt lat="44.87312" lon="5.9309">
        <ele>1598.33</ele>
        <time>2020-06-20T13:59:55Z</time>
      </trkpt>
      <trkpt lat="44.87313" lon="5.93088">
        <ele>1597.85</ele>
        <time>2020-06-20T13:59:57Z</time>
      </trkpt>
      <trkpt lat="44.87319" lon="5.93085">
        <ele>1596.89</ele>
        <time>2020-06-20T14:00:14Z</time>
      </trkpt>
      <trkpt lat="44.87329" lon="5.93075">
        <ele>1595.93</ele>
        <time>2020-06-20T14:00:30Z</time>
      </trkpt>
      <trkpt lat="44.87332" lon="5.93075">
        <ele>1594.96</ele>
        <time>2020-06-20T14:00:34Z</time>
      </trkpt>
      <trkpt lat="44.87348" lon="5.93064">
        <ele>1592.56</ele>
        <time>2020-06-20T14:00:54Z</time>
      </trkpt>
      <trkpt lat="44.87364" lon="5.9306">
        <ele>1590.64</ele>
        <time>2020-06-20T14:01:12Z</time>
      </trkpt>
      <trkpt lat="44.87378" lon="5.93059">
        <ele>1588.72</ele>
        <time>2020-06-20T14:01:28Z</time>
      </trkpt>
      <trkpt lat="44.87395" lon="5.93059">
        <ele>1587.27</ele>
        <time>2020-06-20T14:01:46Z</time>
      </trkpt>
      <trkpt lat="44.87397" lon="5.93059">
        <ele>1586.31</ele>
        <time>2020-06-20T14:01:48Z</time>
      </trkpt>
      <trkpt lat="44.87415" lon="5.93061">
        <ele>1584.87</ele>
        <time>2020-06-20T14:02:07Z</time>
      </trkpt>
      <trkpt lat="44.87434" lon="5.93061">
        <ele>1583.43</ele>
        <time>2020-06-20T14:02:26Z</time>
      </trkpt>
      <trkpt lat="44.8745" lon="5.93066">
        <ele>1581.51</ele>
        <time>2020-06-20T14:02:45Z</time>
      </trkpt>
      <trkpt lat="44.87467" lon="5.9307">
        <ele>1578.14</ele>
        <time>2020-06-20T14:03:03Z</time>
      </trkpt>
      <trkpt lat="44.87473" lon="5.93069">
        <ele>1578.14</ele>
        <time>2020-06-20T14:03:09Z</time>
      </trkpt>
      <trkpt lat="44.8749" lon="5.93066">
        <ele>1576.7</ele>
        <time>2020-06-20T14:03:27Z</time>
      </trkpt>
      <trkpt lat="44.87508" lon="5.93066">
        <ele>1575.74</ele>
        <time>2020-06-20T14:03:46Z</time>
      </trkpt>
      <trkpt lat="44.87527" lon="5.93061">
        <ele>1573.33</ele>
        <time>2020-06-20T14:04:04Z</time>
      </trkpt>
      <trkpt lat="44.87546" lon="5.93059">
        <ele>1571.89</ele>
        <time>2020-06-20T14:04:23Z</time>
      </trkpt>
      <trkpt lat="44.87565" lon="5.93055">
        <ele>1569.49</ele>
        <time>2020-06-20T14:04:43Z</time>
      </trkpt>
      <trkpt lat="44.87583" lon="5.93054">
        <ele>1568.05</ele>
        <time>2020-06-20T14:05:01Z</time>
      </trkpt>
      <trkpt lat="44.87593" lon="5.93055">
        <ele>1567.57</ele>
        <time>2020-06-20T14:05:12Z</time>
      </trkpt>
      <trkpt lat="44.87603" lon="5.93068">
        <ele>1565.64</ele>
        <time>2020-06-20T14:05:25Z</time>
      </trkpt>
      <trkpt lat="44.87609" lon="5.93091">
        <ele>1563.72</ele>
        <time>2020-06-20T14:05:42Z</time>
      </trkpt>
      <trkpt lat="44.8761" lon="5.93115">
        <ele>1562.28</ele>
        <time>2020-06-20T14:05:58Z</time>
      </trkpt>
      <trkpt lat="44.87609" lon="5.93132">
        <ele>1560.84</ele>
        <time>2020-06-20T14:06:12Z</time>
      </trkpt>
      <trkpt lat="44.87608" lon="5.93141">
        <ele>1559.88</ele>
        <time>2020-06-20T14:06:19Z</time>
      </trkpt>
      <trkpt lat="44.87613" lon="5.9316">
        <ele>1558.43</ele>
        <time>2020-06-20T14:06:29Z</time>
      </trkpt>
      <trkpt lat="44.87615" lon="5.93186">
        <ele>1556.51</ele>
        <time>2020-06-20T14:06:47Z</time>
      </trkpt>
      <trkpt lat="44.87618" lon="5.93201">
        <ele>1554.11</ele>
        <time>2020-06-20T14:07:01Z</time>
      </trkpt>
      <trkpt lat="44.87619" lon="5.93216">
        <ele>1553.15</ele>
        <time>2020-06-20T14:07:16Z</time>
      </trkpt>
      <trkpt lat="44.8762" lon="5.93234">
        <ele>1551.22</ele>
        <time>2020-06-20T14:07:30Z</time>
      </trkpt>
      <trkpt lat="44.87621" lon="5.93245">
        <ele>1550.74</ele>
        <time>2020-06-20T14:07:38Z</time>
      </trkpt>
      <trkpt lat="44.87624" lon="5.93256">
        <ele>1549.78</ele>
        <time>2020-06-20T14:07:46Z</time>
      </trkpt>
      <trkpt lat="44.87622" lon="5.93262">
        <ele>1549.3</ele>
        <time>2020-06-20T14:08:03Z</time>
      </trkpt>
      <trkpt lat="44.87624" lon="5.93266">
        <ele>1548.34</ele>
        <time>2020-06-20T14:08:23Z</time>
      </trkpt>
      <trkpt lat="44.87625" lon="5.93266">
        <ele>1548.34</ele>
        <time>2020-06-20T14:08:24Z</time>
      </trkpt>
      <trkpt lat="44.87629" lon="5.93272">
        <ele>1547.38</ele>
        <time>2020-06-20T14:08:30Z</time>
      </trkpt>
      <trkpt lat="44.87632" lon="5.93277">
        <ele>1548.82</ele>
        <time>2020-06-20T14:08:34Z</time>
      </trkpt>
      <trkpt lat="44.87636" lon="5.93297">
        <ele>1545.94</ele>
        <time>2020-06-20T14:08:48Z</time>
      </trkpt>
      <trkpt lat="44.87645" lon="5.93312">
        <ele>1544.01</ele>
        <time>2020-06-20T14:09:03Z</time>
      </trkpt>
      <trkpt lat="44.87651" lon="5.93323">
        <ele>1542.09</ele>
        <time>2020-06-20T14:09:14Z</time>
      </trkpt>
      <trkpt lat="44.87658" lon="5.93334">
        <ele>1541.61</ele>
        <time>2020-06-20T14:09:22Z</time>
      </trkpt>
      <trkpt lat="44.87669" lon="5.93357">
        <ele>1539.21</ele>
        <time>2020-06-20T14:09:38Z</time>
      </trkpt>
      <trkpt lat="44.87671" lon="5.93359">
        <ele>1539.21</ele>
        <time>2020-06-20T14:09:40Z</time>
      </trkpt>
      <trkpt lat="44.87674" lon="5.93369">
        <ele>1538.73</ele>
        <time>2020-06-20T14:09:46Z</time>
      </trkpt>
      <trkpt lat="44.87675" lon="5.93375">
        <ele>1538.73</ele>
        <time>2020-06-20T14:09:50Z</time>
      </trkpt>
      <trkpt lat="44.87676" lon="5.93392">
        <ele>1536.8</ele>
        <time>2020-06-20T14:10:07Z</time>
      </trkpt>
      <trkpt lat="44.87674" lon="5.93397">
        <ele>1536.8</ele>
        <time>2020-06-20T14:10:25Z</time>
      </trkpt>
      <trkpt lat="44.87674" lon="5.93401">
        <ele>1536.32</ele>
        <time>2020-06-20T14:10:49Z</time>
      </trkpt>
      <trkpt lat="44.87681" lon="5.93397">
        <ele>1534.88</ele>
        <time>2020-06-20T14:11:09Z</time>
      </trkpt>
      <trkpt lat="44.87681" lon="5.93398">
        <ele>1534.88</ele>
        <time>2020-06-20T14:11:10Z</time>
      </trkpt>
      <trkpt lat="44.877" lon="5.93409">
        <ele>1531.04</ele>
        <time>2020-06-20T14:11:26Z</time>
      </trkpt>
      <trkpt lat="44.87709" lon="5.93418">
        <ele>1529.59</ele>
        <time>2020-06-20T14:11:34Z</time>
      </trkpt>
      <trkpt lat="44.8773" lon="5.93426">
        <ele>1526.71</ele>
        <time>2020-06-20T14:11:48Z</time>
      </trkpt>
      <trkpt lat="44.87749" lon="5.93443">
        <ele>1525.27</ele>
        <time>2020-06-20T14:12:03Z</time>
      </trkpt>
      <trkpt lat="44.87761" lon="5.93461">
        <ele>1521.42</ele>
        <time>2020-06-20T14:12:17Z</time>
      </trkpt>
      <trkpt lat="44.87766" lon="5.93481">
        <ele>1522.39</ele>
        <time>2020-06-20T14:12:29Z</time>
      </trkpt>
      <trkpt lat="44.87767" lon="5.93482">
        <ele>1522.39</ele>
        <time>2020-06-20T14:12:30Z</time>
      </trkpt>
      <trkpt lat="44.87771" lon="5.93486">
        <ele>1521.42</ele>
        <time>2020-06-20T14:12:44Z</time>
      </trkpt>
      <trkpt lat="44.87769" lon="5.9348">
        <ele>1519.98</ele>
        <time>2020-06-20T14:12:53Z</time>
      </trkpt>
      <trkpt lat="44.87763" lon="5.93462">
        <ele>1519.02</ele>
        <time>2020-06-20T14:13:07Z</time>
      </trkpt>
      <trkpt lat="44.87759" lon="5.93444">
        <ele>1516.62</ele>
        <time>2020-06-20T14:13:21Z</time>
      </trkpt>
      <trkpt lat="44.87758" lon="5.93442">
        <ele>1516.62</ele>
        <time>2020-06-20T14:13:23Z</time>
      </trkpt>
      <trkpt lat="44.8775" lon="5.93432">
        <ele>1514.69</ele>
        <time>2020-06-20T14:13:39Z</time>
      </trkpt>
      <trkpt lat="44.87742" lon="5.93421">
        <ele>1513.73</ele>
        <time>2020-06-20T14:13:55Z</time>
      </trkpt>
      <trkpt lat="44.87722" lon="5.93397">
        <ele>1512.29</ele>
        <time>2020-06-20T14:14:14Z</time>
      </trkpt>
      <trkpt lat="44.87712" lon="5.93381">
        <ele>1510.85</ele>
        <time>2020-06-20T14:14:24Z</time>
      </trkpt>
      <trkpt lat="44.8771" lon="5.93376">
        <ele>1510.85</ele>
        <time>2020-06-20T14:14:26Z</time>
      </trkpt>
      <trkpt lat="44.87707" lon="5.93367">
        <ele>1510.85</ele>
        <time>2020-06-20T14:14:40Z</time>
      </trkpt>
      <trkpt lat="44.87707" lon="5.93358">
        <ele>1510.37</ele>
        <time>2020-06-20T14:15:02Z</time>
      </trkpt>
      <trkpt lat="44.87707" lon="5.93352">
        <ele>1512.77</ele>
        <time>2020-06-20T14:15:21Z</time>
      </trkpt>
      <trkpt lat="44.87708" lon="5.93355">
        <ele>1510.85</ele>
        <time>2020-06-20T14:15:23Z</time>
      </trkpt>
      <trkpt lat="44.87712" lon="5.93359">
        <ele>1510.85</ele>
        <time>2020-06-20T14:15:49Z</time>
      </trkpt>
      <trkpt lat="44.8771" lon="5.9336">
        <ele>1511.81</ele>
        <time>2020-06-20T14:16:12Z</time>
      </trkpt>
      <trkpt lat="44.87705" lon="5.9335">
        <ele>1510.37</ele>
        <time>2020-06-20T14:16:26Z</time>
      </trkpt>
      <trkpt lat="44.87705" lon="5.93335">
        <ele>1508.93</ele>
        <time>2020-06-20T14:16:39Z</time>
      </trkpt>
      <trkpt lat="44.87697" lon="5.93315">
        <ele>1507</ele>
        <time>2020-06-20T14:16:55Z</time>
      </trkpt>
      <trkpt lat="44.87693" lon="5.93298">
        <ele>1505.08</ele>
        <time>2020-06-20T14:17:10Z</time>
      </trkpt>
      <trkpt lat="44.87689" lon="5.93285">
        <ele>1504.12</ele>
        <time>2020-06-20T14:17:20Z</time>
      </trkpt>
      <trkpt lat="44.87685" lon="5.93263">
        <ele>1502.2</ele>
        <time>2020-06-20T14:17:34Z</time>
      </trkpt>
      <trkpt lat="44.87683" lon="5.93244">
        <ele>1500.76</ele>
        <time>2020-06-20T14:17:47Z</time>
      </trkpt>
      <trkpt lat="44.87679" lon="5.93222">
        <ele>1499.79</ele>
        <time>2020-06-20T14:18:01Z</time>
      </trkpt>
      <trkpt lat="44.87681" lon="5.93219">
        <ele>1498.83</ele>
        <time>2020-06-20T14:18:04Z</time>
      </trkpt>
      <trkpt lat="44.87681" lon="5.93192">
        <ele>1496.91</ele>
        <time>2020-06-20T14:18:22Z</time>
      </trkpt>
      <trkpt lat="44.8768" lon="5.93191">
        <ele>1496.91</ele>
        <time>2020-06-20T14:18:23Z</time>
      </trkpt>
      <trkpt lat="44.8768" lon="5.93182">
        <ele>1496.43</ele>
        <time>2020-06-20T14:18:29Z</time>
      </trkpt>
      <trkpt lat="44.87679" lon="5.93177">
        <ele>1495.95</ele>
        <time>2020-06-20T14:18:32Z</time>
      </trkpt>
      <trkpt lat="44.87682" lon="5.93154">
        <ele>1493.55</ele>
        <time>2020-06-20T14:18:47Z</time>
      </trkpt>
      <trkpt lat="44.87683" lon="5.93151">
        <ele>1493.55</ele>
        <time>2020-06-20T14:18:49Z</time>
      </trkpt>
      <trkpt lat="44.87685" lon="5.93128">
        <ele>1492.1</ele>
        <time>2020-06-20T14:19:03Z</time>
      </trkpt>
      <trkpt lat="44.87686" lon="5.93127">
        <ele>1492.1</ele>
        <time>2020-06-20T14:19:04Z</time>
      </trkpt>
      <trkpt lat="44.87687" lon="5.93111">
        <ele>1490.66</ele>
        <time>2020-06-20T14:19:15Z</time>
      </trkpt>
      <trkpt lat="44.87687" lon="5.93108">
        <ele>1490.18</ele>
        <time>2020-06-20T14:19:17Z</time>
      </trkpt>
      <trkpt lat="44.87682" lon="5.93086">
        <ele>1487.3</ele>
        <time>2020-06-20T14:19:31Z</time>
      </trkpt>
      <trkpt lat="44.87678" lon="5.93065">
        <ele>1484.89</ele>
        <time>2020-06-20T14:19:45Z</time>
      </trkpt>
      <trkpt lat="44.87678" lon="5.9304">
        <ele>1482.49</ele>
        <time>2020-06-20T14:20:00Z</time>
      </trkpt>
      <trkpt lat="44.87684" lon="5.93017">
        <ele>1481.05</ele>
        <time>2020-06-20T14:20:15Z</time>
      </trkpt>
      <trkpt lat="44.87684" lon="5.93012">
        <ele>1480.09</ele>
        <time>2020-06-20T14:20:18Z</time>
      </trkpt>
      <trkpt lat="44.87687" lon="5.92994">
        <ele>1478.65</ele>
        <time>2020-06-20T14:20:29Z</time>
      </trkpt>
      <trkpt lat="44.8769" lon="5.92968">
        <ele>1476.24</ele>
        <time>2020-06-20T14:20:45Z</time>
      </trkpt>
      <trkpt lat="44.87694" lon="5.92952">
        <ele>1474.8</ele>
        <time>2020-06-20T14:20:56Z</time>
      </trkpt>
      <trkpt lat="44.87699" lon="5.92927">
        <ele>1471.44</ele>
        <time>2020-06-20T14:21:13Z</time>
      </trkpt>
      <trkpt lat="44.87703" lon="5.92903">
        <ele>1469.51</ele>
        <time>2020-06-20T14:21:29Z</time>
      </trkpt>
      <trkpt lat="44.87703" lon="5.92902">
        <ele>1469.51</ele>
        <time>2020-06-20T14:21:30Z</time>
      </trkpt>
      <trkpt lat="44.87709" lon="5.9288">
        <ele>1467.11</ele>
        <time>2020-06-20T14:21:45Z</time>
      </trkpt>
      <trkpt lat="44.87711" lon="5.9286">
        <ele>1463.74</ele>
        <time>2020-06-20T14:22:00Z</time>
      </trkpt>
      <trkpt lat="44.87708" lon="5.92835">
        <ele>1460.86</ele>
        <time>2020-06-20T14:22:17Z</time>
      </trkpt>
      <trkpt lat="44.87708" lon="5.92829">
        <ele>1460.38</ele>
        <time>2020-06-20T14:22:21Z</time>
      </trkpt>
      <trkpt lat="44.87711" lon="5.92794">
        <ele>1457.98</ele>
        <time>2020-06-20T14:22:40Z</time>
      </trkpt>
      <trkpt lat="44.87714" lon="5.92783">
        <ele>1457.98</ele>
        <time>2020-06-20T14:22:46Z</time>
      </trkpt>
      <trkpt lat="44.87712" lon="5.92767">
        <ele>1456.05</ele>
        <time>2020-06-20T14:22:57Z</time>
      </trkpt>
      <trkpt lat="44.8771" lon="5.92765">
        <ele>1455.57</ele>
        <time>2020-06-20T14:23:00Z</time>
      </trkpt>
      <trkpt lat="44.87703" lon="5.92762">
        <ele>1454.13</ele>
        <time>2020-06-20T14:23:08Z</time>
      </trkpt>
      <trkpt lat="44.87689" lon="5.92765">
        <ele>1451.73</ele>
        <time>2020-06-20T14:23:23Z</time>
      </trkpt>
      <trkpt lat="44.87675" lon="5.92769">
        <ele>1449.32</ele>
        <time>2020-06-20T14:23:38Z</time>
      </trkpt>
      <trkpt lat="44.8766" lon="5.92775">
        <ele>1447.4</ele>
        <time>2020-06-20T14:23:53Z</time>
      </trkpt>
      <trkpt lat="44.87646" lon="5.92781">
        <ele>1445.48</ele>
        <time>2020-06-20T14:24:07Z</time>
      </trkpt>
      <trkpt lat="44.87632" lon="5.92789">
        <ele>1443.56</ele>
        <time>2020-06-20T14:24:21Z</time>
      </trkpt>
      <trkpt lat="44.87619" lon="5.92795">
        <ele>1442.11</ele>
        <time>2020-06-20T14:24:33Z</time>
      </trkpt>
      <trkpt lat="44.87613" lon="5.92795">
        <ele>1440.67</ele>
        <time>2020-06-20T14:24:40Z</time>
      </trkpt>
      <trkpt lat="44.87605" lon="5.92788">
        <ele>1440.67</ele>
        <time>2020-06-20T14:24:48Z</time>
      </trkpt>
      <trkpt lat="44.87605" lon="5.92778">
        <ele>1440.67</ele>
        <time>2020-06-20T14:25:06Z</time>
      </trkpt>
      <trkpt lat="44.87604" lon="5.92778">
        <ele>1440.67</ele>
        <time>2020-06-20T14:25:13Z</time>
      </trkpt>
      <trkpt lat="44.876" lon="5.92776">
        <ele>1441.15</ele>
        <time>2020-06-20T14:25:32Z</time>
      </trkpt>
    </trkseg>
  </trk>
</gpx>